<?xml version="1.0" encoding="UTF-8" standalone="no" ?><gpx xmlns="http://www.topografix.com/GPX/1/1" xmlns:gpxx="http://www.garmin.com/xmlschemas/GpxExtensions/v3" xmlns:wptx1="http://www.garmin.com/xmlschemas/WaypointExtension/v1" xmlns:gpxtpx="http://www.garmin.com/xmlschemas/TrackPointExtension/v1" creator="GuideVTT.com" version="1.1" xmlns:xsi="http://www.w3.org/2001/XMLSchema-instance" xsi:schemaLocation="http://www.topografix.com/GPX/1/1 http://www.topografix.com/GPX/1/1/gpx.xsd http://www.garmin.com/xmlschemas/GpxExtensions/v3 http://www8.garmin.com/xmlschemas/GpxExtensionsv3.xsd http://www.garmin.com/xmlschemas/WaypointExtension/v1 http://www8.garmin.com/xmlschemas/WaypointExtensionv1.xsd http://www.garmin.com/xmlschemas/TrackPointExtension/v1 http://www.garmin.com/xmlschemas/TrackPointExtensionv1.xsd">
<metadata><link href="http://www.garmin.com"><text>Garmin International</text></link><time>2013-06-22T15:13:50Z</time></metadata>
<trk><name>aigle-bretaye.gpx</name><extensions><gpxx:TrackExtension><gpxx:DisplayColor>Cyan</gpxx:DisplayColor></gpxx:TrackExtension></extensions><trkseg>
<trkpt lat="46.31585193" lon="6.98138396"><ele>365.6000062128</ele><time>2010-10-02T11:59:07Z</time></trkpt>
<trkpt lat="46.31586894" lon="6.98146594"><ele>366.200012328</ele><time>2010-10-02T11:59:09Z</time></trkpt>
<trkpt lat="46.31588395" lon="6.98154096"><ele>366.0000001296</ele><time>2010-10-02T11:59:11Z</time></trkpt>
<trkpt lat="46.31592795" lon="6.98171597"><ele>367.2000120552</ele><time>2010-10-02T11:59:16Z</time></trkpt>
<trkpt lat="46.31599199" lon="6.98199299"><ele>369.3999938376</ele><time>2010-10-02T11:59:23Z</time></trkpt>
<trkpt lat="46.31602292" lon="6.98218192"><ele>370.600006068</ele><time>2010-10-02T11:59:28Z</time></trkpt>
<trkpt lat="46.31603097" lon="6.98236096"><ele>372.0000000168</ele><time>2010-10-02T11:59:33Z</time></trkpt>
<trkpt lat="46.31599392" lon="6.98254393"><ele>373.2000122472</ele><time>2010-10-02T11:59:38Z</time></trkpt>
<trkpt lat="46.31592393" lon="6.98273194"><ele>374.7999879144</ele><time>2010-10-02T11:59:44Z</time></trkpt>
<trkpt lat="46.31578697" lon="6.98297200"><ele>376.999999872</ele><time>2010-10-02T11:59:52Z</time></trkpt>
<trkpt lat="46.31567398" lon="6.98322597"><ele>379.6000060512</ele><time>2010-10-02T12:00:00Z</time></trkpt>
<trkpt lat="46.31559796" lon="6.98338196"><ele>380.7999878016</ele><time>2010-10-02T12:00:06Z</time></trkpt>
<trkpt lat="46.31552093" lon="6.98354700"><ele>382.3999939488</ele><time>2010-10-02T12:00:12Z</time></trkpt>
<trkpt lat="46.31549997" lon="6.98371095"><ele>383.2000122624</ele><time>2010-10-02T12:00:17Z</time></trkpt>
<trkpt lat="46.31548296" lon="6.98394698"><ele>384.6000062112</ele><time>2010-10-02T12:00:24Z</time></trkpt>
<trkpt lat="46.31544993" lon="6.98424395"><ele>386.9999998872</ele><time>2010-10-02T12:00:33Z</time></trkpt>
<trkpt lat="46.31543593" lon="6.98441897"><ele>388.7999877528</ele><time>2010-10-02T12:00:39Z</time></trkpt>
<trkpt lat="46.31541297" lon="6.98454897"><ele>389.9999999832</ele><time>2010-10-02T12:00:44Z</time></trkpt>
<trkpt lat="46.31550592" lon="6.98473798"><ele>391.6000061304</ele><time>2010-10-02T12:00:50Z</time></trkpt>
<trkpt lat="46.31552696" lon="6.98477796"><ele>391.7999878488</ele><time>2010-10-02T12:00:51Z</time></trkpt>
<trkpt lat="46.31553493" lon="6.98496999"><ele>392.7999878808</ele><time>2010-10-02T12:00:57Z</time></trkpt>
<trkpt lat="46.31551498" lon="6.98522497"><ele>394.2000123096</ele><time>2010-10-02T12:01:04Z</time></trkpt>
<trkpt lat="46.31551992" lon="6.98547995"><ele>396.2000120688</ele><time>2010-10-02T12:01:11Z</time></trkpt>
<trkpt lat="46.31552897" lon="6.98580198"><ele>398.3999938512</ele><time>2010-10-02T12:01:20Z</time></trkpt>
<trkpt lat="46.31553895" lon="6.98589996"><ele>399.2000121648</ele><time>2010-10-02T12:01:23Z</time></trkpt>
<trkpt lat="46.31545798" lon="6.98598093"><ele>401.2000122288</ele><time>2010-10-02T12:01:28Z</time></trkpt>
<trkpt lat="46.31530199" lon="6.98593399"><ele>404.2000123248</ele><time>2010-10-02T12:01:36Z</time></trkpt>
<trkpt lat="46.31517693" lon="6.98590793"><ele>405.3999937704</ele><time>2010-10-02T12:01:42Z</time></trkpt>
<trkpt lat="46.31506294" lon="6.98585797"><ele>407.200012116</ele><time>2010-10-02T12:01:49Z</time></trkpt>
<trkpt lat="46.31498298" lon="6.98571992"><ele>408.3999938664</ele><time>2010-10-02T12:01:54Z</time></trkpt>
<trkpt lat="46.31496294" lon="6.98547299"><ele>409.3999938984</ele><time>2010-10-02T12:02:00Z</time></trkpt>
<trkpt lat="46.31495892" lon="6.98521298"><ele>411.7999878792</ele><time>2010-10-02T12:02:07Z</time></trkpt>
<trkpt lat="46.31488097" lon="6.98509899"><ele>412.200012276</ele><time>2010-10-02T12:02:11Z</time></trkpt>
<trkpt lat="46.31473496" lon="6.98507594"><ele>412.6000061928</ele><time>2010-10-02T12:02:15Z</time></trkpt>
<trkpt lat="46.31447495" lon="6.98522799"><ele>412.0000000776</ele><time>2010-10-02T12:02:21Z</time></trkpt>
<trkpt lat="46.31419198" lon="6.98546193"><ele>411.7999878792</ele><time>2010-10-02T12:02:27Z</time></trkpt>
<trkpt lat="46.31387992" lon="6.98557994"><ele>411.3999939624</ele><time>2010-10-02T12:02:32Z</time></trkpt>
<trkpt lat="46.31354699" lon="6.98550300"><ele>409.7999878152</ele><time>2010-10-02T12:02:37Z</time></trkpt>
<trkpt lat="46.31335597" lon="6.98539093"><ele>408.9999999816</ele><time>2010-10-02T12:02:40Z</time></trkpt>
<trkpt lat="46.31307400" lon="6.98530795"><ele>408.7999877832</ele><time>2010-10-02T12:02:45Z</time></trkpt>
<trkpt lat="46.31287292" lon="6.98528398"><ele>410.200012212</ele><time>2010-10-02T12:02:51Z</time></trkpt>
<trkpt lat="46.31270796" lon="6.98522195"><ele>412.3999939944</ele><time>2010-10-02T12:02:57Z</time></trkpt>
<trkpt lat="46.31252700" lon="6.98520997"><ele>414.3999937536</ele><time>2010-10-02T12:03:04Z</time></trkpt>
<trkpt lat="46.31231393" lon="6.98514895"><ele>415.2000120672</ele><time>2010-10-02T12:03:09Z</time></trkpt>
<trkpt lat="46.31210597" lon="6.98509295"><ele>415.9999999008</ele><time>2010-10-02T12:03:15Z</time></trkpt>
<trkpt lat="46.31186600" lon="6.98508692"><ele>417.2000121312</ele><time>2010-10-02T12:03:21Z</time></trkpt>
<trkpt lat="46.31164698" lon="6.98510595"><ele>418.2000121632</ele><time>2010-10-02T12:03:27Z</time></trkpt>
<trkpt lat="46.31146694" lon="6.98509396"><ele>418.9999999968</ele><time>2010-10-02T12:03:32Z</time></trkpt>
<trkpt lat="46.31121498" lon="6.98506898"><ele>420.600006144</ele><time>2010-10-02T12:03:39Z</time></trkpt>
<trkpt lat="46.31103393" lon="6.98506395"><ele>422.600006208</ele><time>2010-10-02T12:03:46Z</time></trkpt>
<trkpt lat="46.31081994" lon="6.98502799"><ele>424.7999876856</ele><time>2010-10-02T12:03:53Z</time></trkpt>
<trkpt lat="46.31061299" lon="6.98498994"><ele>426.2000121144</ele><time>2010-10-02T12:03:59Z</time></trkpt>
<trkpt lat="46.31046697" lon="6.98497997"><ele>427.7999877816</ele><time>2010-10-02T12:04:04Z</time></trkpt>
<trkpt lat="46.31037494" lon="6.98495197"><ele>429.3999939288</ele><time>2010-10-02T12:04:09Z</time></trkpt>
<trkpt lat="46.31028492" lon="6.98492993"><ele>430.3999939608</ele><time>2010-10-02T12:04:13Z</time></trkpt>
<trkpt lat="46.31019398" lon="6.98489095"><ele>431.6000061912</ele><time>2010-10-02T12:04:17Z</time></trkpt>
<trkpt lat="46.31012198" lon="6.98475500"><ele>433.399993752</ele><time>2010-10-02T12:04:22Z</time></trkpt>
<trkpt lat="46.31011292" lon="6.98453397"><ele>435.2000120976</ele><time>2010-10-02T12:04:28Z</time></trkpt>
<trkpt lat="46.31014293" lon="6.98437295"><ele>436.7999877648</ele><time>2010-10-02T12:04:33Z</time></trkpt>
<trkpt lat="46.31016397" lon="6.98412694"><ele>438.6000061104</ele><time>2010-10-02T12:04:39Z</time></trkpt>
<trkpt lat="46.31013597" lon="6.98400599"><ele>439.7999878608</ele><time>2010-10-02T12:04:44Z</time></trkpt>
<trkpt lat="46.31007093" lon="6.98389099"><ele>441.7999879248</ele><time>2010-10-02T12:04:52Z</time></trkpt>
<trkpt lat="46.31000999" lon="6.98380298"><ele>444.2000120808</ele><time>2010-10-02T12:04:59Z</time></trkpt>
<trkpt lat="46.30993992" lon="6.98367096"><ele>446.9999999784</ele><time>2010-10-02T12:05:08Z</time></trkpt>
<trkpt lat="46.30984797" lon="6.98354892"><ele>449.6000061576</ele><time>2010-10-02T12:05:17Z</time></trkpt>
<trkpt lat="46.30973792" lon="6.98348698"><ele>450.799987908</ele><time>2010-10-02T12:05:23Z</time></trkpt>
<trkpt lat="46.30956894" lon="6.98340492"><ele>452.3999937504</ele><time>2010-10-02T12:05:32Z</time></trkpt>
<trkpt lat="46.30941496" lon="6.98328397"><ele>454.3999938144</ele><time>2010-10-02T12:05:41Z</time></trkpt>
<trkpt lat="46.30931497" lon="6.98323293"><ele>456.3999938784</ele><time>2010-10-02T12:05:48Z</time></trkpt>
<trkpt lat="46.30919100" lon="6.98319294"><ele>458.7999878592</ele><time>2010-10-02T12:05:56Z</time></trkpt>
<trkpt lat="46.30903996" lon="6.98311600"><ele>460.3999940064</ele><time>2010-10-02T12:06:03Z</time></trkpt>
<trkpt lat="46.30878196" lon="6.98295197"><ele>462.7999876824</ele><time>2010-10-02T12:06:16Z</time></trkpt>
<trkpt lat="46.30856898" lon="6.98286999"><ele>464.3999938296</ele><time>2010-10-02T12:06:25Z</time></trkpt>
<trkpt lat="46.30840796" lon="6.98285096"><ele>465.9999999768</ele><time>2010-10-02T12:06:34Z</time></trkpt>
<trkpt lat="46.30829497" lon="6.98279799"><ele>466.7999878104</ele><time>2010-10-02T12:06:40Z</time></trkpt>
<trkpt lat="46.30815499" lon="6.98268299"><ele>467.600006124</ele><time>2010-10-02T12:06:46Z</time></trkpt>
<trkpt lat="46.30811996" lon="6.98261895"><ele>467.600006124</ele><time>2010-10-02T12:06:48Z</time></trkpt>
<trkpt lat="46.30798099" lon="6.98245400"><ele>468.600006156</ele><time>2010-10-02T12:06:54Z</time></trkpt>
<trkpt lat="46.30794696" lon="6.98239096"><ele>469.0000000728</ele><time>2010-10-02T12:06:56Z</time></trkpt>
<trkpt lat="46.30783296" lon="6.98202895"><ele>471.3999937488</ele><time>2010-10-02T12:07:07Z</time></trkpt>
<trkpt lat="46.30773992" lon="6.98187992"><ele>472.3999937808</ele><time>2010-10-02T12:07:13Z</time></trkpt>
<trkpt lat="46.30754898" lon="6.98178395"><ele>473.6000060112</ele><time>2010-10-02T12:07:20Z</time></trkpt>
<trkpt lat="46.30734597" lon="6.98170993"><ele>473.6000060112</ele><time>2010-10-02T12:07:25Z</time></trkpt>
<trkpt lat="46.30713399" lon="6.98171597"><ele>473.2000120944</ele><time>2010-10-02T12:07:29Z</time></trkpt>
<trkpt lat="46.30689595" lon="6.98165998"><ele>472.6000059792</ele><time>2010-10-02T12:07:33Z</time></trkpt>
<trkpt lat="46.30642899" lon="6.98141095"><ele>471.0000001368</ele><time>2010-10-02T12:07:40Z</time></trkpt>
<trkpt lat="46.30620000" lon="6.98144197"><ele>470.0000001048</ele><time>2010-10-02T12:07:44Z</time></trkpt>
<trkpt lat="46.30610394" lon="6.98158697"><ele>470.7999879384</ele><time>2010-10-02T12:07:47Z</time></trkpt>
<trkpt lat="46.30590596" lon="6.98178696"><ele>472.7999876976</ele><time>2010-10-02T12:07:54Z</time></trkpt>
<trkpt lat="46.30579499" lon="6.98179794"><ele>474.2000121264</ele><time>2010-10-02T12:07:59Z</time></trkpt>
<trkpt lat="46.30559692" lon="6.98166199"><ele>476.7999878256</ele><time>2010-10-02T12:08:07Z</time></trkpt>
<trkpt lat="46.30546893" lon="6.98159292"><ele>478.2000122544</ele><time>2010-10-02T12:08:13Z</time></trkpt>
<trkpt lat="46.30536994" lon="6.98168797"><ele>479.3999940048</ele><time>2010-10-02T12:08:18Z</time></trkpt>
<trkpt lat="46.30537698" lon="6.98184899"><ele>480.7999876488</ele><time>2010-10-02T12:08:23Z</time></trkpt>
<trkpt lat="46.30546692" lon="6.98200699"><ele>483.399993828</ele><time>2010-10-02T12:08:30Z</time></trkpt>
<trkpt lat="46.30557999" lon="6.98215996"><ele>484.9999999752</ele><time>2010-10-02T12:08:38Z</time></trkpt>
<trkpt lat="46.30567194" lon="6.98228795"><ele>486.6000061224</ele><time>2010-10-02T12:08:44Z</time></trkpt>
<trkpt lat="46.30578996" lon="6.98237998"><ele>488.2000122696</ele><time>2010-10-02T12:08:51Z</time></trkpt>
<trkpt lat="46.30593698" lon="6.98246196"><ele>489.39999402</ele><time>2010-10-02T12:08:57Z</time></trkpt>
<trkpt lat="46.30605793" lon="6.98251493"><ele>491.2000120608</ele><time>2010-10-02T12:09:03Z</time></trkpt>
<trkpt lat="46.30623093" lon="6.98256900"><ele>492.9999999264</ele><time>2010-10-02T12:09:10Z</time></trkpt>
<trkpt lat="46.30635297" lon="6.98265298"><ele>494.3999938752</ele><time>2010-10-02T12:09:16Z</time></trkpt>
<trkpt lat="46.30643193" lon="6.98274996"><ele>496.0000000224</ele><time>2010-10-02T12:09:21Z</time></trkpt>
<trkpt lat="46.30655397" lon="6.98295792"><ele>498.2000122848</ele><time>2010-10-02T12:09:30Z</time></trkpt>
<trkpt lat="46.30666494" lon="6.98310100"><ele>500.2000123488</ele><time>2010-10-02T12:09:37Z</time></trkpt>
<trkpt lat="46.30674399" lon="6.98321600"><ele>501.3999937944</ele><time>2010-10-02T12:09:43Z</time></trkpt>
<trkpt lat="46.30682495" lon="6.98346796"><ele>502.7999877432</ele><time>2010-10-02T12:09:51Z</time></trkpt>
<trkpt lat="46.30689595" lon="6.98363794"><ele>503.9999999736</ele><time>2010-10-02T12:09:57Z</time></trkpt>
<trkpt lat="46.30699796" lon="6.98377993"><ele>505.7999878392</ele><time>2010-10-02T12:10:03Z</time></trkpt>
<trkpt lat="46.30707297" lon="6.98390599"><ele>507.0000000696</ele><time>2010-10-02T12:10:09Z</time></trkpt>
<trkpt lat="46.30709393" lon="6.98394899"><ele>507.6000061848</ele><time>2010-10-02T12:10:11Z</time></trkpt>
<trkpt lat="46.30715998" lon="6.98403399"><ele>509.0000001336</ele><time>2010-10-02T12:10:16Z</time></trkpt>
<trkpt lat="46.30719895" lon="6.98418193"><ele>509.7999876624</ele><time>2010-10-02T12:10:21Z</time></trkpt>
<trkpt lat="46.30726199" lon="6.98428796"><ele>510.7999876944</ele><time>2010-10-02T12:10:25Z</time></trkpt>
<trkpt lat="46.30731999" lon="6.98438393"><ele>511.7999877264</ele><time>2010-10-02T12:10:29Z</time></trkpt>
<trkpt lat="46.30741898" lon="6.98459893"><ele>513.4000243536</ele><time>2010-10-02T12:10:37Z</time></trkpt>
<trkpt lat="46.30748997" lon="6.98477796"><ele>515.599975656</ele><time>2010-10-02T12:10:44Z</time></trkpt>
<trkpt lat="46.30756893" lon="6.98501400"><ele>517.2000122832</ele><time>2010-10-02T12:10:52Z</time></trkpt>
<trkpt lat="46.30760397" lon="6.98520795"><ele>518.5999754472</ele><time>2010-10-02T12:10:58Z</time></trkpt>
<trkpt lat="46.30759592" lon="6.98540392"><ele>520.2000120744</ele><time>2010-10-02T12:11:05Z</time></trkpt>
<trkpt lat="46.30762199" lon="6.98547894"><ele>521.4000243048</ele><time>2010-10-02T12:11:08Z</time></trkpt>
<trkpt lat="46.30772693" lon="6.98571296"><ele>523.5999756072</ele><time>2010-10-02T12:11:17Z</time></trkpt>
<trkpt lat="46.30776498" lon="6.98583593"><ele>524.5999756392</ele><time>2010-10-02T12:11:22Z</time></trkpt>
<trkpt lat="46.30782693" lon="6.98600197"><ele>525.7999878696</ele><time>2010-10-02T12:11:28Z</time></trkpt>
<trkpt lat="46.30792198" lon="6.98615796"><ele>526.5999757032</ele><time>2010-10-02T12:11:34Z</time></trkpt>
<trkpt lat="46.30803999" lon="6.98635493"><ele>528.5999754624</ele><time>2010-10-02T12:11:41Z</time></trkpt>
<trkpt lat="46.30806497" lon="6.98646097"><ele>529.5999754944</ele><time>2010-10-02T12:11:46Z</time></trkpt>
<trkpt lat="46.30810294" lon="6.98663196"><ele>530.9999999232</ele><time>2010-10-02T12:11:53Z</time></trkpt>
<trkpt lat="46.30816799" lon="6.98680295"><ele>532.5999755904</ele><time>2010-10-02T12:11:59Z</time></trkpt>
<trkpt lat="46.30825994" lon="6.98700193"><ele>533.7999878208</ele><time>2010-10-02T12:12:06Z</time></trkpt>
<trkpt lat="46.30835398" lon="6.98714795"><ele>535.400024448</ele><time>2010-10-02T12:12:12Z</time></trkpt>
<trkpt lat="46.30843797" lon="6.98731592"><ele>537.0000001152</ele><time>2010-10-02T12:12:19Z</time></trkpt>
<trkpt lat="46.30852598" lon="6.98753997"><ele>539.2000120728</ele><time>2010-10-02T12:12:26Z</time></trkpt>
<trkpt lat="46.30858197" lon="6.98775195"><ele>540.5999755416</ele><time>2010-10-02T12:12:34Z</time></trkpt>
<trkpt lat="46.30862698" lon="6.98791598"><ele>541.5999755736</ele><time>2010-10-02T12:12:40Z</time></trkpt>
<trkpt lat="46.30865699" lon="6.98807993"><ele>543.5999756376</ele><time>2010-10-02T12:12:47Z</time></trkpt>
<trkpt lat="46.30872396" lon="6.98821295"><ele>545.0000000664</ele><time>2010-10-02T12:12:53Z</time></trkpt>
<trkpt lat="46.30881792" lon="6.98834698"><ele>546.5999757336</ele><time>2010-10-02T12:13:00Z</time></trkpt>
<trkpt lat="46.30899193" lon="6.98853599"><ele>549.200012088</ele><time>2010-10-02T12:13:11Z</time></trkpt>
<trkpt lat="46.30913995" lon="6.98864194"><ele>551.200012152</ele><time>2010-10-02T12:13:19Z</time></trkpt>
<trkpt lat="46.30927892" lon="6.98861293"><ele>552.7999878192</ele><time>2010-10-02T12:13:25Z</time></trkpt>
<trkpt lat="46.30933592" lon="6.98850397"><ele>553.7999878512</ele><time>2010-10-02T12:13:30Z</time></trkpt>
<trkpt lat="46.30938898" lon="6.98837698"><ele>555.0000000816</ele><time>2010-10-02T12:13:35Z</time></trkpt>
<trkpt lat="46.30952996" lon="6.98834396"><ele>556.0000001136</ele><time>2010-10-02T12:13:41Z</time></trkpt>
<trkpt lat="46.30968997" lon="6.98841093"><ele>556.0000001136</ele><time>2010-10-02T12:13:48Z</time></trkpt>
<trkpt lat="46.30989399" lon="6.98841596"><ele>557.599975476</ele><time>2010-10-02T12:13:53Z</time></trkpt>
<trkpt lat="46.30996197" lon="6.98843792"><ele>559.2000121032</ele><time>2010-10-02T12:13:56Z</time></trkpt>
<trkpt lat="46.31010295" lon="6.98850598"><ele>561.2000121672</ele><time>2010-10-02T12:14:03Z</time></trkpt>
<trkpt lat="46.31024100" lon="6.98864194"><ele>563.2000122312</ele><time>2010-10-02T12:14:11Z</time></trkpt>
<trkpt lat="46.31038098" lon="6.98879398"><ele>564.4000244616</ele><time>2010-10-02T12:14:18Z</time></trkpt>
<trkpt lat="46.31046798" lon="6.98887696"><ele>565.4000244936</ele><time>2010-10-02T12:14:23Z</time></trkpt>
<trkpt lat="46.31061198" lon="6.98891493"><ele>566.5999754592</ele><time>2010-10-02T12:14:29Z</time></trkpt>
<trkpt lat="46.31081298" lon="6.98891192"><ele>567.5999754912</ele><time>2010-10-02T12:14:36Z</time></trkpt>
<trkpt lat="46.31103996" lon="6.98890697"><ele>568.5999755232</ele><time>2010-10-02T12:14:44Z</time></trkpt>
<trkpt lat="46.31118899" lon="6.98899599"><ele>569.5999755552</ele><time>2010-10-02T12:14:51Z</time></trkpt>
<trkpt lat="46.31122797" lon="6.98904192"><ele>570.2000121504</ele><time>2010-10-02T12:14:54Z</time></trkpt>
<trkpt lat="46.31116594" lon="6.98906296"><ele>571.5999756192</ele><time>2010-10-02T12:15:00Z</time></trkpt>
<trkpt lat="46.31103493" lon="6.98907897"><ele>572.7999878496</ele><time>2010-10-02T12:15:08Z</time></trkpt>
<trkpt lat="46.31090200" lon="6.98912297"><ele>573.7999878816</ele><time>2010-10-02T12:15:16Z</time></trkpt>
<trkpt lat="46.31078398" lon="6.98920495"><ele>574.4000244768</ele><time>2010-10-02T12:15:23Z</time></trkpt>
<trkpt lat="46.31062196" lon="6.98930000"><ele>575.5999754424</ele><time>2010-10-02T12:15:31Z</time></trkpt>
<trkpt lat="46.31042800" lon="6.98938994"><ele>576.9999998712</ele><time>2010-10-02T12:15:40Z</time></trkpt>
<trkpt lat="46.31023496" lon="6.98943696"><ele>578.4000243</ele><time>2010-10-02T12:15:49Z</time></trkpt>
<trkpt lat="46.31005995" lon="6.98946093"><ele>579.7999877688</ele><time>2010-10-02T12:15:58Z</time></trkpt>
<trkpt lat="46.30991494" lon="6.98945699"><ele>580.7999878008</ele><time>2010-10-02T12:16:05Z</time></trkpt>
<trkpt lat="46.30975292" lon="6.98944895"><ele>582.0000000312</ele><time>2010-10-02T12:16:13Z</time></trkpt>
<trkpt lat="46.30964798" lon="6.98945800"><ele>583.0000000632</ele><time>2010-10-02T12:16:19Z</time></trkpt>
<trkpt lat="46.30947095" lon="6.98938692"><ele>583.7999878968</ele><time>2010-10-02T12:16:27Z</time></trkpt>
<trkpt lat="46.30931597" lon="6.98926496"><ele>584.7999879288</ele><time>2010-10-02T12:16:35Z</time></trkpt>
<trkpt lat="46.30918295" lon="6.98915600"><ele>586.400024556</ele><time>2010-10-02T12:16:43Z</time></trkpt>
<trkpt lat="46.30912093" lon="6.98908492"><ele>587.2000120848</ele><time>2010-10-02T12:16:48Z</time></trkpt>
<trkpt lat="46.30896192" lon="6.98895995"><ele>588.4000243152</ele><time>2010-10-02T12:16:56Z</time></trkpt>
<trkpt lat="46.30884994" lon="6.98890798"><ele>588.9999999504</ele><time>2010-10-02T12:17:01Z</time></trkpt>
<trkpt lat="46.30870694" lon="6.98889599"><ele>590.2000121808</ele><time>2010-10-02T12:17:08Z</time></trkpt>
<trkpt lat="46.30860695" lon="6.98892399"><ele>591.0000000144</ele><time>2010-10-02T12:17:14Z</time></trkpt>
<trkpt lat="46.30855892" lon="6.98891393"><ele>592.2000122448</ele><time>2010-10-02T12:17:19Z</time></trkpt>
<trkpt lat="46.30842799" lon="6.98888392"><ele>593.2000122768</ele><time>2010-10-02T12:17:25Z</time></trkpt>
<trkpt lat="46.30833294" lon="6.98881192"><ele>594.5999754408</ele><time>2010-10-02T12:17:31Z</time></trkpt>
<trkpt lat="46.30824393" lon="6.98869399"><ele>595.4000245392</ele><time>2010-10-02T12:17:37Z</time></trkpt>
<trkpt lat="46.30814100" lon="6.98858796"><ele>595.9999998696</ele><time>2010-10-02T12:17:43Z</time></trkpt>
<trkpt lat="46.30802399" lon="6.98839400"><ele>597.7999877352</ele><time>2010-10-02T12:17:51Z</time></trkpt>
<trkpt lat="46.30791795" lon="6.98824799"><ele>599.200012164</ele><time>2010-10-02T12:17:58Z</time></trkpt>
<trkpt lat="46.30779499" lon="6.98810893"><ele>600.4000243944</ele><time>2010-10-02T12:18:06Z</time></trkpt>
<trkpt lat="46.30769793" lon="6.98799494"><ele>601.200012228</ele><time>2010-10-02T12:18:12Z</time></trkpt>
<trkpt lat="46.30760799" lon="6.98785898"><ele>602.5999756968</ele><time>2010-10-02T12:18:19Z</time></trkpt>
<trkpt lat="46.30750397" lon="6.98770694"><ele>604.0000001256</ele><time>2010-10-02T12:18:27Z</time></trkpt>
<trkpt lat="46.30743599" lon="6.98762094"><ele>604.7999876544</ele><time>2010-10-02T12:18:32Z</time></trkpt>
<trkpt lat="46.30733499" lon="6.98746897"><ele>606.4000242816</ele><time>2010-10-02T12:18:40Z</time></trkpt>
<trkpt lat="46.30728093" lon="6.98729295"><ele>607.599975552</ele><time>2010-10-02T12:18:48Z</time></trkpt>
<trkpt lat="46.30720197" lon="6.98715298"><ele>608.4000243456</ele><time>2010-10-02T12:18:54Z</time></trkpt>
<trkpt lat="46.30713793" lon="6.98698794"><ele>609.2000121792</ele><time>2010-10-02T12:19:00Z</time></trkpt>
<trkpt lat="46.30708999" lon="6.98686799"><ele>610.0000000128</ele><time>2010-10-02T12:19:05Z</time></trkpt>
<trkpt lat="46.30696493" lon="6.98669197"><ele>611.4000244416</ele><time>2010-10-02T12:19:13Z</time></trkpt>
<trkpt lat="46.30690894" lon="6.98656892"><ele>612.0000000768</ele><time>2010-10-02T12:19:18Z</time></trkpt>
<trkpt lat="46.30679595" lon="6.98645694"><ele>613.4000245056</ele><time>2010-10-02T12:19:25Z</time></trkpt>
<trkpt lat="46.30664692" lon="6.98645694"><ele>614.5999754712</ele><time>2010-10-02T12:19:32Z</time></trkpt>
<trkpt lat="46.30654793" lon="6.98641998"><ele>615.5999755032</ele><time>2010-10-02T12:19:38Z</time></trkpt>
<trkpt lat="46.30643394" lon="6.98635795"><ele>616.7999877336</ele><time>2010-10-02T12:19:44Z</time></trkpt>
<trkpt lat="46.30641500" lon="6.98634798"><ele>616.7999877336</ele><time>2010-10-02T12:19:45Z</time></trkpt>
<trkpt lat="46.30631793" lon="6.98625695"><ele>618.4000243608</ele><time>2010-10-02T12:19:52Z</time></trkpt>
<trkpt lat="46.30619396" lon="6.98613793"><ele>619.7999878296</ele><time>2010-10-02T12:19:59Z</time></trkpt>
<trkpt lat="46.30598098" lon="6.98597599"><ele>621.5999756952</ele><time>2010-10-02T12:20:09Z</time></trkpt>
<trkpt lat="46.30579700" lon="6.98587792"><ele>623.2000123224</ele><time>2010-10-02T12:20:17Z</time></trkpt>
<trkpt lat="46.30556599" lon="6.98575797"><ele>624.5999754864</ele><time>2010-10-02T12:20:27Z</time></trkpt>
<trkpt lat="46.30541596" lon="6.98566192"><ele>625.40002428</ele><time>2010-10-02T12:20:34Z</time></trkpt>
<trkpt lat="46.30531294" lon="6.98564398"><ele>625.7999877168</ele><time>2010-10-02T12:20:38Z</time></trkpt>
<trkpt lat="46.30526592" lon="6.98575999"><ele>626.7999877488</ele><time>2010-10-02T12:20:43Z</time></trkpt>
<trkpt lat="46.30528193" lon="6.98578295"><ele>627.2000121456</ele><time>2010-10-02T12:20:44Z</time></trkpt>
<trkpt lat="46.30541495" lon="6.98588697"><ele>628.5999756144</ele><time>2010-10-02T12:20:51Z</time></trkpt>
<trkpt lat="46.30556993" lon="6.98598496"><ele>629.5999756464</ele><time>2010-10-02T12:20:59Z</time></trkpt>
<trkpt lat="46.30569499" lon="6.98606593"><ele>630.0000000432</ele><time>2010-10-02T12:21:05Z</time></trkpt>
<trkpt lat="46.30580999" lon="6.98619392"><ele>631.400024472</ele><time>2010-10-02T12:21:12Z</time></trkpt>
<trkpt lat="46.30588492" lon="6.98629199"><ele>632.0000001072</ele><time>2010-10-02T12:21:17Z</time></trkpt>
<trkpt lat="46.30595592" lon="6.98638000"><ele>632.7999879408</ele><time>2010-10-02T12:21:22Z</time></trkpt>
<trkpt lat="46.30604594" lon="6.98649097"><ele>633.799987668</ele><time>2010-10-02T12:21:28Z</time></trkpt>
<trkpt lat="46.30613898" lon="6.98660698"><ele>634.4000242632</ele><time>2010-10-02T12:21:34Z</time></trkpt>
<trkpt lat="46.30622800" lon="6.98672500"><ele>635.4000242952</ele><time>2010-10-02T12:21:40Z</time></trkpt>
<trkpt lat="46.30630595" lon="6.98684494"><ele>636.2000121288</ele><time>2010-10-02T12:21:46Z</time></trkpt>
<trkpt lat="46.30640695" lon="6.98701392"><ele>637.4000243592</ele><time>2010-10-02T12:21:54Z</time></trkpt>
<trkpt lat="46.30644199" lon="6.98712800"><ele>638.2000121928</ele><time>2010-10-02T12:21:59Z</time></trkpt>
<trkpt lat="46.30651994" lon="6.98725297"><ele>639.5999756616</ele><time>2010-10-02T12:22:05Z</time></trkpt>
<trkpt lat="46.30658892" lon="6.98739094"><ele>640.5999756936</ele><time>2010-10-02T12:22:11Z</time></trkpt>
<trkpt lat="46.30663795" lon="6.98751398"><ele>641.5999757256</ele><time>2010-10-02T12:22:16Z</time></trkpt>
<trkpt lat="46.30668296" lon="6.98766293"><ele>642.2000123208</ele><time>2010-10-02T12:22:22Z</time></trkpt>
<trkpt lat="46.30674792" lon="6.98782193"><ele>642.7999876512</ele><time>2010-10-02T12:22:29Z</time></trkpt>
<trkpt lat="46.30680894" lon="6.98795596"><ele>643.7999876832</ele><time>2010-10-02T12:22:35Z</time></trkpt>
<trkpt lat="46.30682395" lon="6.98803299"><ele>644.9999999136</ele><time>2010-10-02T12:22:38Z</time></trkpt>
<trkpt lat="46.30684893" lon="6.98807892"><ele>645.4000243104</ele><time>2010-10-02T12:22:40Z</time></trkpt>
<trkpt lat="46.30689000" lon="6.98825494"><ele>646.9999999776</ele><time>2010-10-02T12:22:47Z</time></trkpt>
<trkpt lat="46.30690098" lon="6.98827900"><ele>647.200012176</ele><time>2010-10-02T12:22:48Z</time></trkpt>
<trkpt lat="46.30692897" lon="6.98838394"><ele>647.7999878112</ele><time>2010-10-02T12:22:52Z</time></trkpt>
<trkpt lat="46.30700198" lon="6.98854898"><ele>648.7999878432</ele><time>2010-10-02T12:22:59Z</time></trkpt>
<trkpt lat="46.30707893" lon="6.98874998"><ele>649.7999878752</ele><time>2010-10-02T12:23:07Z</time></trkpt>
<trkpt lat="46.30712092" lon="6.98893195"><ele>651.200012304</ele><time>2010-10-02T12:23:13Z</time></trkpt>
<trkpt lat="46.30715596" lon="6.98910093"><ele>652.200012336</ele><time>2010-10-02T12:23:19Z</time></trkpt>
<trkpt lat="46.30719393" lon="6.98926697"><ele>652.9999998648</ele><time>2010-10-02T12:23:25Z</time></trkpt>
<trkpt lat="46.30724095" lon="6.98947493"><ele>654.2000120952</ele><time>2010-10-02T12:23:32Z</time></trkpt>
<trkpt lat="46.30727498" lon="6.98962195"><ele>655.2000121272</ele><time>2010-10-02T12:23:38Z</time></trkpt>
<trkpt lat="46.30731496" lon="6.98976394"><ele>656.599975596</ele><time>2010-10-02T12:23:44Z</time></trkpt>
<trkpt lat="46.30733298" lon="6.98992998"><ele>657.4000243896</ele><time>2010-10-02T12:23:50Z</time></trkpt>
<trkpt lat="46.30736693" lon="6.99007692"><ele>658.4000244216</ele><time>2010-10-02T12:23:55Z</time></trkpt>
<trkpt lat="46.30740297" lon="6.99022897"><ele>658.7999878584</ele><time>2010-10-02T12:24:00Z</time></trkpt>
<trkpt lat="46.30747396" lon="6.99045595"><ele>660.599975724</ele><time>2010-10-02T12:24:09Z</time></trkpt>
<trkpt lat="46.30751998" lon="6.99058495"><ele>661.5999754512</ele><time>2010-10-02T12:24:15Z</time></trkpt>
<trkpt lat="46.30754597" lon="6.99076499"><ele>662.5999754832</ele><time>2010-10-02T12:24:22Z</time></trkpt>
<trkpt lat="46.30756893" lon="6.99089793"><ele>663.4000242768</ele><time>2010-10-02T12:24:28Z</time></trkpt>
<trkpt lat="46.30762098" lon="6.99105492"><ele>664.7999877456</ele><time>2010-10-02T12:24:35Z</time></trkpt>
<trkpt lat="46.30768997" lon="6.99121895"><ele>666.2000121744</ele><time>2010-10-02T12:24:42Z</time></trkpt>
<trkpt lat="46.30773699" lon="6.99142699"><ele>667.000000008</ele><time>2010-10-02T12:24:50Z</time></trkpt>
<trkpt lat="46.30777798" lon="6.99163696"><ele>668.5999756752</ele><time>2010-10-02T12:24:58Z</time></trkpt>
<trkpt lat="46.30782693" lon="6.99177199"><ele>669.5999757072</ele><time>2010-10-02T12:25:04Z</time></trkpt>
<trkpt lat="46.30786397" lon="6.99190794"><ele>670.2000123024</ele><time>2010-10-02T12:25:09Z</time></trkpt>
<trkpt lat="46.30792994" lon="6.99207692"><ele>671.4000245328</ele><time>2010-10-02T12:25:16Z</time></trkpt>
<trkpt lat="46.30798300" lon="6.99225496"><ele>672.5999754984</ele><time>2010-10-02T12:25:23Z</time></trkpt>
<trkpt lat="46.30799892" lon="6.99233199"><ele>672.9999998952</ele><time>2010-10-02T12:25:26Z</time></trkpt>
<trkpt lat="46.30804695" lon="6.99247599"><ele>673.7999877288</ele><time>2010-10-02T12:25:32Z</time></trkpt>
<trkpt lat="46.30809397" lon="6.99264798"><ele>674.7999877608</ele><time>2010-10-02T12:25:39Z</time></trkpt>
<trkpt lat="46.30816095" lon="6.99284496"><ele>675.7999877928</ele><time>2010-10-02T12:25:47Z</time></trkpt>
<trkpt lat="46.30824292" lon="6.99302299"><ele>677.2000122216</ele><time>2010-10-02T12:25:55Z</time></trkpt>
<trkpt lat="46.30833797" lon="6.99321896"><ele>678.0000000552</ele><time>2010-10-02T12:26:04Z</time></trkpt>
<trkpt lat="46.30844199" lon="6.99338995"><ele>679.5999757224</ele><time>2010-10-02T12:26:12Z</time></trkpt>
<trkpt lat="46.30855397" lon="6.99355599"><ele>680.799987648</ele><time>2010-10-02T12:26:20Z</time></trkpt>
<trkpt lat="46.30865598" lon="6.99372799"><ele>682.2000120768</ele><time>2010-10-02T12:26:28Z</time></trkpt>
<trkpt lat="46.30872798" lon="6.99383000"><ele>682.5999755136</ele><time>2010-10-02T12:26:33Z</time></trkpt>
<trkpt lat="46.30880493" lon="6.99395598"><ele>683.4000243072</ele><time>2010-10-02T12:26:39Z</time></trkpt>
<trkpt lat="46.30889595" lon="6.99404994"><ele>684.5999755776</ele><time>2010-10-02T12:26:45Z</time></trkpt>
<trkpt lat="46.30902395" lon="6.99417894"><ele>685.5999756096</ele><time>2010-10-02T12:26:53Z</time></trkpt>
<trkpt lat="46.30915395" lon="6.99432394"><ele>686.79998784</ele><time>2010-10-02T12:27:01Z</time></trkpt>
<trkpt lat="46.30929292" lon="6.99445697"><ele>688.0000000704</ele><time>2010-10-02T12:27:09Z</time></trkpt>
<trkpt lat="46.30942695" lon="6.99463299"><ele>689.799987936</ele><time>2010-10-02T12:27:18Z</time></trkpt>
<trkpt lat="46.30954195" lon="6.99476198"><ele>690.5999754648</ele><time>2010-10-02T12:27:26Z</time></trkpt>
<trkpt lat="46.30968092" lon="6.99479995"><ele>691.9999998936</ele><time>2010-10-02T12:27:34Z</time></trkpt>
<trkpt lat="46.30986096" lon="6.99489098"><ele>693.4000243224</ele><time>2010-10-02T12:27:43Z</time></trkpt>
<trkpt lat="46.30997697" lon="6.99495493"><ele>694.4000243544</ele><time>2010-10-02T12:27:49Z</time></trkpt>
<trkpt lat="46.31010295" lon="6.99500598"><ele>695.200012188</ele><time>2010-10-02T12:27:56Z</time></trkpt>
<trkpt lat="46.31023899" lon="6.99505795"><ele>696.5999756568</ele><time>2010-10-02T12:28:04Z</time></trkpt>
<trkpt lat="46.31038098" lon="6.99509399"><ele>697.5999756888</ele><time>2010-10-02T12:28:11Z</time></trkpt>
<trkpt lat="46.31050000" lon="6.99513498"><ele>699.0000001176</ele><time>2010-10-02T12:28:17Z</time></trkpt>
<trkpt lat="46.31060092" lon="6.99520195"><ele>700.0000001496</ele><time>2010-10-02T12:28:23Z</time></trkpt>
<trkpt lat="46.31070393" lon="6.99529599"><ele>700.9999998768</ele><time>2010-10-02T12:28:29Z</time></trkpt>
<trkpt lat="46.31078096" lon="6.99546900"><ele>702.2000121072</ele><time>2010-10-02T12:28:37Z</time></trkpt>
<trkpt lat="46.31083695" lon="6.99562398"><ele>703.4000243376</ele><time>2010-10-02T12:28:44Z</time></trkpt>
<trkpt lat="46.31090200" lon="6.99577393"><ele>704.7999878064</ele><time>2010-10-02T12:28:51Z</time></trkpt>
<trkpt lat="46.31096494" lon="6.99590293"><ele>706.0000000368</ele><time>2010-10-02T12:28:57Z</time></trkpt>
<trkpt lat="46.31103200" lon="6.99606797"><ele>707.0000000688</ele><time>2010-10-02T12:29:04Z</time></trkpt>
<trkpt lat="46.31114197" lon="6.99628095"><ele>708.4000244976</ele><time>2010-10-02T12:29:13Z</time></trkpt>
<trkpt lat="46.31127298" lon="6.99644096"><ele>709.7999876616</ele><time>2010-10-02T12:29:22Z</time></trkpt>
<trkpt lat="46.31139292" lon="6.99654096"><ele>710.999999892</ele><time>2010-10-02T12:29:30Z</time></trkpt>
<trkpt lat="46.31148496" lon="6.99666392"><ele>712.2000121224</ele><time>2010-10-02T12:29:37Z</time></trkpt>
<trkpt lat="46.31151195" lon="6.99684095"><ele>713.2000121544</ele><time>2010-10-02T12:29:44Z</time></trkpt>
<trkpt lat="46.31147498" lon="6.99703700"><ele>713.7999877896</ele><time>2010-10-02T12:29:51Z</time></trkpt>
<trkpt lat="46.31140600" lon="6.99721796"><ele>715.2000122184</ele><time>2010-10-02T12:29:59Z</time></trkpt>
<trkpt lat="46.31129595" lon="6.99731000"><ele>716.000000052</ele><time>2010-10-02T12:30:06Z</time></trkpt>
<trkpt lat="46.31115194" lon="6.99733699"><ele>716.7999878856</ele><time>2010-10-02T12:30:13Z</time></trkpt>
<trkpt lat="46.31103795" lon="6.99741494"><ele>717.2000122824</ele><time>2010-10-02T12:30:18Z</time></trkpt>
<trkpt lat="46.31088599" lon="6.99761996"><ele>717.7999879176</ele><time>2010-10-02T12:30:24Z</time></trkpt>
<trkpt lat="46.31079898" lon="6.99784795"><ele>717.5999757192</ele><time>2010-10-02T12:30:30Z</time></trkpt>
<trkpt lat="46.31078700" lon="6.99806998"><ele>717.5999757192</ele><time>2010-10-02T12:30:36Z</time></trkpt>
<trkpt lat="46.31087492" lon="6.99828892"><ele>717.7999879176</ele><time>2010-10-02T12:30:41Z</time></trkpt>
<trkpt lat="46.31096595" lon="6.99854298"><ele>718.000000116</ele><time>2010-10-02T12:30:46Z</time></trkpt>
<trkpt lat="46.31104792" lon="6.99888999"><ele>718.2000123144</ele><time>2010-10-02T12:30:52Z</time></trkpt>
<trkpt lat="46.31108095" lon="6.99913499"><ele>718.4000245128</ele><time>2010-10-02T12:30:56Z</time></trkpt>
<trkpt lat="46.31119394" lon="6.99942794"><ele>719.2000123464</ele><time>2010-10-02T12:31:01Z</time></trkpt>
<trkpt lat="46.31130097" lon="6.99976900"><ele>719.5999754784</ele><time>2010-10-02T12:31:07Z</time></trkpt>
<trkpt lat="46.31143492" lon="7.00022598"><ele>720.5999755104</ele><time>2010-10-02T12:31:15Z</time></trkpt>
<trkpt lat="46.31153692" lon="7.00045992"><ele>720.7999877088</ele><time>2010-10-02T12:31:20Z</time></trkpt>
<trkpt lat="46.31159795" lon="7.00060794"><ele>720.7999877088</ele><time>2010-10-02T12:31:23Z</time></trkpt>
<trkpt lat="46.31175997" lon="7.00090399"><ele>720.9999999072</ele><time>2010-10-02T12:31:29Z</time></trkpt>
<trkpt lat="46.31179995" lon="7.00100994"><ele>721.2000121056</ele><time>2010-10-02T12:31:31Z</time></trkpt>
<trkpt lat="46.31190397" lon="7.00135393"><ele>721.5999755424</ele><time>2010-10-02T12:31:37Z</time></trkpt>
<trkpt lat="46.31189995" lon="7.00171192"><ele>722.5999755744</ele><time>2010-10-02T12:31:43Z</time></trkpt>
<trkpt lat="46.31186692" lon="7.00192298"><ele>723.400024368</ele><time>2010-10-02T12:31:48Z</time></trkpt>
<trkpt lat="46.31184999" lon="7.00220394"><ele>724.2000122016</ele><time>2010-10-02T12:31:54Z</time></trkpt>
<trkpt lat="46.31184295" lon="7.00266897"><ele>725.2000122336</ele><time>2010-10-02T12:32:03Z</time></trkpt>
<trkpt lat="46.31188494" lon="7.00298497"><ele>726.2000122656</ele><time>2010-10-02T12:32:10Z</time></trkpt>
<trkpt lat="46.31190900" lon="7.00329593"><ele>727.0000000992</ele><time>2010-10-02T12:32:17Z</time></trkpt>
<trkpt lat="46.31186499" lon="7.00361797"><ele>728.0000001312</ele><time>2010-10-02T12:32:24Z</time></trkpt>
<trkpt lat="46.31183297" lon="7.00382793"><ele>728.5999754616</ele><time>2010-10-02T12:32:29Z</time></trkpt>
<trkpt lat="46.31177992" lon="7.00414494"><ele>729.40002456</ele><time>2010-10-02T12:32:36Z</time></trkpt>
<trkpt lat="46.31167598" lon="7.00446798"><ele>730.2000120888</ele><time>2010-10-02T12:32:43Z</time></trkpt>
<trkpt lat="46.31151094" lon="7.00479797"><ele>730.799987724</ele><time>2010-10-02T12:32:50Z</time></trkpt>
<trkpt lat="46.31136694" lon="7.00513098"><ele>731.2000121208</ele><time>2010-10-02T12:32:56Z</time></trkpt>
<trkpt lat="46.31118497" lon="7.00547699"><ele>731.5999755576</ele><time>2010-10-02T12:33:03Z</time></trkpt>
<trkpt lat="46.31115798" lon="7.00552292"><ele>731.799987756</ele><time>2010-10-02T12:33:04Z</time></trkpt>
<trkpt lat="46.31090795" lon="7.00601896"><ele>732.799987788</ele><time>2010-10-02T12:33:15Z</time></trkpt>
<trkpt lat="46.31074492" lon="7.00642297"><ele>734.2000122168</ele><time>2010-10-02T12:33:25Z</time></trkpt>
<trkpt lat="46.31061793" lon="7.00660896"><ele>735.799987884</ele><time>2010-10-02T12:33:32Z</time></trkpt>
<trkpt lat="46.31045097" lon="7.00663797"><ele>737.5999754448</ele><time>2010-10-02T12:33:39Z</time></trkpt>
<trkpt lat="46.31026598" lon="7.00674693"><ele>739.200012072</ele><time>2010-10-02T12:33:47Z</time></trkpt>
<trkpt lat="46.31021895" lon="7.00683997"><ele>739.4000242704</ele><time>2010-10-02T12:33:50Z</time></trkpt>
<trkpt lat="46.31027997" lon="7.00693795"><ele>740.4000243024</ele><time>2010-10-02T12:33:54Z</time></trkpt>
<trkpt lat="46.31050000" lon="7.00694399"><ele>742.5999756048</ele><time>2010-10-02T12:34:03Z</time></trkpt>
<trkpt lat="46.31068298" lon="7.00706092"><ele>745.0000000656</ele><time>2010-10-02T12:34:12Z</time></trkpt>
<trkpt lat="46.31087693" lon="7.00728698"><ele>747.4000245264</ele><time>2010-10-02T12:34:23Z</time></trkpt>
<trkpt lat="46.31100593" lon="7.00741296"><ele>749.599975524</ele><time>2010-10-02T12:34:31Z</time></trkpt>
<trkpt lat="46.31118195" lon="7.00756492"><ele>751.599975588</ele><time>2010-10-02T12:34:40Z</time></trkpt>
<trkpt lat="46.31134699" lon="7.00778998"><ele>753.7999878504</ele><time>2010-10-02T12:34:50Z</time></trkpt>
<trkpt lat="46.31149200" lon="7.00813095"><ele>755.7999879144</ele><time>2010-10-02T12:35:02Z</time></trkpt>
<trkpt lat="46.31156199" lon="7.00848894"><ele>757.4000245416</ele><time>2010-10-02T12:35:11Z</time></trkpt>
<trkpt lat="46.31156492" lon="7.00883796"><ele>758.2000120704</ele><time>2010-10-02T12:35:19Z</time></trkpt>
<trkpt lat="46.31149393" lon="7.00929394"><ele>759.2000121024</ele><time>2010-10-02T12:35:28Z</time></trkpt>
<trkpt lat="46.31134992" lon="7.00986098"><ele>759.7999877376</ele><time>2010-10-02T12:35:39Z</time></trkpt>
<trkpt lat="46.31123099" lon="7.01033296"><ele>760.5999755712</ele><time>2010-10-02T12:35:48Z</time></trkpt>
<trkpt lat="46.31111599" lon="7.01076597"><ele>761.4000243648</ele><time>2010-10-02T12:35:56Z</time></trkpt>
<trkpt lat="46.31108196" lon="7.01088499"><ele>761.7999878016</ele><time>2010-10-02T12:35:59Z</time></trkpt>
<trkpt lat="46.31102093" lon="7.01106998"><ele>762.2000121984</ele><time>2010-10-02T12:36:04Z</time></trkpt>
<trkpt lat="46.31100995" lon="7.01111097"><ele>762.2000121984</ele><time>2010-10-02T12:36:05Z</time></trkpt>
<trkpt lat="46.31092295" lon="7.01144499"><ele>763.000000032</ele><time>2010-10-02T12:36:13Z</time></trkpt>
<trkpt lat="46.31083092" lon="7.01176694"><ele>765.5999757312</ele><time>2010-10-02T12:36:22Z</time></trkpt>
<trkpt lat="46.31077392" lon="7.01213599"><ele>768.2000120856</ele><time>2010-10-02T12:36:33Z</time></trkpt>
<trkpt lat="46.31073394" lon="7.01237597"><ele>770.2000121496</ele><time>2010-10-02T12:36:40Z</time></trkpt>
<trkpt lat="46.31069295" lon="7.01265592"><ele>772.2000122136</ele><time>2010-10-02T12:36:48Z</time></trkpt>
<trkpt lat="46.31065699" lon="7.01293093"><ele>774.2000122776</ele><time>2010-10-02T12:36:56Z</time></trkpt>
<trkpt lat="46.31064593" lon="7.01320292"><ele>776.2000123416</ele><time>2010-10-02T12:37:04Z</time></trkpt>
<trkpt lat="46.31069195" lon="7.01349093"><ele>777.9999999024</ele><time>2010-10-02T12:37:12Z</time></trkpt>
<trkpt lat="46.31077593" lon="7.01371095"><ele>779.4000243312</ele><time>2010-10-02T12:37:19Z</time></trkpt>
<trkpt lat="46.31084894" lon="7.01387297"><ele>779.799987768</ele><time>2010-10-02T12:37:24Z</time></trkpt>
<trkpt lat="46.31100593" lon="7.01398093"><ele>780.7999878</ele><time>2010-10-02T12:37:30Z</time></trkpt>
<trkpt lat="46.31125093" lon="7.01413692"><ele>781.5999756336</ele><time>2010-10-02T12:37:39Z</time></trkpt>
<trkpt lat="46.31126393" lon="7.01417799"><ele>782.0000000304</ele><time>2010-10-02T12:37:40Z</time></trkpt>
<trkpt lat="46.31120198" lon="7.01434596"><ele>783.2000122608</ele><time>2010-10-02T12:37:45Z</time></trkpt>
<trkpt lat="46.31106192" lon="7.01433700"><ele>784.0000000944</ele><time>2010-10-02T12:37:50Z</time></trkpt>
<trkpt lat="46.31083997" lon="7.01430196"><ele>784.799987928</ele><time>2010-10-02T12:37:57Z</time></trkpt>
<trkpt lat="46.31067292" lon="7.01432099"><ele>784.799987928</ele><time>2010-10-02T12:38:02Z</time></trkpt>
<trkpt lat="46.31056094" lon="7.01445292"><ele>785.0000001264</ele><time>2010-10-02T12:38:07Z</time></trkpt>
<trkpt lat="46.31045692" lon="7.01477193"><ele>785.2000123248</ele><time>2010-10-02T12:38:13Z</time></trkpt>
<trkpt lat="46.31037595" lon="7.01508299"><ele>785.4000245232</ele><time>2010-10-02T12:38:18Z</time></trkpt>
<trkpt lat="46.31036396" lon="7.01550392"><ele>785.4000245232</ele><time>2010-10-02T12:38:24Z</time></trkpt>
<trkpt lat="46.31028894" lon="7.01596292"><ele>785.5999754568</ele><time>2010-10-02T12:38:31Z</time></trkpt>
<trkpt lat="46.31018300" lon="7.01643599"><ele>786.4000245552</ele><time>2010-10-02T12:38:39Z</time></trkpt>
<trkpt lat="46.31015995" lon="7.01661495"><ele>786.9999998856</ele><time>2010-10-02T12:38:42Z</time></trkpt>
<trkpt lat="46.31007194" lon="7.01730494"><ele>787.4000242824</ele><time>2010-10-02T12:38:52Z</time></trkpt>
<trkpt lat="46.30991695" lon="7.01771499"><ele>788.200012116</ele><time>2010-10-02T12:38:59Z</time></trkpt>
<trkpt lat="46.30968997" lon="7.01811497"><ele>788.7999877512</ele><time>2010-10-02T12:39:07Z</time></trkpt>
<trkpt lat="46.30945796" lon="7.01849693"><ele>790.20001218</ele><time>2010-10-02T12:39:15Z</time></trkpt>
<trkpt lat="46.30927792" lon="7.01863096"><ele>792.4000244424</ele><time>2010-10-02T12:39:22Z</time></trkpt>
<trkpt lat="46.30905295" lon="7.01875795"><ele>794.59997544</ele><time>2010-10-02T12:39:32Z</time></trkpt>
<trkpt lat="46.30890199" lon="7.01884596"><ele>796.4000242656</ele><time>2010-10-02T12:39:38Z</time></trkpt>
<trkpt lat="46.30882697" lon="7.01892894"><ele>797.4000242976</ele><time>2010-10-02T12:39:42Z</time></trkpt>
<trkpt lat="46.30881398" lon="7.01897194"><ele>797.7999877344</ele><time>2010-10-02T12:39:44Z</time></trkpt>
<trkpt lat="46.30888296" lon="7.01914293"><ele>799.2000121632</ele><time>2010-10-02T12:39:50Z</time></trkpt>
<trkpt lat="46.30905597" lon="7.01927897"><ele>800.599975632</ele><time>2010-10-02T12:39:57Z</time></trkpt>
<trkpt lat="46.30916795" lon="7.01938994"><ele>802.0000000608</ele><time>2010-10-02T12:40:03Z</time></trkpt>
<trkpt lat="46.30936199" lon="7.01956596"><ele>804.5999754552</ele><time>2010-10-02T12:40:13Z</time></trkpt>
<trkpt lat="46.30949493" lon="7.01959496"><ele>805.7999876856</ele><time>2010-10-02T12:40:20Z</time></trkpt>
<trkpt lat="46.30963499" lon="7.01958499"><ele>807.4000243128</ele><time>2010-10-02T12:40:27Z</time></trkpt>
<trkpt lat="46.30975896" lon="7.01953193"><ele>808.7999877816</ele><time>2010-10-02T12:40:33Z</time></trkpt>
<trkpt lat="46.30984495" lon="7.01942892"><ele>810.2000122104</ele><time>2010-10-02T12:40:39Z</time></trkpt>
<trkpt lat="46.30989298" lon="7.01927000"><ele>811.4000244408</ele><time>2010-10-02T12:40:45Z</time></trkpt>
<trkpt lat="46.30994797" lon="7.01905492"><ele>813.4000245048</ele><time>2010-10-02T12:40:53Z</time></trkpt>
<trkpt lat="46.31003992" lon="7.01890396"><ele>815.400024264</ele><time>2010-10-02T12:41:00Z</time></trkpt>
<trkpt lat="46.31020697" lon="7.01877295"><ele>816.9999999312</ele><time>2010-10-02T12:41:09Z</time></trkpt>
<trkpt lat="46.31031199" lon="7.01868896"><ele>818.40002436</ele><time>2010-10-02T12:41:15Z</time></trkpt>
<trkpt lat="46.31045993" lon="7.01857296"><ele>820.7999878608</ele><time>2010-10-02T12:41:24Z</time></trkpt>
<trkpt lat="46.31057192" lon="7.01842099"><ele>823.0000001232</ele><time>2010-10-02T12:41:32Z</time></trkpt>
<trkpt lat="46.31060997" lon="7.01830398"><ele>824.2000123536</ele><time>2010-10-02T12:41:39Z</time></trkpt>
<trkpt lat="46.31067200" lon="7.01811799"><ele>825.9999999144</ele><time>2010-10-02T12:41:47Z</time></trkpt>
<trkpt lat="46.31076596" lon="7.01797198"><ele>827.4000243432</ele><time>2010-10-02T12:41:53Z</time></trkpt>
<trkpt lat="46.31089294" lon="7.01779797"><ele>829.4000244072</ele><time>2010-10-02T12:42:01Z</time></trkpt>
<trkpt lat="46.31101993" lon="7.01768297"><ele>831.4000244712</ele><time>2010-10-02T12:42:08Z</time></trkpt>
<trkpt lat="46.31111800" lon="7.01751893"><ele>833.2000123368</ele><time>2010-10-02T12:42:15Z</time></trkpt>
<trkpt lat="46.31119394" lon="7.01734300"><ele>834.7999876992</ele><time>2010-10-02T12:42:22Z</time></trkpt>
<trkpt lat="46.31126795" lon="7.01721693"><ele>835.9999999296</ele><time>2010-10-02T12:42:28Z</time></trkpt>
<trkpt lat="46.31134196" lon="7.01715197"><ele>838.200012192</ele><time>2010-10-02T12:42:35Z</time></trkpt>
<trkpt lat="46.31143400" lon="7.01715097"><ele>840.0000000576</ele><time>2010-10-02T12:42:41Z</time></trkpt>
<trkpt lat="46.31152695" lon="7.01715600"><ele>841.200012288</ele><time>2010-10-02T12:42:46Z</time></trkpt>
<trkpt lat="46.31163600" lon="7.01716195"><ele>842.7999876504</ele><time>2010-10-02T12:42:53Z</time></trkpt>
<trkpt lat="46.31174295" lon="7.01713094"><ele>844.4000242776</ele><time>2010-10-02T12:43:00Z</time></trkpt>
<trkpt lat="46.31185695" lon="7.01703094"><ele>845.7999877464</ele><time>2010-10-02T12:43:07Z</time></trkpt>
<trkpt lat="46.31195795" lon="7.01694796"><ele>846.9999999768</ele><time>2010-10-02T12:43:13Z</time></trkpt>
<trkpt lat="46.31204998" lon="7.01688493"><ele>848.599975644</ele><time>2010-10-02T12:43:19Z</time></trkpt>
<trkpt lat="46.31215492" lon="7.01684394"><ele>849.4000244376</ele><time>2010-10-02T12:43:25Z</time></trkpt>
<trkpt lat="46.31224092" lon="7.01680295"><ele>850.0000000728</ele><time>2010-10-02T12:43:31Z</time></trkpt>
<trkpt lat="46.31237394" lon="7.01677797"><ele>852.0000001368</ele><time>2010-10-02T12:43:39Z</time></trkpt>
<trkpt lat="46.31251895" lon="7.01675300"><ele>853.2000120624</ele><time>2010-10-02T12:43:46Z</time></trkpt>
<trkpt lat="46.31269698" lon="7.01674394"><ele>854.999999928</ele><time>2010-10-02T12:43:55Z</time></trkpt>
<trkpt lat="46.31285196" lon="7.01676699"><ele>856.5999755952</ele><time>2010-10-02T12:44:03Z</time></trkpt>
<trkpt lat="46.31300694" lon="7.01680195"><ele>858.5999756592</ele><time>2010-10-02T12:44:11Z</time></trkpt>
<trkpt lat="46.31313192" lon="7.01684897"><ele>860.5999757232</ele><time>2010-10-02T12:44:18Z</time></trkpt>
<trkpt lat="46.31326594" lon="7.01691099"><ele>862.2000123504</ele><time>2010-10-02T12:44:25Z</time></trkpt>
<trkpt lat="46.31343300" lon="7.01697193"><ele>864.2000121096</ele><time>2010-10-02T12:44:34Z</time></trkpt>
<trkpt lat="46.31360994" lon="7.01700697"><ele>866.7999878088</ele><time>2010-10-02T12:44:44Z</time></trkpt>
<trkpt lat="46.31375193" lon="7.01704594"><ele>868.7999878728</ele><time>2010-10-02T12:44:52Z</time></trkpt>
<trkpt lat="46.31387497" lon="7.01708098"><ele>870.4000245</ele><time>2010-10-02T12:44:59Z</time></trkpt>
<trkpt lat="46.31407899" lon="7.01713898"><ele>873.4000242912</ele><time>2010-10-02T12:45:10Z</time></trkpt>
<trkpt lat="46.31422098" lon="7.01719598"><ele>875.2000121568</ele><time>2010-10-02T12:45:18Z</time></trkpt>
<trkpt lat="46.31444293" lon="7.01733998"><ele>877.2000122208</ele><time>2010-10-02T12:45:29Z</time></trkpt>
<trkpt lat="46.31464292" lon="7.01755196"><ele>878.2000122528</ele><time>2010-10-02T12:45:38Z</time></trkpt>
<trkpt lat="46.31484895" lon="7.01765195"><ele>878.799987888</ele><time>2010-10-02T12:45:46Z</time></trkpt>
<trkpt lat="46.31508197" lon="7.01777693"><ele>880.2000123168</ele><time>2010-10-02T12:45:55Z</time></trkpt>
<trkpt lat="46.31526293" lon="7.01782999"><ele>881.2000123488</ele><time>2010-10-02T12:46:02Z</time></trkpt>
<trkpt lat="46.31544298" lon="7.01800693"><ele>882.5999755128</ele><time>2010-10-02T12:46:09Z</time></trkpt>
<trkpt lat="46.31556594" lon="7.01825394"><ele>883.200012108</ele><time>2010-10-02T12:46:16Z</time></trkpt>
<trkpt lat="46.31571396" lon="7.01861395"><ele>884.7999877752</ele><time>2010-10-02T12:46:26Z</time></trkpt>
<trkpt lat="46.31583500" lon="7.01886700"><ele>886.200012204</ele><time>2010-10-02T12:46:34Z</time></trkpt>
<trkpt lat="46.31597992" lon="7.01910798"><ele>889.0000001016</ele><time>2010-10-02T12:46:44Z</time></trkpt>
<trkpt lat="46.31610699" lon="7.01935298"><ele>891.4000245624</ele><time>2010-10-02T12:46:54Z</time></trkpt>
<trkpt lat="46.31617698" lon="7.01950796"><ele>892.9999999248</ele><time>2010-10-02T12:47:01Z</time></trkpt>
<trkpt lat="46.31624697" lon="7.01963394"><ele>894.9999999888</ele><time>2010-10-02T12:47:07Z</time></trkpt>
<trkpt lat="46.31627999" lon="7.01972296"><ele>896.2000122192</ele><time>2010-10-02T12:47:11Z</time></trkpt>
<trkpt lat="46.31625795" lon="7.01984198"><ele>897.2000122512</ele><time>2010-10-02T12:47:14Z</time></trkpt>
<trkpt lat="46.31633992" lon="7.02005899"><ele>900.2000123472</ele><time>2010-10-02T12:47:23Z</time></trkpt>
<trkpt lat="46.31639600" lon="7.02017399"><ele>901.4000242728</ele><time>2010-10-02T12:47:28Z</time></trkpt>
<trkpt lat="46.31644998" lon="7.02032997"><ele>903.2000121384</ele><time>2010-10-02T12:47:34Z</time></trkpt>
<trkpt lat="46.31650597" lon="7.02047196"><ele>905.2000122024</ele><time>2010-10-02T12:47:41Z</time></trkpt>
<trkpt lat="46.31654000" lon="7.02059794"><ele>906.4000244328</ele><time>2010-10-02T12:47:46Z</time></trkpt>
<trkpt lat="46.31662298" lon="7.02077597"><ele>908.5999757352</ele><time>2010-10-02T12:47:54Z</time></trkpt>
<trkpt lat="46.31668199" lon="7.02096993"><ele>910.9999998912</ele><time>2010-10-02T12:48:02Z</time></trkpt>
<trkpt lat="46.31671795" lon="7.02105492"><ele>912.40002432</ele><time>2010-10-02T12:48:06Z</time></trkpt>
<trkpt lat="46.31677595" lon="7.02118493"><ele>913.5999755904</ele><time>2010-10-02T12:48:12Z</time></trkpt>
<trkpt lat="46.31683395" lon="7.02134896"><ele>915.0000000192</ele><time>2010-10-02T12:48:18Z</time></trkpt>
<trkpt lat="46.31686295" lon="7.02153998"><ele>916.2000122496</ele><time>2010-10-02T12:48:24Z</time></trkpt>
<trkpt lat="46.31690394" lon="7.02168692"><ele>916.5999756864</ele><time>2010-10-02T12:48:29Z</time></trkpt>
<trkpt lat="46.31695499" lon="7.02185296"><ele>917.7999879168</ele><time>2010-10-02T12:48:35Z</time></trkpt>
<trkpt lat="46.31704492" lon="7.02195799"><ele>918.799987644</ele><time>2010-10-02T12:48:40Z</time></trkpt>
<trkpt lat="46.31707896" lon="7.02202999"><ele>919.0000001472</ele><time>2010-10-02T12:48:43Z</time></trkpt>
<trkpt lat="46.31715096" lon="7.02217500"><ele>920.5999755096</ele><time>2010-10-02T12:48:49Z</time></trkpt>
<trkpt lat="46.31719396" lon="7.02229293"><ele>921.79998774</ele><time>2010-10-02T12:48:54Z</time></trkpt>
<trkpt lat="46.31728096" lon="7.02243794"><ele>923.4000243672</ele><time>2010-10-02T12:49:00Z</time></trkpt>
<trkpt lat="46.31734793" lon="7.02254992"><ele>925.0000000344</ele><time>2010-10-02T12:49:05Z</time></trkpt>
<trkpt lat="46.31736595" lon="7.02257800"><ele>925.4000244312</ele><time>2010-10-02T12:49:06Z</time></trkpt>
<trkpt lat="46.31740593" lon="7.02263994"><ele>925.5999756696</ele><time>2010-10-02T12:49:08Z</time></trkpt>
<trkpt lat="46.31749193" lon="7.02278897"><ele>926.5999757016</ele><time>2010-10-02T12:49:13Z</time></trkpt>
<trkpt lat="46.31757097" lon="7.02295996"><ele>927.799987932</ele><time>2010-10-02T12:49:19Z</time></trkpt>
<trkpt lat="46.31763694" lon="7.02310497"><ele>928.7999876592</ele><time>2010-10-02T12:49:24Z</time></trkpt>
<trkpt lat="46.31769695" lon="7.02325098"><ele>929.7999876912</ele><time>2010-10-02T12:49:29Z</time></trkpt>
<trkpt lat="46.31776292" lon="7.02338199"><ele>930.5999755248</ele><time>2010-10-02T12:49:34Z</time></trkpt>
<trkpt lat="46.31787197" lon="7.02354996"><ele>931.4000243184</ele><time>2010-10-02T12:49:40Z</time></trkpt>
<trkpt lat="46.31801295" lon="7.02375197"><ele>932.200012152</ele><time>2010-10-02T12:49:46Z</time></trkpt>
<trkpt lat="46.31814597" lon="7.02394098"><ele>933.200012184</ele><time>2010-10-02T12:49:52Z</time></trkpt>
<trkpt lat="46.31823993" lon="7.02406193"><ele>934.0000000176</ele><time>2010-10-02T12:49:57Z</time></trkpt>
<trkpt lat="46.31834697" lon="7.02431196"><ele>934.7999878512</ele><time>2010-10-02T12:50:03Z</time></trkpt>
<trkpt lat="46.31841495" lon="7.02453199"><ele>936.0000000816</ele><time>2010-10-02T12:50:08Z</time></trkpt>
<trkpt lat="46.31844998" lon="7.02470792"><ele>936.5999757168</ele><time>2010-10-02T12:50:12Z</time></trkpt>
<trkpt lat="46.31851695" lon="7.02487992"><ele>937.200012312</ele><time>2010-10-02T12:50:16Z</time></trkpt>
<trkpt lat="46.31860094" lon="7.02508000"><ele>938.200012344</ele><time>2010-10-02T12:50:21Z</time></trkpt>
<trkpt lat="46.31872692" lon="7.02523892"><ele>939.2000120712</ele><time>2010-10-02T12:50:27Z</time></trkpt>
<trkpt lat="46.31884494" lon="7.02533095"><ele>940.4000243016</ele><time>2010-10-02T12:50:32Z</time></trkpt>
<trkpt lat="46.31896396" lon="7.02544696"><ele>941.9999999688</ele><time>2010-10-02T12:50:38Z</time></trkpt>
<trkpt lat="46.31901794" lon="7.02547696"><ele>943.2000121992</ele><time>2010-10-02T12:50:42Z</time></trkpt>
<trkpt lat="46.31911894" lon="7.02553396"><ele>943.7999878344</ele><time>2010-10-02T12:50:47Z</time></trkpt>
<trkpt lat="46.31923696" lon="7.02558098"><ele>944.7999878664</ele><time>2010-10-02T12:50:52Z</time></trkpt>
<trkpt lat="46.31937300" lon="7.02557998"><ele>946.2000122952</ele><time>2010-10-02T12:50:57Z</time></trkpt>
<trkpt lat="46.31953494" lon="7.02557998"><ele>947.7999876576</ele><time>2010-10-02T12:51:04Z</time></trkpt>
<trkpt lat="46.31964399" lon="7.02564293"><ele>949.4000242848</ele><time>2010-10-02T12:51:09Z</time></trkpt>
<trkpt lat="46.31978396" lon="7.02571694"><ele>950.5999755552</ele><time>2010-10-02T12:51:15Z</time></trkpt>
<trkpt lat="46.31989393" lon="7.02578994"><ele>951.7999877856</ele><time>2010-10-02T12:51:20Z</time></trkpt>
<trkpt lat="46.32001698" lon="7.02593797"><ele>953.2000122144</ele><time>2010-10-02T12:51:26Z</time></trkpt>
<trkpt lat="46.32007792" lon="7.02602799"><ele>954.4000244448</ele><time>2010-10-02T12:51:31Z</time></trkpt>
<trkpt lat="46.32014799" lon="7.02612899"><ele>955.4000244768</ele><time>2010-10-02T12:51:35Z</time></trkpt>
<trkpt lat="46.32026098" lon="7.02629093"><ele>956.7999876408</ele><time>2010-10-02T12:51:42Z</time></trkpt>
<trkpt lat="46.32034094" lon="7.02642999"><ele>958.2000120696</ele><time>2010-10-02T12:51:47Z</time></trkpt>
<trkpt lat="46.32041696" lon="7.02652898"><ele>959.4000243</ele><time>2010-10-02T12:51:53Z</time></trkpt>
<trkpt lat="46.32052098" lon="7.02660098"><ele>960.5999755704</ele><time>2010-10-02T12:51:59Z</time></trkpt>
<trkpt lat="46.32059692" lon="7.02662797"><ele>961.5999756024</ele><time>2010-10-02T12:52:04Z</time></trkpt>
<trkpt lat="46.32071997" lon="7.02661095"><ele>963.0000000312</ele><time>2010-10-02T12:52:10Z</time></trkpt>
<trkpt lat="46.32089498" lon="7.02654197"><ele>964.5999756984</ele><time>2010-10-02T12:52:19Z</time></trkpt>
<trkpt lat="46.32103697" lon="7.02645094"><ele>966.799987656</ele><time>2010-10-02T12:52:27Z</time></trkpt>
<trkpt lat="46.32124895" lon="7.02641398"><ele>968.9999999184</ele><time>2010-10-02T12:52:38Z</time></trkpt>
<trkpt lat="46.32141793" lon="7.02647198"><ele>971.2000121808</ele><time>2010-10-02T12:52:47Z</time></trkpt>
<trkpt lat="46.32154400" lon="7.02662596"><ele>972.799987848</ele><time>2010-10-02T12:52:54Z</time></trkpt>
<trkpt lat="46.32166696" lon="7.02682000"><ele>974.5999757136</ele><time>2010-10-02T12:53:02Z</time></trkpt>
<trkpt lat="46.32179394" lon="7.02702493"><ele>977.200012068</ele><time>2010-10-02T12:53:11Z</time></trkpt>
<trkpt lat="46.32193099" lon="7.02726793"><ele>979.5999755688</ele><time>2010-10-02T12:53:22Z</time></trkpt>
<trkpt lat="46.32206996" lon="7.02760194"><ele>982.7999878632</ele><time>2010-10-02T12:53:35Z</time></trkpt>
<trkpt lat="46.32218194" lon="7.02796999"><ele>985.599975456</ele><time>2010-10-02T12:53:49Z</time></trkpt>
<trkpt lat="46.32225998" lon="7.02824593"><ele>988.2000121152</ele><time>2010-10-02T12:53:59Z</time></trkpt>
<trkpt lat="46.32231697" lon="7.02848992"><ele>989.9999999808</ele><time>2010-10-02T12:54:07Z</time></trkpt>
<trkpt lat="46.32239794" lon="7.02872395"><ele>992.0000000448</ele><time>2010-10-02T12:54:16Z</time></trkpt>
<trkpt lat="46.32247900" lon="7.02895998"><ele>993.7999879104</ele><time>2010-10-02T12:54:25Z</time></trkpt>
<trkpt lat="46.32253792" lon="7.02919300"><ele>995.4000245376</ele><time>2010-10-02T12:54:34Z</time></trkpt>
<trkpt lat="46.32256399" lon="7.02944596"><ele>997.2000120984</ele><time>2010-10-02T12:54:44Z</time></trkpt>
<trkpt lat="46.32258293" lon="7.02963296"><ele>998.7999877656</ele><time>2010-10-02T12:54:51Z</time></trkpt>
<trkpt lat="46.32261294" lon="7.02978794"><ele>999.7999877976</ele><time>2010-10-02T12:54:57Z</time></trkpt>
<trkpt lat="46.32263498" lon="7.02995994"><ele>1001.4000244248</ele><time>2010-10-02T12:55:03Z</time></trkpt>
<trkpt lat="46.32270698" lon="7.03012993"><ele>1003.000000092</ele><time>2010-10-02T12:55:10Z</time></trkpt>
<trkpt lat="46.32274093" lon="7.03037099"><ele>1004.2000123224</ele><time>2010-10-02T12:55:18Z</time></trkpt>
<trkpt lat="46.32275694" lon="7.03052497"><ele>1005.5999754864</ele><time>2010-10-02T12:55:24Z</time></trkpt>
<trkpt lat="46.32278494" lon="7.03078992"><ele>1006.9999999152</ele><time>2010-10-02T12:55:34Z</time></trkpt>
<trkpt lat="46.32283699" lon="7.03109393"><ele>1008.7999877808</ele><time>2010-10-02T12:55:45Z</time></trkpt>
<trkpt lat="46.32288795" lon="7.03128998"><ele>1010.2000122096</ele><time>2010-10-02T12:55:53Z</time></trkpt>
<trkpt lat="46.32291595" lon="7.03143993"><ele>1011.2000122416</ele><time>2010-10-02T12:55:59Z</time></trkpt>
<trkpt lat="46.32295894" lon="7.03164194"><ele>1012.2000122736</ele><time>2010-10-02T12:56:06Z</time></trkpt>
<trkpt lat="46.32298996" lon="7.03179994"><ele>1013.400024504</ele><time>2010-10-02T12:56:12Z</time></trkpt>
<trkpt lat="46.32305198" lon="7.03196397"><ele>1014.2000123376</ele><time>2010-10-02T12:56:19Z</time></trkpt>
<trkpt lat="46.32311594" lon="7.03205198"><ele>1014.9999998664</ele><time>2010-10-02T12:56:23Z</time></trkpt>
<trkpt lat="46.32321099" lon="7.03221895"><ele>1016.4000242952</ele><time>2010-10-02T12:56:30Z</time></trkpt>
<trkpt lat="46.32328198" lon="7.03233898"><ele>1016.5999755336</ele><time>2010-10-02T12:56:35Z</time></trkpt>
<trkpt lat="46.32334292" lon="7.03245196"><ele>1018.4000243592</ele><time>2010-10-02T12:56:42Z</time></trkpt>
<trkpt lat="46.32340394" lon="7.03254794"><ele>1019.4000243912</ele><time>2010-10-02T12:56:47Z</time></trkpt>
<trkpt lat="46.32344199" lon="7.03271792"><ele>1020.79998786</ele><time>2010-10-02T12:56:53Z</time></trkpt>
<trkpt lat="46.32342196" lon="7.03281993"><ele>1021.5999756936</ele><time>2010-10-02T12:56:57Z</time></trkpt>
<trkpt lat="46.32331895" lon="7.03288699"><ele>1023.2000123208</ele><time>2010-10-02T12:57:03Z</time></trkpt>
<trkpt lat="46.32317696" lon="7.03283695"><ele>1024.5999754848</ele><time>2010-10-02T12:57:11Z</time></trkpt>
<trkpt lat="46.32309297" lon="7.03275195"><ele>1025.4000242784</ele><time>2010-10-02T12:57:16Z</time></trkpt>
<trkpt lat="46.32303497" lon="7.03259697"><ele>1026.5999755488</ele><time>2010-10-02T12:57:23Z</time></trkpt>
<trkpt lat="46.32293497" lon="7.03251994"><ele>1027.8000487392</ele><time>2010-10-02T12:57:29Z</time></trkpt>
<trkpt lat="46.32284897" lon="7.03246596"><ele>1028.199951216</ele><time>2010-10-02T12:57:34Z</time></trkpt>
<trkpt lat="46.32268595" lon="7.03242095"><ele>1030.0000000416</ele><time>2010-10-02T12:57:42Z</time></trkpt>
<trkpt lat="46.32262199" lon="7.03238399"><ele>1031.0000000736</ele><time>2010-10-02T12:57:46Z</time></trkpt>
<trkpt lat="46.32250892" lon="7.03231894"><ele>1032.0000001056</ele><time>2010-10-02T12:57:52Z</time></trkpt>
<trkpt lat="46.32242099" lon="7.03213999"><ele>1033.1999510712</ele><time>2010-10-02T12:57:59Z</time></trkpt>
<trkpt lat="46.32232293" lon="7.03199700"><ele>1034.5999755</ele><time>2010-10-02T12:58:05Z</time></trkpt>
<trkpt lat="46.32226098" lon="7.03186699"><ele>1035.599975532</ele><time>2010-10-02T12:58:11Z</time></trkpt>
<trkpt lat="46.32222695" lon="7.03184495"><ele>1036.9999999608</ele><time>2010-10-02T12:58:17Z</time></trkpt>
<trkpt lat="46.32220097" lon="7.03174093"><ele>1037.8000487544</ele><time>2010-10-02T12:58:21Z</time></trkpt>
<trkpt lat="46.32214095" lon="7.03159098"><ele>1039.1999512632</ele><time>2010-10-02T12:58:28Z</time></trkpt>
<trkpt lat="46.32204096" lon="7.03144597"><ele>1040.599975692</ele><time>2010-10-02T12:58:35Z</time></trkpt>
<trkpt lat="46.32194599" lon="7.03131999"><ele>1042.1999510544</ele><time>2010-10-02T12:58:42Z</time></trkpt>
<trkpt lat="46.32187793" lon="7.03120097"><ele>1042.999999848</ele><time>2010-10-02T12:58:48Z</time></trkpt>
<trkpt lat="46.32187500" lon="7.03115797"><ele>1043.5999754832</ele><time>2010-10-02T12:58:50Z</time></trkpt>
<trkpt lat="46.32182697" lon="7.03106099"><ele>1044.1999511184</ele><time>2010-10-02T12:58:56Z</time></trkpt>
<trkpt lat="46.32176293" lon="7.03089193"><ele>1045.8000487056</ele><time>2010-10-02T12:59:04Z</time></trkpt>
<trkpt lat="46.32173393" lon="7.03081297"><ele>1046.5999755792</ele><time>2010-10-02T12:59:07Z</time></trkpt>
<trkpt lat="46.32162396" lon="7.03065899"><ele>1047.5999756112</ele><time>2010-10-02T12:59:14Z</time></trkpt>
<trkpt lat="46.32153796" lon="7.03053393"><ele>1048.8000488016</ele><time>2010-10-02T12:59:21Z</time></trkpt>
<trkpt lat="46.32148499" lon="7.03041592"><ele>1050.5999757072</ele><time>2010-10-02T12:59:28Z</time></trkpt>
<trkpt lat="46.32139899" lon="7.03035397"><ele>1051.5999754344</ele><time>2010-10-02T12:59:35Z</time></trkpt>
<trkpt lat="46.32132397" lon="7.03031098"><ele>1052.5999754664</ele><time>2010-10-02T12:59:40Z</time></trkpt>
<trkpt lat="46.32130796" lon="7.03030293"><ele>1052.5999754664</ele><time>2010-10-02T12:59:41Z</time></trkpt>
<trkpt lat="46.32117896" lon="7.03021894"><ele>1054.400024292</ele><time>2010-10-02T12:59:49Z</time></trkpt>
<trkpt lat="46.32109992" lon="7.03018298"><ele>1055.400024324</ele><time>2010-10-02T12:59:55Z</time></trkpt>
<trkpt lat="46.32101200" lon="7.03012699"><ele>1056.400024356</ele><time>2010-10-02T13:00:01Z</time></trkpt>
<trkpt lat="46.32093195" lon="7.03008894"><ele>1057.1999512296</ele><time>2010-10-02T13:00:06Z</time></trkpt>
<trkpt lat="46.32088996" lon="7.03006597"><ele>1057.5999756264</ele><time>2010-10-02T13:00:08Z</time></trkpt>
<trkpt lat="46.32081695" lon="7.03002700"><ele>1058.5999756584</ele><time>2010-10-02T13:00:12Z</time></trkpt>
<trkpt lat="46.32069197" lon="7.02994695"><ele>1059.8000488488</ele><time>2010-10-02T13:00:19Z</time></trkpt>
<trkpt lat="46.32061696" lon="7.02990596"><ele>1060.8000488808</ele><time>2010-10-02T13:00:24Z</time></trkpt>
<trkpt lat="46.32049299" lon="7.02982198"><ele>1062.0000001512</ele><time>2010-10-02T13:00:32Z</time></trkpt>
<trkpt lat="46.32038997" lon="7.02966196"><ele>1063.1999511168</ele><time>2010-10-02T13:00:39Z</time></trkpt>
<trkpt lat="46.32035594" lon="7.02964394"><ele>1063.5999755136</ele><time>2010-10-02T13:00:41Z</time></trkpt>
<trkpt lat="46.32028897" lon="7.02964897"><ele>1064.4000243072</ele><time>2010-10-02T13:00:45Z</time></trkpt>
<trkpt lat="46.32025595" lon="7.02967395"><ele>1064.5999755456</ele><time>2010-10-02T13:00:47Z</time></trkpt>
<trkpt lat="46.32023600" lon="7.02975693"><ele>1065.5999755776</ele><time>2010-10-02T13:00:53Z</time></trkpt>
<trkpt lat="46.32027498" lon="7.02977093"><ele>1065.9999999744</ele><time>2010-10-02T13:00:56Z</time></trkpt>
<trkpt lat="46.32033499" lon="7.02981292"><ele>1067.0000000064</ele><time>2010-10-02T13:01:00Z</time></trkpt>
<trkpt lat="46.32044194" lon="7.02988693"><ele>1067.8000488</ele><time>2010-10-02T13:01:06Z</time></trkpt>
<trkpt lat="46.32052593" lon="7.02995994"><ele>1068.800048832</ele><time>2010-10-02T13:01:11Z</time></trkpt>
<trkpt lat="46.32062299" lon="7.03007595"><ele>1070.0000001024</ele><time>2010-10-02T13:01:17Z</time></trkpt>
<trkpt lat="46.32069994" lon="7.03020394"><ele>1071.4000245312</ele><time>2010-10-02T13:01:23Z</time></trkpt>
<trkpt lat="46.32079893" lon="7.03033394"><ele>1072.4000245632</ele><time>2010-10-02T13:01:29Z</time></trkpt>
<trkpt lat="46.32089498" lon="7.03048197"><ele>1073.8000486872</ele><time>2010-10-02T13:01:36Z</time></trkpt>
<trkpt lat="46.32100194" lon="7.03064692"><ele>1075.199951196</ele><time>2010-10-02T13:01:44Z</time></trkpt>
<trkpt lat="46.32106195" lon="7.03078900"><ele>1076.4000243864</ele><time>2010-10-02T13:01:50Z</time></trkpt>
<trkpt lat="46.32111099" lon="7.03098597"><ele>1078.0000000536</ele><time>2010-10-02T13:01:56Z</time></trkpt>
<trkpt lat="46.32116195" lon="7.03117297"><ele>1079.4000244824</ele><time>2010-10-02T13:02:03Z</time></trkpt>
<trkpt lat="46.32118592" lon="7.03127397"><ele>1080.4000245144</ele><time>2010-10-02T13:02:08Z</time></trkpt>
<trkpt lat="46.32125499" lon="7.03140498"><ele>1081.59997548</ele><time>2010-10-02T13:02:15Z</time></trkpt>
<trkpt lat="46.32126697" lon="7.03142200"><ele>1081.8000489432</ele><time>2010-10-02T13:02:16Z</time></trkpt>
<trkpt lat="46.32130595" lon="7.03160699"><ele>1083.4000243056</ele><time>2010-10-02T13:02:23Z</time></trkpt>
<trkpt lat="46.32129698" lon="7.03172492"><ele>1084.1999511792</ele><time>2010-10-02T13:02:27Z</time></trkpt>
<trkpt lat="46.32129095" lon="7.03183497"><ele>1084.8000487344</ele><time>2010-10-02T13:02:31Z</time></trkpt>
<trkpt lat="46.32125893" lon="7.03200999"><ele>1086.0000000048</ele><time>2010-10-02T13:02:38Z</time></trkpt>
<trkpt lat="46.32125096" lon="7.03216698"><ele>1087.4000244336</ele><time>2010-10-02T13:02:44Z</time></trkpt>
<trkpt lat="46.32121199" lon="7.03238399"><ele>1088.8000488624</ele><time>2010-10-02T13:02:51Z</time></trkpt>
<trkpt lat="46.32121794" lon="7.03253193"><ele>1089.8000488944</ele><time>2010-10-02T13:02:57Z</time></trkpt>
<trkpt lat="46.32124895" lon="7.03273393"><ele>1091.1999510984</ele><time>2010-10-02T13:03:04Z</time></trkpt>
<trkpt lat="46.32129396" lon="7.03287693"><ele>1091.8000489584</ele><time>2010-10-02T13:03:10Z</time></trkpt>
<trkpt lat="46.32132699" lon="7.03293099"><ele>1092.5999755272</ele><time>2010-10-02T13:03:13Z</time></trkpt>
<trkpt lat="46.32135599" lon="7.03298899"><ele>1093.1999511624</ele><time>2010-10-02T13:03:16Z</time></trkpt>
<trkpt lat="46.32140293" lon="7.03305596"><ele>1093.8000487176</ele><time>2010-10-02T13:03:20Z</time></trkpt>
<trkpt lat="46.32148499" lon="7.03317993"><ele>1094.5999755912</ele><time>2010-10-02T13:03:26Z</time></trkpt>
<trkpt lat="46.32153494" lon="7.03327197"><ele>1095.8000487816</ele><time>2010-10-02T13:03:32Z</time></trkpt>
<trkpt lat="46.32158892" lon="7.03337699"><ele>1097.000000052</ele><time>2010-10-02T13:03:38Z</time></trkpt>
<trkpt lat="46.32167098" lon="7.03351093"><ele>1098.1999513224</ele><time>2010-10-02T13:03:45Z</time></trkpt>
<trkpt lat="46.32168297" lon="7.03353097"><ele>1098.4000244808</ele><time>2010-10-02T13:03:46Z</time></trkpt>
<trkpt lat="46.32171599" lon="7.03362292"><ele>1098.8000488776</ele><time>2010-10-02T13:03:50Z</time></trkpt>
<trkpt lat="46.32182093" lon="7.03383397"><ele>1100.8000489416</ele><time>2010-10-02T13:03:59Z</time></trkpt>
<trkpt lat="46.32185698" lon="7.03398996"><ele>1101.8000489736</ele><time>2010-10-02T13:04:05Z</time></trkpt>
<trkpt lat="46.32190693" lon="7.03410597"><ele>1102.8000487008</ele><time>2010-10-02T13:04:10Z</time></trkpt>
<trkpt lat="46.32200793" lon="7.03428098"><ele>1103.8000487328</ele><time>2010-10-02T13:04:17Z</time></trkpt>
<trkpt lat="46.32206392" lon="7.03442498"><ele>1105.1999512416</ele><time>2010-10-02T13:04:23Z</time></trkpt>
<trkpt lat="46.32208899" lon="7.03456295"><ele>1106.400024432</ele><time>2010-10-02T13:04:29Z</time></trkpt>
<trkpt lat="46.32210500" lon="7.03471097"><ele>1107.400024464</ele><time>2010-10-02T13:04:34Z</time></trkpt>
<trkpt lat="46.32210894" lon="7.03476294"><ele>1107.8000488608</ele><time>2010-10-02T13:04:36Z</time></trkpt>
<trkpt lat="46.32208597" lon="7.03498196"><ele>1109.400024528</ele><time>2010-10-02T13:04:45Z</time></trkpt>
<trkpt lat="46.32208697" lon="7.03500895"><ele>1109.5999754616</ele><time>2010-10-02T13:04:46Z</time></trkpt>
<trkpt lat="46.32206292" lon="7.03518296"><ele>1110.8000489568</ele><time>2010-10-02T13:04:53Z</time></trkpt>
<trkpt lat="46.32208899" lon="7.03533995"><ele>1111.800048684</ele><time>2010-10-02T13:04:59Z</time></trkpt>
<trkpt lat="46.32210097" lon="7.03536795"><ele>1111.9999999224</ele><time>2010-10-02T13:05:00Z</time></trkpt>
<trkpt lat="46.32220499" lon="7.03556492"><ele>1112.9999999544</ele><time>2010-10-02T13:05:08Z</time></trkpt>
<trkpt lat="46.32224699" lon="7.03564094"><ele>1113.5999755896</ele><time>2010-10-02T13:05:12Z</time></trkpt>
<trkpt lat="46.32232293" lon="7.03578796"><ele>1115.4000244152</ele><time>2010-10-02T13:05:20Z</time></trkpt>
<trkpt lat="46.32234799" lon="7.03599793"><ele>1116.4000244472</ele><time>2010-10-02T13:05:28Z</time></trkpt>
<trkpt lat="46.32232494" lon="7.03611997"><ele>1117.1999513208</ele><time>2010-10-02T13:05:32Z</time></trkpt>
<trkpt lat="46.32225897" lon="7.03612098"><ele>1118.4000245112</ele><time>2010-10-02T13:05:37Z</time></trkpt>
<trkpt lat="46.32223299" lon="7.03596599"><ele>1119.5999754768</ele><time>2010-10-02T13:05:44Z</time></trkpt>
<trkpt lat="46.32221396" lon="7.03592492"><ele>1119.9999998736</ele><time>2010-10-02T13:05:46Z</time></trkpt>
<trkpt lat="46.32211598" lon="7.03581596"><ele>1121.4000243024</ele><time>2010-10-02T13:05:53Z</time></trkpt>
<trkpt lat="46.32202495" lon="7.03575393"><ele>1122.4000243344</ele><time>2010-10-02T13:05:59Z</time></trkpt>
<trkpt lat="46.32199000" lon="7.03569199"><ele>1122.9999999696</ele><time>2010-10-02T13:06:04Z</time></trkpt>
<trkpt lat="46.32198597" lon="7.03568294"><ele>1123.199951208</ele><time>2010-10-02T13:06:05Z</time></trkpt>
<trkpt lat="46.32196896" lon="7.03560398"><ele>1124.0000000016</ele><time>2010-10-02T13:06:09Z</time></trkpt>
<trkpt lat="46.32191699" lon="7.03543693"><ele>1125.5999756688</ele><time>2010-10-02T13:06:16Z</time></trkpt>
<trkpt lat="46.32189495" lon="7.03537297"><ele>1126.0000000656</ele><time>2010-10-02T13:06:19Z</time></trkpt>
<trkpt lat="46.32183694" lon="7.03520793"><ele>1127.1999510312</ele><time>2010-10-02T13:06:27Z</time></trkpt>
<trkpt lat="46.32168598" lon="7.03498095"><ele>1128.59997546</ele><time>2010-10-02T13:06:36Z</time></trkpt>
<trkpt lat="46.32162396" lon="7.03489797"><ele>1129.4000245584</ele><time>2010-10-02T13:06:40Z</time></trkpt>
<trkpt lat="46.32157593" lon="7.03475799"><ele>1130.599975524</ele><time>2010-10-02T13:06:47Z</time></trkpt>
<trkpt lat="46.32151198" lon="7.03459798"><ele>1131.9999999528</ele><time>2010-10-02T13:06:53Z</time></trkpt>
<trkpt lat="46.32142497" lon="7.03445893"><ele>1132.9999999848</ele><time>2010-10-02T13:07:00Z</time></trkpt>
<trkpt lat="46.32132992" lon="7.03432096"><ele>1134.4000244136</ele><time>2010-10-02T13:07:06Z</time></trkpt>
<trkpt lat="46.32124292" lon="7.03420898"><ele>1135.4000244456</ele><time>2010-10-02T13:07:12Z</time></trkpt>
<trkpt lat="46.32113194" lon="7.03409599"><ele>1136.599975716</ele><time>2010-10-02T13:07:19Z</time></trkpt>
<trkpt lat="46.32105198" lon="7.03397295"><ele>1137.8000489064</ele><time>2010-10-02T13:07:25Z</time></trkpt>
<trkpt lat="46.32098794" lon="7.03387395"><ele>1138.8000489384</ele><time>2010-10-02T13:07:31Z</time></trkpt>
<trkpt lat="46.32089792" lon="7.03379894"><ele>1139.8000489704</ele><time>2010-10-02T13:07:38Z</time></trkpt>
<trkpt lat="46.32081896" lon="7.03372995"><ele>1139.999999904</ele><time>2010-10-02T13:07:44Z</time></trkpt>
<trkpt lat="46.32071796" lon="7.03353692"><ele>1141.1999511744</ele><time>2010-10-02T13:07:52Z</time></trkpt>
<trkpt lat="46.32060698" lon="7.03336593"><ele>1141.999999968</ele><time>2010-10-02T13:08:00Z</time></trkpt>
<trkpt lat="46.32053993" lon="7.03331899"><ele>1144.1999512704</ele><time>2010-10-02T13:08:05Z</time></trkpt>
<trkpt lat="46.32042895" lon="7.03324498"><ele>1146.000000096</ele><time>2010-10-02T13:08:13Z</time></trkpt>
<trkpt lat="46.32030800" lon="7.03316594"><ele>1147.5999754584</ele><time>2010-10-02T13:08:21Z</time></trkpt>
<trkpt lat="46.32020792" lon="7.03308497"><ele>1148.8000489536</ele><time>2010-10-02T13:08:28Z</time></trkpt>
<trkpt lat="46.32011597" lon="7.03299595"><ele>1149.9999999192</ele><time>2010-10-02T13:08:34Z</time></trkpt>
<trkpt lat="46.32009795" lon="7.03297692"><ele>1150.5999755544</ele><time>2010-10-02T13:08:37Z</time></trkpt>
<trkpt lat="46.32003400" lon="7.03295094"><ele>1151.400024348</ele><time>2010-10-02T13:08:43Z</time></trkpt>
<trkpt lat="46.31999494" lon="7.03291800"><ele>1151.8000487448</ele><time>2010-10-02T13:08:45Z</time></trkpt>
<trkpt lat="46.31992294" lon="7.03281892"><ele>1152.1999512216</ele><time>2010-10-02T13:08:50Z</time></trkpt>
<trkpt lat="46.31980098" lon="7.03263394"><ele>1153.8000488088</ele><time>2010-10-02T13:08:58Z</time></trkpt>
<trkpt lat="46.31973200" lon="7.03256495"><ele>1154.400024444</ele><time>2010-10-02T13:09:04Z</time></trkpt>
<trkpt lat="46.31964197" lon="7.03248600"><ele>1155.8000488728</ele><time>2010-10-02T13:09:11Z</time></trkpt>
<trkpt lat="46.31956092" lon="7.03239899"><ele>1156.8000489048</ele><time>2010-10-02T13:09:18Z</time></trkpt>
<trkpt lat="46.31949898" lon="7.03236697"><ele>1157.5999754736</ele><time>2010-10-02T13:09:22Z</time></trkpt>
<trkpt lat="46.31941399" lon="7.03229095"><ele>1158.1999511088</ele><time>2010-10-02T13:09:26Z</time></trkpt>
<trkpt lat="46.31928792" lon="7.03218693"><ele>1159.4000242992</ele><time>2010-10-02T13:09:33Z</time></trkpt>
<trkpt lat="46.31925699" lon="7.03215499"><ele>1159.9999999344</ele><time>2010-10-02T13:09:35Z</time></trkpt>
<trkpt lat="46.31913194" lon="7.03201493"><ele>1161.1999512048</ele><time>2010-10-02T13:09:43Z</time></trkpt>
<trkpt lat="46.31904393" lon="7.03189499"><ele>1162.4000243952</ele><time>2010-10-02T13:09:49Z</time></trkpt>
<trkpt lat="46.31895893" lon="7.03173397"><ele>1163.800048824</ele><time>2010-10-02T13:09:56Z</time></trkpt>
<trkpt lat="46.31892398" lon="7.03164596"><ele>1164.800048856</ele><time>2010-10-02T13:10:01Z</time></trkpt>
<trkpt lat="46.31882197" lon="7.03158796"><ele>1166.0000001264</ele><time>2010-10-02T13:10:10Z</time></trkpt>
<trkpt lat="46.31876095" lon="7.03154697"><ele>1166.9999998536</ele><time>2010-10-02T13:10:15Z</time></trkpt>
<trkpt lat="46.31866992" lon="7.03153096"><ele>1168.199951124</ele><time>2010-10-02T13:10:21Z</time></trkpt>
<trkpt lat="46.31854797" lon="7.03149995"><ele>1169.5999755528</ele><time>2010-10-02T13:10:28Z</time></trkpt>
<trkpt lat="46.31846499" lon="7.03151596"><ele>1170.4000243464</ele><time>2010-10-02T13:10:34Z</time></trkpt>
<trkpt lat="46.31837094" lon="7.03154999"><ele>1171.8000487752</ele><time>2010-10-02T13:10:40Z</time></trkpt>
<trkpt lat="46.31824798" lon="7.03152593"><ele>1173.199951284</ele><time>2010-10-02T13:10:47Z</time></trkpt>
<trkpt lat="46.31812200" lon="7.03147396"><ele>1174.5999757128</ele><time>2010-10-02T13:10:54Z</time></trkpt>
<trkpt lat="46.31811094" lon="7.03146692"><ele>1174.5999757128</ele><time>2010-10-02T13:10:55Z</time></trkpt>
<trkpt lat="46.31804598" lon="7.03137397"><ele>1175.8000489032</ele><time>2010-10-02T13:11:01Z</time></trkpt>
<trkpt lat="46.31792595" lon="7.03143893"><ele>1176.8000489352</ele><time>2010-10-02T13:11:07Z</time></trkpt>
<trkpt lat="46.31791396" lon="7.03147899"><ele>1177.599975504</ele><time>2010-10-02T13:11:12Z</time></trkpt>
<trkpt lat="46.31794196" lon="7.03148796"><ele>1177.9999999008</ele><time>2010-10-02T13:11:14Z</time></trkpt>
<trkpt lat="46.31805000" lon="7.03155200"><ele>1179.599975568</ele><time>2010-10-02T13:11:22Z</time></trkpt>
<trkpt lat="46.31812594" lon="7.03161696"><ele>1180.8000487584</ele><time>2010-10-02T13:11:28Z</time></trkpt>
<trkpt lat="46.31822292" lon="7.03167697"><ele>1182.1999512672</ele><time>2010-10-02T13:11:34Z</time></trkpt>
<trkpt lat="46.31830900" lon="7.03173799"><ele>1182.8000488224</ele><time>2010-10-02T13:11:39Z</time></trkpt>
<trkpt lat="46.31837094" lon="7.03179994"><ele>1184.0000000928</ele><time>2010-10-02T13:11:43Z</time></trkpt>
<trkpt lat="46.31842299" lon="7.03184092"><ele>1184.4000244896</ele><time>2010-10-02T13:11:46Z</time></trkpt>
<trkpt lat="46.31852492" lon="7.03190899"><ele>1185.4000245216</ele><time>2010-10-02T13:11:52Z</time></trkpt>
<trkpt lat="46.31858493" lon="7.03194394"><ele>1186.4000245536</ele><time>2010-10-02T13:11:57Z</time></trkpt>
<trkpt lat="46.31864696" lon="7.03198199"><ele>1186.999999884</ele><time>2010-10-02T13:12:01Z</time></trkpt>
<trkpt lat="46.31870597" lon="7.03204293"><ele>1187.8000486776</ele><time>2010-10-02T13:12:05Z</time></trkpt>
<trkpt lat="46.31878593" lon="7.03217796"><ele>1188.5999755512</ele><time>2010-10-02T13:12:11Z</time></trkpt>
<trkpt lat="46.31881594" lon="7.03235499"><ele>1190.1999512184</ele><time>2010-10-02T13:12:18Z</time></trkpt>
<trkpt lat="46.31881895" lon="7.03244199"><ele>1190.5999756152</ele><time>2010-10-02T13:12:21Z</time></trkpt>
<trkpt lat="46.31885097" lon="7.03257099"><ele>1191.5999756472</ele><time>2010-10-02T13:12:26Z</time></trkpt>
<trkpt lat="46.31885500" lon="7.03276696"><ele>1193.000000076</ele><time>2010-10-02T13:12:33Z</time></trkpt>
<trkpt lat="46.31885793" lon="7.03281499"><ele>1193.1999513144</ele><time>2010-10-02T13:12:35Z</time></trkpt>
<trkpt lat="46.31892096" lon="7.03293200"><ele>1194.1999510416</ele><time>2010-10-02T13:12:40Z</time></trkpt>
<trkpt lat="46.31893395" lon="7.03300492"><ele>1194.8000489016</ele><time>2010-10-02T13:12:43Z</time></trkpt>
<trkpt lat="46.31902699" lon="7.03317298"><ele>1196.1999511056</ele><time>2010-10-02T13:12:51Z</time></trkpt>
<trkpt lat="46.31906496" lon="7.03324397"><ele>1197.1999511376</ele><time>2010-10-02T13:12:57Z</time></trkpt>
<trkpt lat="46.31910595" lon="7.03331295"><ele>1197.8000486928</ele><time>2010-10-02T13:13:02Z</time></trkpt>
<trkpt lat="46.31917996" lon="7.03337599"><ele>1198.8000487248</ele><time>2010-10-02T13:13:07Z</time></trkpt>
<trkpt lat="46.31927493" lon="7.03345193"><ele>1199.9999999952</ele><time>2010-10-02T13:13:13Z</time></trkpt>
<trkpt lat="46.31936596" lon="7.03349392"><ele>1201.1999512656</ele><time>2010-10-02T13:13:19Z</time></trkpt>
<trkpt lat="46.31945699" lon="7.03357598"><ele>1202.1999512976</ele><time>2010-10-02T13:13:25Z</time></trkpt>
<trkpt lat="46.31956293" lon="7.03370397"><ele>1203.5999757264</ele><time>2010-10-02T13:13:32Z</time></trkpt>
<trkpt lat="46.31962395" lon="7.03377999"><ele>1204.9999998504</ele><time>2010-10-02T13:13:38Z</time></trkpt>
<trkpt lat="46.31974298" lon="7.03390296"><ele>1206.800048676</ele><time>2010-10-02T13:13:46Z</time></trkpt>
<trkpt lat="46.31982294" lon="7.03402198"><ele>1207.800048708</ele><time>2010-10-02T13:13:52Z</time></trkpt>
<trkpt lat="46.31991698" lon="7.03417093"><ele>1209.4000243752</ele><time>2010-10-02T13:13:59Z</time></trkpt>
<trkpt lat="46.31998697" lon="7.03432993"><ele>1210.5999756456</ele><time>2010-10-02T13:14:07Z</time></trkpt>
<trkpt lat="46.32005093" lon="7.03452397"><ele>1212.5999757096</ele><time>2010-10-02T13:14:17Z</time></trkpt>
<trkpt lat="46.32006895" lon="7.03468398"><ele>1214.199951072</ele><time>2010-10-02T13:14:25Z</time></trkpt>
<trkpt lat="46.32008295" lon="7.03483595"><ele>1215.4000242624</ele><time>2010-10-02T13:14:31Z</time></trkpt>
<trkpt lat="46.32017598" lon="7.03502295"><ele>1216.5999755328</ele><time>2010-10-02T13:14:39Z</time></trkpt>
<trkpt lat="46.32021094" lon="7.03517994"><ele>1217.8000487232</ele><time>2010-10-02T13:14:46Z</time></trkpt>
<trkpt lat="46.32025000" lon="7.03528698"><ele>1218.4000243584</ele><time>2010-10-02T13:14:51Z</time></trkpt>
<trkpt lat="46.32028696" lon="7.03539996"><ele>1219.199951232</ele><time>2010-10-02T13:14:56Z</time></trkpt>
<trkpt lat="46.32032393" lon="7.03553298"><ele>1220.5999756608</ele><time>2010-10-02T13:15:02Z</time></trkpt>
<trkpt lat="46.32036399" lon="7.03569199"><ele>1221.8000488512</ele><time>2010-10-02T13:15:09Z</time></trkpt>
<trkpt lat="46.32036894" lon="7.03573398"><ele>1222.0000000896</ele><time>2010-10-02T13:15:11Z</time></trkpt>
<trkpt lat="46.32039995" lon="7.03583498"><ele>1222.8000488832</ele><time>2010-10-02T13:15:16Z</time></trkpt>
<trkpt lat="46.32045493" lon="7.03597597"><ele>1224.1999510872</ele><time>2010-10-02T13:15:24Z</time></trkpt>
<trkpt lat="46.32047698" lon="7.03603699"><ele>1224.8000489472</ele><time>2010-10-02T13:15:28Z</time></trkpt>
<trkpt lat="46.32057698" lon="7.03618292"><ele>1225.8000489792</ele><time>2010-10-02T13:15:35Z</time></trkpt>
<trkpt lat="46.32063699" lon="7.03634796"><ele>1227.1999511832</ele><time>2010-10-02T13:15:42Z</time></trkpt>
<trkpt lat="46.32065300" lon="7.03640495"><ele>1227.59997558</ele><time>2010-10-02T13:15:44Z</time></trkpt>
<trkpt lat="46.32063498" lon="7.03658399"><ele>1228.8000487704</ele><time>2010-10-02T13:15:52Z</time></trkpt>
<trkpt lat="46.32060899" lon="7.03670997"><ele>1229.599975644</ele><time>2010-10-02T13:15:57Z</time></trkpt>
<trkpt lat="46.32060598" lon="7.03676797"><ele>1229.8000488024</ele><time>2010-10-02T13:15:59Z</time></trkpt>
<trkpt lat="46.32058494" lon="7.03695296"><ele>1231.1999513112</ele><time>2010-10-02T13:16:06Z</time></trkpt>
<trkpt lat="46.32061495" lon="7.03708699"><ele>1232.4000245016</ele><time>2010-10-02T13:16:12Z</time></trkpt>
<trkpt lat="46.32065593" lon="7.03722093"><ele>1233.5999754672</ele><time>2010-10-02T13:16:18Z</time></trkpt>
<trkpt lat="46.32071595" lon="7.03735597"><ele>1234.8000489624</ele><time>2010-10-02T13:16:24Z</time></trkpt>
<trkpt lat="46.32080697" lon="7.03748798"><ele>1235.999999928</ele><time>2010-10-02T13:16:32Z</time></trkpt>
<trkpt lat="46.32089993" lon="7.03754699"><ele>1237.5999755952</ele><time>2010-10-02T13:16:39Z</time></trkpt>
<trkpt lat="46.32100797" lon="7.03760197"><ele>1238.8000487856</ele><time>2010-10-02T13:16:46Z</time></trkpt>
<trkpt lat="46.32115600" lon="7.03765998"><ele>1240.000000056</ele><time>2010-10-02T13:16:55Z</time></trkpt>
<trkpt lat="46.32127192" lon="7.03768697"><ele>1241.1999510216</ele><time>2010-10-02T13:17:02Z</time></trkpt>
<trkpt lat="46.32134199" lon="7.03777598"><ele>1242.1999510536</ele><time>2010-10-02T13:17:07Z</time></trkpt>
<trkpt lat="46.32136697" lon="7.03794798"><ele>1243.000000152</ele><time>2010-10-02T13:17:13Z</time></trkpt>
<trkpt lat="46.32133093" lon="7.03810095"><ele>1243.9999998792</ele><time>2010-10-02T13:17:19Z</time></trkpt>
<trkpt lat="46.32120897" lon="7.03799299"><ele>1244.5999755144</ele><time>2010-10-02T13:18:43Z</time></trkpt>
<trkpt lat="46.32118399" lon="7.03796893"><ele>1244.9999999112</ele><time>2010-10-02T13:18:45Z</time></trkpt>
<trkpt lat="46.32108794" lon="7.03790992"><ele>1247.1999512136</ele><time>2010-10-02T13:18:52Z</time></trkpt>
<trkpt lat="46.32097696" lon="7.03788394"><ele>1248.400024404</ele><time>2010-10-02T13:18:58Z</time></trkpt>
<trkpt lat="46.32087898" lon="7.03781898"><ele>1249.8000488328</ele><time>2010-10-02T13:19:03Z</time></trkpt>
<trkpt lat="46.32080295" lon="7.03777799"><ele>1249.5999756744</ele><time>2010-10-02T13:19:08Z</time></trkpt>
<trkpt lat="46.32068393" lon="7.03772494"><ele>1250.400024468</ele><time>2010-10-02T13:19:16Z</time></trkpt>
<trkpt lat="46.32061897" lon="7.03766199"><ele>1252.400024532</ele><time>2010-10-02T13:19:20Z</time></trkpt>
<trkpt lat="46.32049793" lon="7.03755395"><ele>1253.5999754976</ele><time>2010-10-02T13:19:28Z</time></trkpt>
<trkpt lat="46.32036592" lon="7.03739796"><ele>1255.5999755616</ele><time>2010-10-02T13:19:37Z</time></trkpt>
<trkpt lat="46.32026693" lon="7.03727198"><ele>1257.800048784</ele><time>2010-10-02T13:19:45Z</time></trkpt>
<trkpt lat="46.32014992" lon="7.03708992"><ele>1259.800048848</ele><time>2010-10-02T13:19:55Z</time></trkpt>
<trkpt lat="46.32006392" lon="7.03694098"><ele>1261.199951052</ele><time>2010-10-02T13:20:03Z</time></trkpt>
<trkpt lat="46.31994599" lon="7.03674300"><ele>1263.4000242744</ele><time>2010-10-02T13:20:13Z</time></trkpt>
<trkpt lat="46.31982897" lon="7.03656195"><ele>1265.4000243384</ele><time>2010-10-02T13:20:22Z</time></trkpt>
<trkpt lat="46.31969092" lon="7.03643697"><ele>1267.0000000056</ele><time>2010-10-02T13:20:31Z</time></trkpt>
<trkpt lat="46.31956000" lon="7.03640395"><ele>1268.4000244344</ele><time>2010-10-02T13:20:39Z</time></trkpt>
<trkpt lat="46.31946897" lon="7.03648098"><ele>1269.5999757048</ele><time>2010-10-02T13:20:46Z</time></trkpt>
<trkpt lat="46.31943595" lon="7.03650998"><ele>1269.5999757048</ele><time>2010-10-02T13:20:48Z</time></trkpt>
<trkpt lat="46.31939395" lon="7.03672095"><ele>1271.1999510672</ele><time>2010-10-02T13:20:56Z</time></trkpt>
<trkpt lat="46.31947693" lon="7.03690695"><ele>1272.8000489592</ele><time>2010-10-02T13:21:04Z</time></trkpt>
<trkpt lat="46.31963594" lon="7.03697593"><ele>1273.8000486864</ele><time>2010-10-02T13:21:12Z</time></trkpt>
<trkpt lat="46.31978698" lon="7.03706997"><ele>1275.9999999888</ele><time>2010-10-02T13:21:20Z</time></trkpt>
<trkpt lat="46.31989494" lon="7.03726100"><ele>1277.599975656</ele><time>2010-10-02T13:21:28Z</time></trkpt>
<trkpt lat="46.31990097" lon="7.03734599"><ele>1278.4000244496</ele><time>2010-10-02T13:21:31Z</time></trkpt>
<trkpt lat="46.31978799" lon="7.03744196"><ele>1279.8000488784</ele><time>2010-10-02T13:21:37Z</time></trkpt>
<trkpt lat="46.31972596" lon="7.03742595"><ele>1280.4000245136</ele><time>2010-10-02T13:21:40Z</time></trkpt>
<trkpt lat="46.31950292" lon="7.03727692"><ele>1282.1999511144</ele><time>2010-10-02T13:21:51Z</time></trkpt>
<trkpt lat="46.31929697" lon="7.03712697"><ele>1283.8000487016</ele><time>2010-10-02T13:22:01Z</time></trkpt>
<trkpt lat="46.31908097" lon="7.03694592"><ele>1286.1999512424</ele><time>2010-10-02T13:22:13Z</time></trkpt>
<trkpt lat="46.31895793" lon="7.03677996"><ele>1288.000000068</ele><time>2010-10-02T13:22:21Z</time></trkpt>
<trkpt lat="46.31882893" lon="7.03655600"><ele>1289.8000488936</ele><time>2010-10-02T13:22:31Z</time></trkpt>
<trkpt lat="46.31870597" lon="7.03638995"><ele>1291.5999754944</ele><time>2010-10-02T13:22:40Z</time></trkpt>
<trkpt lat="46.31857999" lon="7.03625592"><ele>1293.5999755584</ele><time>2010-10-02T13:22:49Z</time></trkpt>
<trkpt lat="46.31846993" lon="7.03616699"><ele>1294.5999755904</ele><time>2010-10-02T13:22:56Z</time></trkpt>
<trkpt lat="46.31837295" lon="7.03605300"><ele>1295.8000487808</ele><time>2010-10-02T13:23:03Z</time></trkpt>
<trkpt lat="46.31824094" lon="7.03590296"><ele>1297.0000000512</ele><time>2010-10-02T13:23:11Z</time></trkpt>
<trkpt lat="46.31815000" lon="7.03578000"><ele>1298.40002448</ele><time>2010-10-02T13:23:17Z</time></trkpt>
<trkpt lat="46.31799895" lon="7.03561295"><ele>1300.0000001472</ele><time>2010-10-02T13:23:27Z</time></trkpt>
<trkpt lat="46.31788496" lon="7.03547498"><ele>1302.1999511448</ele><time>2010-10-02T13:23:35Z</time></trkpt>
<trkpt lat="46.31776099" lon="7.03537197"><ele>1303.5999755736</ele><time>2010-10-02T13:23:43Z</time></trkpt>
<trkpt lat="46.31764892" lon="7.03530097"><ele>1305.0000000024</ele><time>2010-10-02T13:23:50Z</time></trkpt>
<trkpt lat="46.31754197" lon="7.03517994"><ele>1306.1999512728</ele><time>2010-10-02T13:23:57Z</time></trkpt>
<trkpt lat="46.31743100" lon="7.03504994"><ele>1307.1999513048</ele><time>2010-10-02T13:24:04Z</time></trkpt>
<trkpt lat="46.31732396" lon="7.03490493"><ele>1308.800048892</ele><time>2010-10-02T13:24:12Z</time></trkpt>
<trkpt lat="46.31719999" lon="7.03478297"><ele>1309.9999998576</ele><time>2010-10-02T13:24:20Z</time></trkpt>
<trkpt lat="46.31707795" lon="7.03465599"><ele>1311.199951128</ele><time>2010-10-02T13:24:27Z</time></trkpt>
<trkpt lat="46.31691199" lon="7.03455792"><ele>1312.5999755568</ele><time>2010-10-02T13:24:37Z</time></trkpt>
<trkpt lat="46.31678492" lon="7.03444795"><ele>1313.8000487472</ele><time>2010-10-02T13:24:44Z</time></trkpt>
<trkpt lat="46.31664000" lon="7.03425500"><ele>1314.8000487792</ele><time>2010-10-02T13:24:52Z</time></trkpt>
<trkpt lat="46.31656397" lon="7.03414494"><ele>1316.0000000496</ele><time>2010-10-02T13:24:59Z</time></trkpt>
<trkpt lat="46.31650195" lon="7.03402994"><ele>1317.0000000816</ele><time>2010-10-02T13:25:05Z</time></trkpt>
<trkpt lat="46.31645199" lon="7.03388594"><ele>1318.4000245104</ele><time>2010-10-02T13:25:12Z</time></trkpt>
<trkpt lat="46.31642894" lon="7.03377396"><ele>1319.1999510792</ele><time>2010-10-02T13:25:17Z</time></trkpt>
<trkpt lat="46.31637597" lon="7.03364295"><ele>1320.599975508</ele><time>2010-10-02T13:25:23Z</time></trkpt>
<trkpt lat="46.31629298" lon="7.03347296"><ele>1321.4000243016</ele><time>2010-10-02T13:25:30Z</time></trkpt>
<trkpt lat="46.31617296" lon="7.03327398"><ele>1323.1999512072</ele><time>2010-10-02T13:25:39Z</time></trkpt>
<trkpt lat="46.31603197" lon="7.03309997"><ele>1325.1999512712</ele><time>2010-10-02T13:25:48Z</time></trkpt>
<trkpt lat="46.31593994" lon="7.03302093"><ele>1325.8000488264</ele><time>2010-10-02T13:25:53Z</time></trkpt>
<trkpt lat="46.31581195" lon="7.03285798"><ele>1327.4000244936</ele><time>2010-10-02T13:26:02Z</time></trkpt>
<trkpt lat="46.31565697" lon="7.03265799"><ele>1329.5999754912</ele><time>2010-10-02T13:26:13Z</time></trkpt>
<trkpt lat="46.31551799" lon="7.03253394"><ele>1330.99999992</ele><time>2010-10-02T13:26:22Z</time></trkpt>
<trkpt lat="46.31536293" lon="7.03238399"><ele>1332.8000487456</ele><time>2010-10-02T13:26:32Z</time></trkpt>
<trkpt lat="46.31523393" lon="7.03222993"><ele>1334.1999512544</ele><time>2010-10-02T13:26:41Z</time></trkpt>
<trkpt lat="46.31511692" lon="7.03207394"><ele>1335.5999756832</ele><time>2010-10-02T13:26:49Z</time></trkpt>
<trkpt lat="46.31501298" lon="7.03196900"><ele>1337.000000112</ele><time>2010-10-02T13:26:56Z</time></trkpt>
<trkpt lat="46.31490394" lon="7.03186993"><ele>1338.4000245408</ele><time>2010-10-02T13:27:03Z</time></trkpt>
<trkpt lat="46.31480997" lon="7.03177094"><ele>1339.400024268</ele><time>2010-10-02T13:27:10Z</time></trkpt>
<trkpt lat="46.31477293" lon="7.03174596"><ele>1339.9999999032</ele><time>2010-10-02T13:27:13Z</time></trkpt>
<trkpt lat="46.31461493" lon="7.03167697"><ele>1341.400024332</ele><time>2010-10-02T13:27:21Z</time></trkpt>
<trkpt lat="46.31452692" lon="7.03166993"><ele>1342.1999512056</ele><time>2010-10-02T13:27:26Z</time></trkpt>
<trkpt lat="46.31433992" lon="7.03168594"><ele>1343.5999756344</ele><time>2010-10-02T13:27:35Z</time></trkpt>
<trkpt lat="46.31414797" lon="7.03177999"><ele>1345.5999756984</ele><time>2010-10-02T13:27:45Z</time></trkpt>
<trkpt lat="46.31404798" lon="7.03190899"><ele>1346.8000488888</ele><time>2010-10-02T13:27:52Z</time></trkpt>
<trkpt lat="46.31395695" lon="7.03207092"><ele>1348.1999510928</ele><time>2010-10-02T13:28:01Z</time></trkpt>
<trkpt lat="46.31384195" lon="7.03222498"><ele>1349.9999999184</ele><time>2010-10-02T13:28:11Z</time></trkpt>
<trkpt lat="46.31375293" lon="7.03237192"><ele>1351.4000243472</ele><time>2010-10-02T13:28:19Z</time></trkpt>
<trkpt lat="46.31368093" lon="7.03253092"><ele>1352.800048776</ele><time>2010-10-02T13:28:26Z</time></trkpt>
<trkpt lat="46.31365897" lon="7.03257199"><ele>1353.1999512528</ele><time>2010-10-02T13:28:28Z</time></trkpt>
<trkpt lat="46.31360197" lon="7.03274894"><ele>1354.4000244432</ele><time>2010-10-02T13:28:35Z</time></trkpt>
<trkpt lat="46.31359292" lon="7.03277098"><ele>1354.5999756816</ele><time>2010-10-02T13:28:36Z</time></trkpt>
<trkpt lat="46.31351396" lon="7.03296393"><ele>1356.199951044</ele><time>2010-10-02T13:28:44Z</time></trkpt>
<trkpt lat="46.31342998" lon="7.03311900"><ele>1357.0000001424</ele><time>2010-10-02T13:28:51Z</time></trkpt>
<trkpt lat="46.31333493" lon="7.03323794"><ele>1358.4000242664</ele><time>2010-10-02T13:28:58Z</time></trkpt>
<trkpt lat="46.31325195" lon="7.03336995"><ele>1359.8000486952</ele><time>2010-10-02T13:29:05Z</time></trkpt>
<trkpt lat="46.31313393" lon="7.03356793"><ele>1361.199951204</ele><time>2010-10-02T13:29:14Z</time></trkpt>
<trkpt lat="46.31305497" lon="7.03373297"><ele>1363.0000000296</ele><time>2010-10-02T13:29:21Z</time></trkpt>
<trkpt lat="46.31294399" lon="7.03391897"><ele>1364.4000244584</ele><time>2010-10-02T13:29:30Z</time></trkpt>
<trkpt lat="46.31283595" lon="7.03408300"><ele>1366.0000001256</ele><time>2010-10-02T13:29:39Z</time></trkpt>
<trkpt lat="46.31273797" lon="7.03421694"><ele>1367.4000245544</ele><time>2010-10-02T13:29:46Z</time></trkpt>
<trkpt lat="46.31263596" lon="7.03436597"><ele>1368.59997552</ele><time>2010-10-02T13:29:54Z</time></trkpt>
<trkpt lat="46.31251199" lon="7.03449195"><ele>1370.1999511872</ele><time>2010-10-02T13:30:02Z</time></trkpt>
<trkpt lat="46.31243496" lon="7.03459396"><ele>1370.8000487424</ele><time>2010-10-02T13:30:08Z</time></trkpt>
<trkpt lat="46.31231795" lon="7.03473696"><ele>1372.8000488064</ele><time>2010-10-02T13:30:17Z</time></trkpt>
<trkpt lat="46.31220396" lon="7.03489395"><ele>1373.8000488384</ele><time>2010-10-02T13:30:26Z</time></trkpt>
<trkpt lat="46.31202894" lon="7.03506293"><ele>1375.4000245056</ele><time>2010-10-02T13:30:36Z</time></trkpt>
<trkpt lat="46.31187094" lon="7.03525496"><ele>1377.1999511064</ele><time>2010-10-02T13:30:46Z</time></trkpt>
<trkpt lat="46.31171999" lon="7.03542394"><ele>1377.9999999</ele><time>2010-10-02T13:30:54Z</time></trkpt>
<trkpt lat="46.31159099" lon="7.03560197"><ele>1378.5999755352</ele><time>2010-10-02T13:31:01Z</time></trkpt>
<trkpt lat="46.31142997" lon="7.03582996"><ele>1379.5999755672</ele><time>2010-10-02T13:31:10Z</time></trkpt>
<trkpt lat="46.31128396" lon="7.03604797"><ele>1380.4000243608</ele><time>2010-10-02T13:31:18Z</time></trkpt>
<trkpt lat="46.31113292" lon="7.03629096"><ele>1380.4000243608</ele><time>2010-10-02T13:31:26Z</time></trkpt>
<trkpt lat="46.31096394" lon="7.03661199"><ele>1381.8000487896</ele><time>2010-10-02T13:31:36Z</time></trkpt>
<trkpt lat="46.31086495" lon="7.03697593"><ele>1382.8000488216</ele><time>2010-10-02T13:31:45Z</time></trkpt>
<trkpt lat="46.31084894" lon="7.03732898"><ele>1383.4000244568</ele><time>2010-10-02T13:31:53Z</time></trkpt>
<trkpt lat="46.31081298" lon="7.03760298"><ele>1383.1999512984</ele><time>2010-10-02T13:31:59Z</time></trkpt>
<trkpt lat="46.31077694" lon="7.03786399"><ele>1383.4000244568</ele><time>2010-10-02T13:32:05Z</time></trkpt>
<trkpt lat="46.31076998" lon="7.03821000"><ele>1383.00000006</ele><time>2010-10-02T13:32:12Z</time></trkpt>
<trkpt lat="46.31078498" lon="7.03849800"><ele>1382.4000244248</ele><time>2010-10-02T13:32:17Z</time></trkpt>
<trkpt lat="46.31081399" lon="7.03891793"><ele>1381.4000243928</ele><time>2010-10-02T13:32:24Z</time></trkpt>
<trkpt lat="46.31084098" lon="7.03909697"><ele>1380.999999996</ele><time>2010-10-02T13:32:27Z</time></trkpt>
<trkpt lat="46.31088297" lon="7.03921398"><ele>1380.8000487576</ele><time>2010-10-02T13:32:29Z</time></trkpt>
<trkpt lat="46.31093292" lon="7.03932295"><ele>1380.8000487576</ele><time>2010-10-02T13:32:31Z</time></trkpt>
<trkpt lat="46.31103996" lon="7.03970793"><ele>1379.999999964</ele><time>2010-10-02T13:32:37Z</time></trkpt>
<trkpt lat="46.31120995" lon="7.04019894"><ele>1378.999999932</ele><time>2010-10-02T13:32:44Z</time></trkpt>
<trkpt lat="46.31131397" lon="7.04053899"><ele>1379.4000243288</ele><time>2010-10-02T13:32:50Z</time></trkpt>
<trkpt lat="46.31137993" lon="7.04078894"><ele>1379.8000487256</ele><time>2010-10-02T13:32:55Z</time></trkpt>
<trkpt lat="46.31149594" lon="7.04105096"><ele>1380.999999996</ele><time>2010-10-02T13:33:02Z</time></trkpt>
<trkpt lat="46.31154296" lon="7.04129697"><ele>1382.5999756632</ele><time>2010-10-02T13:33:09Z</time></trkpt>
<trkpt lat="46.31150298" lon="7.04154499"><ele>1383.8000488536</ele><time>2010-10-02T13:33:17Z</time></trkpt>
<trkpt lat="46.31149393" lon="7.04167994"><ele>1385.000000124</ele><time>2010-10-02T13:33:21Z</time></trkpt>
<trkpt lat="46.31147599" lon="7.04192092"><ele>1385.9999998512</ele><time>2010-10-02T13:33:28Z</time></trkpt>
<trkpt lat="46.31148697" lon="7.04215695"><ele>1386.8000489496</ele><time>2010-10-02T13:33:34Z</time></trkpt>
<trkpt lat="46.31148697" lon="7.04235493"><ele>1387.40002428</ele><time>2010-10-02T13:33:39Z</time></trkpt>
<trkpt lat="46.31153692" lon="7.04256599"><ele>1388.1999511536</ele><time>2010-10-02T13:33:44Z</time></trkpt>
<trkpt lat="46.31157800" lon="7.04277897"><ele>1388.400024312</ele><time>2010-10-02T13:33:49Z</time></trkpt>
<trkpt lat="46.31161395" lon="7.04308692"><ele>1388.5999755504</ele><time>2010-10-02T13:33:55Z</time></trkpt>
<trkpt lat="46.31161898" lon="7.04336998"><ele>1389.1999511856</ele><time>2010-10-02T13:34:00Z</time></trkpt>
<trkpt lat="46.31163298" lon="7.04369796"><ele>1389.1999511856</ele><time>2010-10-02T13:34:06Z</time></trkpt>
<trkpt lat="46.31159099" lon="7.04402494"><ele>1389.400024344</ele><time>2010-10-02T13:34:11Z</time></trkpt>
<trkpt lat="46.31152293" lon="7.04420792"><ele>1389.5999755824</ele><time>2010-10-02T13:34:14Z</time></trkpt>
<trkpt lat="46.31141799" lon="7.04463196"><ele>1389.9999999792</ele><time>2010-10-02T13:34:20Z</time></trkpt>
<trkpt lat="46.31143894" lon="7.04500797"><ele>1390.5999756144</ele><time>2010-10-02T13:34:26Z</time></trkpt>
<trkpt lat="46.31140994" lon="7.04541592"><ele>1392.40002444</ele><time>2010-10-02T13:34:34Z</time></trkpt>
<trkpt lat="46.31140298" lon="7.04585999"><ele>1394.1999510408</ele><time>2010-10-02T13:34:44Z</time></trkpt>
<trkpt lat="46.31141698" lon="7.04608094"><ele>1395.9999998664</ele><time>2010-10-02T13:34:49Z</time></trkpt>
<trkpt lat="46.31142494" lon="7.04630298"><ele>1397.1999511368</ele><time>2010-10-02T13:34:54Z</time></trkpt>
<trkpt lat="46.31144900" lon="7.04645494"><ele>1397.5999755336</ele><time>2010-10-02T13:34:58Z</time></trkpt>
<trkpt lat="46.31148797" lon="7.04664697"><ele>1398.800048724</ele><time>2010-10-02T13:35:03Z</time></trkpt>
<trkpt lat="46.31154598" lon="7.04692097"><ele>1399.800048756</ele><time>2010-10-02T13:35:10Z</time></trkpt>
<trkpt lat="46.31157992" lon="7.04720998"><ele>1401.5999756616</ele><time>2010-10-02T13:35:17Z</time></trkpt>
<trkpt lat="46.31163399" lon="7.04754098"><ele>1403.199951024</ele><time>2010-10-02T13:35:25Z</time></trkpt>
<trkpt lat="46.31169392" lon="7.04778800"><ele>1404.0000001224</ele><time>2010-10-02T13:35:32Z</time></trkpt>
<trkpt lat="46.31175393" lon="7.04794893"><ele>1405.199951088</ele><time>2010-10-02T13:35:38Z</time></trkpt>
<trkpt lat="46.31181294" lon="7.04822897"><ele>1406.80004898</ele><time>2010-10-02T13:35:47Z</time></trkpt>
<trkpt lat="46.31183599" lon="7.04844899"><ele>1407.8000487072</ele><time>2010-10-02T13:35:53Z</time></trkpt>
<trkpt lat="46.31186793" lon="7.04877396"><ele>1408.8000487392</ele><time>2010-10-02T13:36:02Z</time></trkpt>
<trkpt lat="46.31195594" lon="7.04906699"><ele>1410.4000244064</ele><time>2010-10-02T13:36:10Z</time></trkpt>
<trkpt lat="46.31209499" lon="7.04944795"><ele>1411.8000488352</ele><time>2010-10-02T13:36:21Z</time></trkpt>
<trkpt lat="46.31220899" lon="7.04974299"><ele>1413.599975436</ele><time>2010-10-02T13:36:30Z</time></trkpt>
<trkpt lat="46.31235793" lon="7.05002999"><ele>1414.9999998648</ele><time>2010-10-02T13:36:39Z</time></trkpt>
<trkpt lat="46.31249900" lon="7.05029896"><ele>1416.4000242936</ele><time>2010-10-02T13:36:48Z</time></trkpt>
<trkpt lat="46.31265499" lon="7.05063692"><ele>1417.9999999608</ele><time>2010-10-02T13:36:59Z</time></trkpt>
<trkpt lat="46.31272498" lon="7.05083993"><ele>1418.9999999928</ele><time>2010-10-02T13:37:05Z</time></trkpt>
<trkpt lat="46.31279999" lon="7.05101796"><ele>1419.599975628</ele><time>2010-10-02T13:37:11Z</time></trkpt>
<trkpt lat="46.31286898" lon="7.05119097"><ele>1420.4000244216</ele><time>2010-10-02T13:37:18Z</time></trkpt>
<trkpt lat="46.31297593" lon="7.05133094"><ele>1422.0000000888</ele><time>2010-10-02T13:37:24Z</time></trkpt>
<trkpt lat="46.31314793" lon="7.05145894"><ele>1423.4000245176</ele><time>2010-10-02T13:37:32Z</time></trkpt>
<trkpt lat="46.31328899" lon="7.05161895"><ele>1424.8000489464</ele><time>2010-10-02T13:37:40Z</time></trkpt>
<trkpt lat="46.31333493" lon="7.05184299"><ele>1426.5999755472</ele><time>2010-10-02T13:37:48Z</time></trkpt>
<trkpt lat="46.31339293" lon="7.05204399"><ele>1428.1999512144</ele><time>2010-10-02T13:37:55Z</time></trkpt>
<trkpt lat="46.31349100" lon="7.05227399"><ele>1429.4000244048</ele><time>2010-10-02T13:38:02Z</time></trkpt>
<trkpt lat="46.31359493" lon="7.05247298"><ele>1430.4000244368</ele><time>2010-10-02T13:38:09Z</time></trkpt>
<trkpt lat="46.31367993" lon="7.05273097"><ele>1431.5999757072</ele><time>2010-10-02T13:38:17Z</time></trkpt>
<trkpt lat="46.31373692" lon="7.05300892"><ele>1433.000000136</ele><time>2010-10-02T13:38:26Z</time></trkpt>
<trkpt lat="46.31377799" lon="7.05322492"><ele>1434.1999511016</ele><time>2010-10-02T13:38:33Z</time></trkpt>
<trkpt lat="46.31383692" lon="7.05343598"><ele>1435.5999755304</ele><time>2010-10-02T13:38:40Z</time></trkpt>
<trkpt lat="46.31387598" lon="7.05368299"><ele>1437.1999511976</ele><time>2010-10-02T13:38:48Z</time></trkpt>
<trkpt lat="46.31387095" lon="7.05398893"><ele>1438.8000487848</ele><time>2010-10-02T13:38:57Z</time></trkpt>
<trkpt lat="46.31387992" lon="7.05432597"><ele>1440.1999512936</ele><time>2010-10-02T13:39:06Z</time></trkpt>
<trkpt lat="46.31394094" lon="7.05458899"><ele>1441.5999757224</ele><time>2010-10-02T13:39:14Z</time></trkpt>
<trkpt lat="46.31398595" lon="7.05484992"><ele>1443.5999754816</ele><time>2010-10-02T13:39:22Z</time></trkpt>
<trkpt lat="46.31405896" lon="7.05498696"><ele>1445.1999511488</ele><time>2010-10-02T13:39:28Z</time></trkpt>
<trkpt lat="46.31420396" lon="7.05507598"><ele>1446.1999511808</ele><time>2010-10-02T13:39:35Z</time></trkpt>
<trkpt lat="46.31432097" lon="7.05514396"><ele>1446.9999999744</ele><time>2010-10-02T13:39:40Z</time></trkpt>
<trkpt lat="46.31442692" lon="7.05528192"><ele>1447.5999756096</ele><time>2010-10-02T13:39:47Z</time></trkpt>
<trkpt lat="46.31452792" lon="7.05545099"><ele>1447.800048768</ele><time>2010-10-02T13:39:54Z</time></trkpt>
<trkpt lat="46.31463295" lon="7.05562893"><ele>1450.0000000704</ele><time>2010-10-02T13:40:01Z</time></trkpt>
<trkpt lat="46.31472398" lon="7.05578098"><ele>1451.199951036</ele><time>2010-10-02T13:40:08Z</time></trkpt>
<trkpt lat="46.31477796" lon="7.05585793"><ele>1452.5999754648</ele><time>2010-10-02T13:40:13Z</time></trkpt>
<trkpt lat="46.31487594" lon="7.05598692"><ele>1453.80004896</ele><time>2010-10-02T13:40:20Z</time></trkpt>
<trkpt lat="46.31500997" lon="7.05614693"><ele>1455.5999755608</ele><time>2010-10-02T13:40:28Z</time></trkpt>
<trkpt lat="46.31511499" lon="7.05623494"><ele>1456.4000243544</ele><time>2010-10-02T13:40:34Z</time></trkpt>
<trkpt lat="46.31524592" lon="7.05635699"><ele>1457.4000243864</ele><time>2010-10-02T13:40:41Z</time></trkpt>
<trkpt lat="46.31534692" lon="7.05646293"><ele>1458.4000244184</ele><time>2010-10-02T13:40:46Z</time></trkpt>
<trkpt lat="46.31547298" lon="7.05657500"><ele>1458.8000488152</ele><time>2010-10-02T13:40:52Z</time></trkpt>
<trkpt lat="46.31560894" lon="7.05666997"><ele>1460.0000000856</ele><time>2010-10-02T13:40:59Z</time></trkpt>
<trkpt lat="46.31569494" lon="7.05675194"><ele>1461.4000245144</ele><time>2010-10-02T13:41:05Z</time></trkpt>
<trkpt lat="46.31579795" lon="7.05683593"><ele>1463.1999511152</ele><time>2010-10-02T13:41:11Z</time></trkpt>
<trkpt lat="46.31587196" lon="7.05690399"><ele>1464.1999511472</ele><time>2010-10-02T13:41:16Z</time></trkpt>
<trkpt lat="46.31601898" lon="7.05702594"><ele>1465.1999511792</ele><time>2010-10-02T13:41:23Z</time></trkpt>
<trkpt lat="46.31623297" lon="7.05720800"><ele>1466.4000243696</ele><time>2010-10-02T13:41:32Z</time></trkpt>
<trkpt lat="46.31638393" lon="7.05743599"><ele>1468.0000000368</ele><time>2010-10-02T13:41:40Z</time></trkpt>
<trkpt lat="46.31650798" lon="7.05777294"><ele>1469.0000000688</ele><time>2010-10-02T13:41:50Z</time></trkpt>
<trkpt lat="46.31659993" lon="7.05800294"><ele>1470.8000488944</ele><time>2010-10-02T13:41:58Z</time></trkpt>
<trkpt lat="46.31659197" lon="7.05824392"><ele>1472.8000489584</ele><time>2010-10-02T13:42:06Z</time></trkpt>
<trkpt lat="46.31657395" lon="7.05848699"><ele>1474.5999755592</ele><time>2010-10-02T13:42:14Z</time></trkpt>
<trkpt lat="46.31665098" lon="7.05857299"><ele>1475.1999511944</ele><time>2010-10-02T13:42:19Z</time></trkpt>
<trkpt lat="46.31681392" lon="7.05868397"><ele>1476.5999756232</ele><time>2010-10-02T13:42:27Z</time></trkpt>
<trkpt lat="46.31694996" lon="7.05881196"><ele>1477.8000488136</ele><time>2010-10-02T13:42:33Z</time></trkpt>
<trkpt lat="46.31711500" lon="7.05885094"><ele>1478.8000488456</ele><time>2010-10-02T13:42:39Z</time></trkpt>
<trkpt lat="46.31729898" lon="7.05890500"><ele>1480.1999510496</ele><time>2010-10-02T13:42:46Z</time></trkpt>
<trkpt lat="46.31744893" lon="7.05899293"><ele>1481.8000489416</ele><time>2010-10-02T13:42:52Z</time></trkpt>
<trkpt lat="46.31754197" lon="7.05910399"><ele>1482.9999999072</ele><time>2010-10-02T13:42:58Z</time></trkpt>
<trkpt lat="46.31766795" lon="7.05927699"><ele>1483.9999999392</ele><time>2010-10-02T13:43:05Z</time></trkpt>
<trkpt lat="46.31773098" lon="7.05940599"><ele>1485.1999512096</ele><time>2010-10-02T13:43:11Z</time></trkpt>
<trkpt lat="46.31783593" lon="7.05959299"><ele>1486.4000244</ele><time>2010-10-02T13:43:18Z</time></trkpt>
<trkpt lat="46.31792494" lon="7.05976297"><ele>1488.400024464</ele><time>2010-10-02T13:43:25Z</time></trkpt>
<trkpt lat="46.31795394" lon="7.06003094"><ele>1490.0000001312</ele><time>2010-10-02T13:43:34Z</time></trkpt>
<trkpt lat="46.31795092" lon="7.06022892"><ele>1491.1999510968</ele><time>2010-10-02T13:43:41Z</time></trkpt>
<trkpt lat="46.31796392" lon="7.06048298"><ele>1492.800048684</ele><time>2010-10-02T13:43:50Z</time></trkpt>
<trkpt lat="46.31796492" lon="7.06074592"><ele>1493.800048716</ele><time>2010-10-02T13:43:59Z</time></trkpt>
<trkpt lat="46.31798596" lon="7.06093996"><ele>1494.9999999864</ele><time>2010-10-02T13:44:06Z</time></trkpt>
<trkpt lat="46.31803500" lon="7.06115797"><ele>1496.800048812</ele><time>2010-10-02T13:44:14Z</time></trkpt>
<trkpt lat="46.31812594" lon="7.06136995"><ele>1498.1999513208</ele><time>2010-10-02T13:44:23Z</time></trkpt>
<trkpt lat="46.31817698" lon="7.06159894"><ele>1499.5999754448</ele><time>2010-10-02T13:44:32Z</time></trkpt>
<trkpt lat="46.31817598" lon="7.06172694"><ele>1500.4000245432</ele><time>2010-10-02T13:44:38Z</time></trkpt>
<trkpt lat="46.31815997" lon="7.06163499"><ele>1500.4000245432</ele><time>2010-10-02T13:44:44Z</time></trkpt>
<trkpt lat="46.31814899" lon="7.06157397"><ele>1499.5999754448</ele><time>2010-10-02T13:44:49Z</time></trkpt>
<trkpt lat="46.31809996" lon="7.06164295"><ele>1500.19995108</ele><time>2010-10-02T13:46:08Z</time></trkpt>
<trkpt lat="46.31809996" lon="7.06165192"><ele>1500.19995108</ele><time>2010-10-02T13:46:09Z</time></trkpt>
<trkpt lat="46.31810297" lon="7.06166097"><ele>1500.0000001464</ele><time>2010-10-02T13:46:11Z</time></trkpt>
<trkpt lat="46.31811596" lon="7.06161998"><ele>1499.800048908</ele><time>2010-10-02T13:46:19Z</time></trkpt>
<trkpt lat="46.31809996" lon="7.06154195"><ele>1500.4000245432</ele><time>2010-10-02T13:46:49Z</time></trkpt>
<trkpt lat="46.31809392" lon="7.06151295"><ele>1500.19995108</ele><time>2010-10-02T13:46:50Z</time></trkpt>
<trkpt lat="46.31806400" lon="7.06136593"><ele>1499.199951048</ele><time>2010-10-02T13:46:54Z</time></trkpt>
<trkpt lat="46.31802695" lon="7.06127398"><ele>1498.1999513208</ele><time>2010-10-02T13:46:58Z</time></trkpt>
<trkpt lat="46.31799200" lon="7.06120600"><ele>1497.800048844</ele><time>2010-10-02T13:47:02Z</time></trkpt>
<trkpt lat="46.31798496" lon="7.06119192"><ele>1497.5999756856</ele><time>2010-10-02T13:47:03Z</time></trkpt>
<trkpt lat="46.31793693" lon="7.06108396"><ele>1497.1999512888</ele><time>2010-10-02T13:47:10Z</time></trkpt>
<trkpt lat="46.31792494" lon="7.06100299"><ele>1496.0000000184</ele><time>2010-10-02T13:47:17Z</time></trkpt>
<trkpt lat="46.31791497" lon="7.06089294"><ele>1495.1999512248</ele><time>2010-10-02T13:47:25Z</time></trkpt>
<trkpt lat="46.31790793" lon="7.06076595"><ele>1494.1999511928</ele><time>2010-10-02T13:47:31Z</time></trkpt>
<trkpt lat="46.31791295" lon="7.06063796"><ele>1494.1999511928</ele><time>2010-10-02T13:47:38Z</time></trkpt>
<trkpt lat="46.31790298" lon="7.06048792"><ele>1493.1999511608</ele><time>2010-10-02T13:47:43Z</time></trkpt>
<trkpt lat="46.31790197" lon="7.06030997"><ele>1492.800048684</ele><time>2010-10-02T13:47:46Z</time></trkpt>
<trkpt lat="46.31789292" lon="7.06004100"><ele>1492.1999511288</ele><time>2010-10-02T13:47:50Z</time></trkpt>
<trkpt lat="46.31789493" lon="7.05990798"><ele>1491.40002456</ele><time>2010-10-02T13:47:52Z</time></trkpt>
<trkpt lat="46.31782494" lon="7.05961998"><ele>1489.400024496</ele><time>2010-10-02T13:47:56Z</time></trkpt>
<trkpt lat="46.31763694" lon="7.05927297"><ele>1486.1999512416</ele><time>2010-10-02T13:48:02Z</time></trkpt>
<trkpt lat="46.31758992" lon="7.05920499"><ele>1485.8000487648</ele><time>2010-10-02T13:48:03Z</time></trkpt>
<trkpt lat="46.31728096" lon="7.05893895"><ele>1484.1999511776</ele><time>2010-10-02T13:48:08Z</time></trkpt>
<trkpt lat="46.31693194" lon="7.05878899"><ele>1481.000000148</ele><time>2010-10-02T13:48:13Z</time></trkpt>
<trkpt lat="46.31663698" lon="7.05857593"><ele>1477.5999756552</ele><time>2010-10-02T13:48:18Z</time></trkpt>
<trkpt lat="46.31654394" lon="7.05836697"><ele>1476.5999756232</ele><time>2010-10-02T13:48:21Z</time></trkpt>
<trkpt lat="46.31655492" lon="7.05827099"><ele>1475.4000243528</ele><time>2010-10-02T13:48:22Z</time></trkpt>
<trkpt lat="46.31651100" lon="7.05779993"><ele>1472.1999510984</ele><time>2010-10-02T13:48:27Z</time></trkpt>
<trkpt lat="46.31643799" lon="7.05758896"><ele>1471.1999510664</ele><time>2010-10-02T13:48:29Z</time></trkpt>
<trkpt lat="46.31618695" lon="7.05713298"><ele>1469.4000244656</ele><time>2010-10-02T13:48:34Z</time></trkpt>
<trkpt lat="46.31611395" lon="7.05706492"><ele>1468.8000488304</ele><time>2010-10-02T13:48:35Z</time></trkpt>
<trkpt lat="46.31578496" lon="7.05676393"><ele>1466.1999512112</ele><time>2010-10-02T13:48:40Z</time></trkpt>
<trkpt lat="46.31571396" lon="7.05669897"><ele>1465.4000243376</ele><time>2010-10-02T13:48:41Z</time></trkpt>
<trkpt lat="46.31531599" lon="7.05639093"><ele>1461.4000245144</ele><time>2010-10-02T13:48:46Z</time></trkpt>
<trkpt lat="46.31516495" lon="7.05626797"><ele>1459.8000488472</ele><time>2010-10-02T13:48:48Z</time></trkpt>
<trkpt lat="46.31475197" lon="7.05585793"><ele>1455.5999755608</ele><time>2010-10-02T13:48:54Z</time></trkpt>
<trkpt lat="46.31448895" lon="7.05538292"><ele>1451.800048896</ele><time>2010-10-02T13:48:59Z</time></trkpt>
<trkpt lat="46.31444494" lon="7.05529299"><ele>1450.800048864</ele><time>2010-10-02T13:49:00Z</time></trkpt>
<trkpt lat="46.31418996" lon="7.05507196"><ele>1447.800048768</ele><time>2010-10-02T13:49:04Z</time></trkpt>
<trkpt lat="46.31395100" lon="7.05478295"><ele>1444.8000489768</ele><time>2010-10-02T13:49:09Z</time></trkpt>
<trkpt lat="46.31390800" lon="7.05445597"><ele>1443.0000001512</ele><time>2010-10-02T13:49:12Z</time></trkpt>
<trkpt lat="46.31387296" lon="7.05389195"><ele>1440.1999512936</ele><time>2010-10-02T13:49:17Z</time></trkpt>
<trkpt lat="46.31383399" lon="7.05352097"><ele>1438.8000487848</ele><time>2010-10-02T13:49:20Z</time></trkpt>
<trkpt lat="46.31369694" lon="7.05300800"><ele>1436.5999755624</ele><time>2010-10-02T13:49:24Z</time></trkpt>
<trkpt lat="46.31356694" lon="7.05248295"><ele>1433.1999510696</ele><time>2010-10-02T13:49:28Z</time></trkpt>
<trkpt lat="46.31342294" lon="7.05217299"><ele>1431.000000072</ele><time>2010-10-02T13:49:31Z</time></trkpt>
<trkpt lat="46.31329796" lon="7.05173797"><ele>1428.5999756112</ele><time>2010-10-02T13:49:35Z</time></trkpt>
<trkpt lat="46.31311599" lon="7.05142499"><ele>1425.1999511184</ele><time>2010-10-02T13:49:39Z</time></trkpt>
<trkpt lat="46.31298297" lon="7.05133094"><ele>1423.4000245176</ele><time>2010-10-02T13:49:41Z</time></trkpt>
<trkpt lat="46.31275792" lon="7.05098796"><ele>1421.599975692</ele><time>2010-10-02T13:49:45Z</time></trkpt>
<trkpt lat="46.31240093" lon="7.05019092"><ele>1417.599975564</ele><time>2010-10-02T13:49:52Z</time></trkpt>
<trkpt lat="46.31228493" lon="7.04997593"><ele>1416.4000242936</ele><time>2010-10-02T13:49:54Z</time></trkpt>
<trkpt lat="46.31199399" lon="7.04925894"><ele>1413.0000001056</ele><time>2010-10-02T13:50:00Z</time></trkpt>
<trkpt lat="46.31185192" lon="7.04886499"><ele>1410.0000000096</ele><time>2010-10-02T13:50:04Z</time></trkpt>
<trkpt lat="46.31172594" lon="7.04818094"><ele>1407.199951152</ele><time>2010-10-02T13:50:10Z</time></trkpt>
<trkpt lat="46.31159199" lon="7.04759999"><ele>1404.199951056</ele><time>2010-10-02T13:50:15Z</time></trkpt>
<trkpt lat="46.31150692" lon="7.04698694"><ele>1400.800048788</ele><time>2010-10-02T13:50:20Z</time></trkpt>
<trkpt lat="46.31143592" lon="7.04631597"><ele>1397.5999755336</ele><time>2010-10-02T13:50:25Z</time></trkpt>
<trkpt lat="46.31144598" lon="7.04576192"><ele>1395.0000001392</ele><time>2010-10-02T13:50:29Z</time></trkpt>
<trkpt lat="46.31150692" lon="7.04489599"><ele>1391.1999512496</ele><time>2010-10-02T13:50:35Z</time></trkpt>
<trkpt lat="46.31156492" lon="7.04449299"><ele>1388.9999999472</ele><time>2010-10-02T13:50:38Z</time></trkpt>
<trkpt lat="46.31153994" lon="7.04376795"><ele>1386.4000245528</ele><time>2010-10-02T13:50:44Z</time></trkpt>
<trkpt lat="46.31149795" lon="7.04313898"><ele>1385.8000489176</ele><time>2010-10-02T13:50:49Z</time></trkpt>
<trkpt lat="46.31149594" lon="7.04253498"><ele>1384.4000244888</ele><time>2010-10-02T13:50:55Z</time></trkpt>
<trkpt lat="46.31147197" lon="7.04194799"><ele>1383.4000244568</ele><time>2010-10-02T13:51:01Z</time></trkpt>
<trkpt lat="46.31146593" lon="7.04133393"><ele>1381.8000487896</ele><time>2010-10-02T13:51:06Z</time></trkpt>
<trkpt lat="46.31136593" lon="7.04083999"><ele>1379.8000487256</ele><time>2010-10-02T13:51:10Z</time></trkpt>
<trkpt lat="46.31111892" lon="7.04009098"><ele>1376.4000245376</ele><time>2010-10-02T13:51:16Z</time></trkpt>
<trkpt lat="46.31103292" lon="7.03985796"><ele>1375.5999754392</ele><time>2010-10-02T13:51:18Z</time></trkpt>
<trkpt lat="46.31091599" lon="7.03931700"><ele>1375.5999754392</ele><time>2010-10-02T13:51:23Z</time></trkpt>
<trkpt lat="46.31089697" lon="7.03922899"><ele>1375.5999754392</ele><time>2010-10-02T13:51:24Z</time></trkpt>
<trkpt lat="46.31080200" lon="7.03891500"><ele>1375.8000489024</ele><time>2010-10-02T13:51:28Z</time></trkpt>
<trkpt lat="46.31078096" lon="7.03868592"><ele>1376.1999510744</ele><time>2010-10-02T13:51:31Z</time></trkpt>
<trkpt lat="46.31075892" lon="7.03812894"><ele>1377.5999755032</ele><time>2010-10-02T13:51:39Z</time></trkpt>
<trkpt lat="46.31077996" lon="7.03757993"><ele>1378.8000486936</ele><time>2010-10-02T13:51:47Z</time></trkpt>
<trkpt lat="46.31081692" lon="7.03730995"><ele>1378.999999932</ele><time>2010-10-02T13:51:51Z</time></trkpt>
<trkpt lat="46.31084399" lon="7.03684199"><ele>1378.999999932</ele><time>2010-10-02T13:51:58Z</time></trkpt>
<trkpt lat="46.31088599" lon="7.03662096"><ele>1377.9999999</ele><time>2010-10-02T13:52:03Z</time></trkpt>
<trkpt lat="46.31093393" lon="7.03647997"><ele>1377.4000242648</ele><time>2010-10-02T13:52:08Z</time></trkpt>
<trkpt lat="46.31102596" lon="7.03635500"><ele>1376.999999868</ele><time>2010-10-02T13:52:13Z</time></trkpt>
<trkpt lat="46.31118095" lon="7.03611796"><ele>1376.5999754712</ele><time>2010-10-02T13:52:19Z</time></trkpt>
<trkpt lat="46.31141698" lon="7.03582493"><ele>1375.8000489024</ele><time>2010-10-02T13:52:25Z</time></trkpt>
<trkpt lat="46.31161194" lon="7.03558797"><ele>1375.0000001088</ele><time>2010-10-02T13:52:29Z</time></trkpt>
<trkpt lat="46.31184194" lon="7.03521799"><ele>1374.0000000768</ele><time>2010-10-02T13:52:34Z</time></trkpt>
<trkpt lat="46.31198997" lon="7.03499495"><ele>1373.0000000448</ele><time>2010-10-02T13:52:37Z</time></trkpt>
<trkpt lat="46.31204294" lon="7.03491398"><ele>1372.599975648</ele><time>2010-10-02T13:52:38Z</time></trkpt>
<trkpt lat="46.31230496" lon="7.03457200"><ele>1371.599975616</ele><time>2010-10-02T13:52:42Z</time></trkpt>
<trkpt lat="46.31267494" lon="7.03412499"><ele>1366.8000489192</ele><time>2010-10-02T13:52:47Z</time></trkpt>
<trkpt lat="46.31301994" lon="7.03369592"><ele>1361.9999999976</ele><time>2010-10-02T13:52:52Z</time></trkpt>
<trkpt lat="46.31337197" lon="7.03321095"><ele>1357.199951076</ele><time>2010-10-02T13:52:57Z</time></trkpt>
<trkpt lat="46.31349494" lon="7.03301892"><ele>1355.1999513168</ele><time>2010-10-02T13:52:59Z</time></trkpt>
<trkpt lat="46.31359393" lon="7.03277794"><ele>1353.4000244112</ele><time>2010-10-02T13:53:01Z</time></trkpt>
<trkpt lat="46.31368998" lon="7.03251198"><ele>1351.5999755856</ele><time>2010-10-02T13:53:03Z</time></trkpt>
<trkpt lat="46.31386994" lon="7.03213798"><ele>1349.80004868</ele><time>2010-10-02T13:53:06Z</time></trkpt>
<trkpt lat="46.31408896" lon="7.03179197"><ele>1345.0000000632</ele><time>2010-10-02T13:53:10Z</time></trkpt>
<trkpt lat="46.31434696" lon="7.03159198"><ele>1341.400024332</ele><time>2010-10-02T13:53:14Z</time></trkpt>
<trkpt lat="46.31442692" lon="7.03157396"><ele>1340.5999755384</ele><time>2010-10-02T13:53:15Z</time></trkpt>
<trkpt lat="46.31477192" lon="7.03166893"><ele>1337.1999510456</ele><time>2010-10-02T13:53:19Z</time></trkpt>
<trkpt lat="46.31493897" lon="7.03181695"><ele>1335.5999756832</ele><time>2010-10-02T13:53:21Z</time></trkpt>
<trkpt lat="46.31543996" lon="7.03240394"><ele>1330.99999992</ele><time>2010-10-02T13:53:27Z</time></trkpt>
<trkpt lat="46.31578797" lon="7.03278892"><ele>1327.4000244936</ele><time>2010-10-02T13:53:31Z</time></trkpt>
<trkpt lat="46.31587096" lon="7.03289093"><ele>1327.4000244936</ele><time>2010-10-02T13:53:32Z</time></trkpt>
<trkpt lat="46.31595000" lon="7.03298899"><ele>1326.0000000648</ele><time>2010-10-02T13:53:33Z</time></trkpt>
<trkpt lat="46.31625895" lon="7.03335998"><ele>1321.1999511432</ele><time>2010-10-02T13:53:37Z</time></trkpt>
<trkpt lat="46.31635300" lon="7.03356500"><ele>1319.0000001456</ele><time>2010-10-02T13:53:39Z</time></trkpt>
<trkpt lat="46.31646398" lon="7.03387798"><ele>1315.8000488112</ele><time>2010-10-02T13:53:42Z</time></trkpt>
<trkpt lat="46.31671996" lon="7.03431895"><ele>1311.199951128</ele><time>2010-10-02T13:53:47Z</time></trkpt>
<trkpt lat="46.31684493" lon="7.03445893"><ele>1309.5999754608</ele><time>2010-10-02T13:53:49Z</time></trkpt>
<trkpt lat="46.31723897" lon="7.03480493"><ele>1306.1999512728</ele><time>2010-10-02T13:53:54Z</time></trkpt>
<trkpt lat="46.31747693" lon="7.03504398"><ele>1304.4000243672</ele><time>2010-10-02T13:53:57Z</time></trkpt>
<trkpt lat="46.31770399" lon="7.03527692"><ele>1301.8000489728</ele><time>2010-10-02T13:54:00Z</time></trkpt>
<trkpt lat="46.31819794" lon="7.03579995"><ele>1295.400024384</ele><time>2010-10-02T13:54:06Z</time></trkpt>
<trkpt lat="46.31859600" lon="7.03623195"><ele>1290.1999510656</ele><time>2010-10-02T13:54:11Z</time></trkpt>
<trkpt lat="46.31880395" lon="7.03645499"><ele>1286.8000487976</ele><time>2010-10-02T13:54:14Z</time></trkpt>
<trkpt lat="46.31905499" lon="7.03685699"><ele>1282.999999908</ele><time>2010-10-02T13:54:18Z</time></trkpt>
<trkpt lat="46.31939596" lon="7.03717793"><ele>1279.8000488784</ele><time>2010-10-02T13:54:22Z</time></trkpt>
<trkpt lat="46.31968799" lon="7.03739192"><ele>1275.4000243536</ele><time>2010-10-02T13:54:26Z</time></trkpt>
<trkpt lat="46.31974792" lon="7.03742696"><ele>1274.1999511632</ele><time>2010-10-02T13:54:27Z</time></trkpt>
<trkpt lat="46.31991397" lon="7.03735597"><ele>1270.4000244984</ele><time>2010-10-02T13:54:31Z</time></trkpt>
<trkpt lat="46.31988597" lon="7.03709898"><ele>1268.8000488312</ele><time>2010-10-02T13:54:34Z</time></trkpt>
<trkpt lat="46.31968397" lon="7.03694693"><ele>1267.0000000056</ele><time>2010-10-02T13:54:37Z</time></trkpt>
<trkpt lat="46.31942195" lon="7.03665197"><ele>1262.800048944</ele><time>2010-10-02T13:54:42Z</time></trkpt>
<trkpt lat="46.31947098" lon="7.03638693"><ele>1260.4000244832</ele><time>2010-10-02T13:54:45Z</time></trkpt>
<trkpt lat="46.31961197" lon="7.03636900"><ele>1259.4000244512</ele><time>2010-10-02T13:54:47Z</time></trkpt>
<trkpt lat="46.31976997" lon="7.03647000"><ele>1257.800048784</ele><time>2010-10-02T13:54:49Z</time></trkpt>
<trkpt lat="46.31998496" lon="7.03674300"><ele>1255.80004872</ele><time>2010-10-02T13:54:52Z</time></trkpt>
<trkpt lat="46.32024497" lon="7.03711297"><ele>1252.0000001352</ele><time>2010-10-02T13:54:56Z</time></trkpt>
<trkpt lat="46.32053297" lon="7.03757297"><ele>1246.5999755784</ele><time>2010-10-02T13:55:01Z</time></trkpt>
<trkpt lat="46.32077998" lon="7.03776198"><ele>1243.4000245488</ele><time>2010-10-02T13:55:04Z</time></trkpt>
<trkpt lat="46.32095894" lon="7.03781496"><ele>1241.4000244848</ele><time>2010-10-02T13:55:06Z</time></trkpt>
<trkpt lat="46.32128994" lon="7.03797698"><ele>1235.5999755312</ele><time>2010-10-02T13:55:11Z</time></trkpt>
<trkpt lat="46.32133696" lon="7.03801294"><ele>1235.5999755312</ele><time>2010-10-02T13:55:12Z</time></trkpt>
<trkpt lat="46.32141198" lon="7.03796097"><ele>1233.4000245336</ele><time>2010-10-02T13:55:14Z</time></trkpt>
<trkpt lat="46.32137996" lon="7.03775193"><ele>1230.8000488344</ele><time>2010-10-02T13:55:17Z</time></trkpt>
<trkpt lat="46.32123596" lon="7.03769392"><ele>1229.8000488024</ele><time>2010-10-02T13:55:19Z</time></trkpt>
<trkpt lat="46.32098098" lon="7.03764698"><ele>1228.599975612</ele><time>2010-10-02T13:55:22Z</time></trkpt>
<trkpt lat="46.32076297" lon="7.03746493"><ele>1226.1999511512</ele><time>2010-10-02T13:55:25Z</time></trkpt>
<trkpt lat="46.32063397" lon="7.03711993"><ele>1223.599975452</ele><time>2010-10-02T13:55:28Z</time></trkpt>
<trkpt lat="46.32060899" lon="7.03697098"><ele>1223.599975452</ele><time>2010-10-02T13:55:29Z</time></trkpt>
<trkpt lat="46.32056298" lon="7.03667192"><ele>1220.0000000256</ele><time>2010-10-02T13:55:31Z</time></trkpt>
<trkpt lat="46.32060598" lon="7.03624293"><ele>1214.9999998656</ele><time>2010-10-02T13:55:35Z</time></trkpt>
<trkpt lat="46.32056792" lon="7.03605794"><ele>1214.0000001384</ele><time>2010-10-02T13:55:37Z</time></trkpt>
<trkpt lat="46.32047296" lon="7.03560792"><ele>1210.4000244072</ele><time>2010-10-02T13:55:41Z</time></trkpt>
<trkpt lat="46.32022695" lon="7.03478700"><ele>1202.0000000592</ele><time>2010-10-02T13:55:48Z</time></trkpt>
<trkpt lat="46.32012293" lon="7.03448894"><ele>1198.8000487248</ele><time>2010-10-02T13:55:51Z</time></trkpt>
<trkpt lat="46.32000692" lon="7.03429699"><ele>1196.9999998992</ele><time>2010-10-02T13:55:53Z</time></trkpt>
<trkpt lat="46.31973392" lon="7.03398099"><ele>1193.1999513144</ele><time>2010-10-02T13:55:57Z</time></trkpt>
<trkpt lat="46.31952999" lon="7.03373993"><ele>1189.5999755832</ele><time>2010-10-02T13:56:00Z</time></trkpt>
<trkpt lat="46.31932095" lon="7.03355092"><ele>1187.4000242808</ele><time>2010-10-02T13:56:03Z</time></trkpt>
<trkpt lat="46.31915499" lon="7.03335998"><ele>1184.8000488864</ele><time>2010-10-02T13:56:06Z</time></trkpt>
<trkpt lat="46.31895097" lon="7.03298698"><ele>1180.5999756</ele><time>2010-10-02T13:56:10Z</time></trkpt>
<trkpt lat="46.31877495" lon="7.03252899"><ele>1176.4000245384</ele><time>2010-10-02T13:56:14Z</time></trkpt>
<trkpt lat="46.31872994" lon="7.03216396"><ele>1172.8000488072</ele><time>2010-10-02T13:56:18Z</time></trkpt>
<trkpt lat="46.31853598" lon="7.03194000"><ele>1169.5999755528</ele><time>2010-10-02T13:56:22Z</time></trkpt>
<trkpt lat="46.31846499" lon="7.03188593"><ele>1168.5999755208</ele><time>2010-10-02T13:56:23Z</time></trkpt>
<trkpt lat="46.31834798" lon="7.03178594"><ele>1166.80004892</ele><time>2010-10-02T13:56:25Z</time></trkpt>
<trkpt lat="46.31811999" lon="7.03166792"><ele>1164.800048856</ele><time>2010-10-02T13:56:28Z</time></trkpt>
<trkpt lat="46.31798294" lon="7.03155695"><ele>1160.4000243312</ele><time>2010-10-02T13:56:32Z</time></trkpt>
<trkpt lat="46.31800499" lon="7.03146399"><ele>1158.5999755056</ele><time>2010-10-02T13:56:34Z</time></trkpt>
<trkpt lat="46.31803399" lon="7.03140599"><ele>1157.5999754736</ele><time>2010-10-02T13:56:36Z</time></trkpt>
<trkpt lat="46.31801597" lon="7.03140196"><ele>1156.1999510448</ele><time>2010-10-02T13:56:40Z</time></trkpt>
<trkpt lat="46.31805000" lon="7.03129199"><ele>1153.1999512536</ele><time>2010-10-02T13:56:44Z</time></trkpt>
<trkpt lat="46.31815192" lon="7.03128898"><ele>1150.400024316</ele><time>2010-10-02T13:56:47Z</time></trkpt>
<trkpt lat="46.31838494" lon="7.03148595"><ele>1146.4000244928</ele><time>2010-10-02T13:56:51Z</time></trkpt>
<trkpt lat="46.31842199" lon="7.03156399"><ele>1145.5999756992</ele><time>2010-10-02T13:56:52Z</time></trkpt>
<trkpt lat="46.31854998" lon="7.03181293"><ele>1144.1999512704</ele><time>2010-10-02T13:56:55Z</time></trkpt>
<trkpt lat="46.31889992" lon="7.03220596"><ele>1139.4000242688</ele><time>2010-10-02T13:57:00Z</time></trkpt>
<trkpt lat="46.31898098" lon="7.03226597"><ele>1138.5999754752</ele><time>2010-10-02T13:57:01Z</time></trkpt>
<trkpt lat="46.31928893" lon="7.03253595"><ele>1134.4000244136</ele><time>2010-10-02T13:57:05Z</time></trkpt>
<trkpt lat="46.31967793" lon="7.03285597"><ele>1129.9999998888</ele><time>2010-10-02T13:57:10Z</time></trkpt>
<trkpt lat="46.31975396" lon="7.03292395"><ele>1129.1999510952</ele><time>2010-10-02T13:57:11Z</time></trkpt>
<trkpt lat="46.31999996" lon="7.03309393"><ele>1126.199951304</ele><time>2010-10-02T13:57:14Z</time></trkpt>
<trkpt lat="46.32011899" lon="7.03320893"><ele>1124.19995124</ele><time>2010-10-02T13:57:16Z</time></trkpt>
<trkpt lat="46.32023994" lon="7.03333098"><ele>1123.199951208</ele><time>2010-10-02T13:57:18Z</time></trkpt>
<trkpt lat="46.32030498" lon="7.03340096"><ele>1122.199951176</ele><time>2010-10-02T13:57:19Z</time></trkpt>
<trkpt lat="46.32055292" lon="7.03358897"><ele>1117.800048876</ele><time>2010-10-02T13:57:24Z</time></trkpt>
<trkpt lat="46.32070899" lon="7.03379693"><ele>1116.0000000504</ele><time>2010-10-02T13:57:27Z</time></trkpt>
<trkpt lat="46.32102197" lon="7.03413798"><ele>1113.1999511928</ele><time>2010-10-02T13:57:31Z</time></trkpt>
<trkpt lat="46.32146797" lon="7.03475992"><ele>1107.5999757024</ele><time>2010-10-02T13:57:37Z</time></trkpt>
<trkpt lat="46.32169194" lon="7.03532394"><ele>1103.400024336</ele><time>2010-10-02T13:57:42Z</time></trkpt>
<trkpt lat="46.32172496" lon="7.03544397"><ele>1103.400024336</ele><time>2010-10-02T13:57:43Z</time></trkpt>
<trkpt lat="46.32187097" lon="7.03574295"><ele>1100.000000148</ele><time>2010-10-02T13:57:46Z</time></trkpt>
<trkpt lat="46.32200693" lon="7.03585292"><ele>1098.000000084</ele><time>2010-10-02T13:57:48Z</time></trkpt>
<trkpt lat="46.32216099" lon="7.03620396"><ele>1092.999999924</ele><time>2010-10-02T13:57:53Z</time></trkpt>
<trkpt lat="46.32232192" lon="7.03611595"><ele>1090.8000489264</ele><time>2010-10-02T13:57:57Z</time></trkpt>
<trkpt lat="46.32232100" lon="7.03578595"><ele>1089.4000244976</ele><time>2010-10-02T13:58:01Z</time></trkpt>
<trkpt lat="46.32222092" lon="7.03557800"><ele>1088.0000000688</ele><time>2010-10-02T13:58:03Z</time></trkpt>
<trkpt lat="46.32203098" lon="7.03508598"><ele>1084.9999999728</ele><time>2010-10-02T13:58:07Z</time></trkpt>
<trkpt lat="46.32201296" lon="7.03485992"><ele>1084.1999511792</ele><time>2010-10-02T13:58:09Z</time></trkpt>
<trkpt lat="46.32200693" lon="7.03465800"><ele>1082.4000242736</ele><time>2010-10-02T13:58:11Z</time></trkpt>
<trkpt lat="46.32186192" lon="7.03383096"><ele>1076.199951228</ele><time>2010-10-02T13:58:18Z</time></trkpt>
<trkpt lat="46.32184298" lon="7.03368997"><ele>1074.9999999576</ele><time>2010-10-02T13:58:19Z</time></trkpt>
<trkpt lat="46.32164693" lon="7.03322494"><ele>1070.0000001024</ele><time>2010-10-02T13:58:24Z</time></trkpt>
<trkpt lat="46.32135792" lon="7.03269697"><ele>1064.9999999424</ele><time>2010-10-02T13:58:29Z</time></trkpt>
<trkpt lat="46.32128097" lon="7.03212499"><ele>1060.5999757224</ele><time>2010-10-02T13:58:33Z</time></trkpt>
<trkpt lat="46.32129195" lon="7.03200596"><ele>1060.5999757224</ele><time>2010-10-02T13:58:34Z</time></trkpt>
<trkpt lat="46.32129799" lon="7.03178292"><ele>1058.40002442</ele><time>2010-10-02T13:58:36Z</time></trkpt>
<trkpt lat="46.32132992" lon="7.03157597"><ele>1056.5999755944</ele><time>2010-10-02T13:58:38Z</time></trkpt>
<trkpt lat="46.32114996" lon="7.03101899"><ele>1050.5999757072</ele><time>2010-10-02T13:58:44Z</time></trkpt>
<trkpt lat="46.32108995" lon="7.03081397"><ele>1048.4000244048</ele><time>2010-10-02T13:58:46Z</time></trkpt>
<trkpt lat="46.32086598" lon="7.03034098"><ele>1043.8000489464</ele><time>2010-10-02T13:58:51Z</time></trkpt>
<trkpt lat="46.32081795" lon="7.03023797"><ele>1042.5999754512</ele><time>2010-10-02T13:58:52Z</time></trkpt>
<trkpt lat="46.32047798" lon="7.02997494"><ele>1038.1999512312</ele><time>2010-10-02T13:58:56Z</time></trkpt>
<trkpt lat="46.32026098" lon="7.02985098"><ele>1036.1999511672</ele><time>2010-10-02T13:58:59Z</time></trkpt>
<trkpt lat="46.32016400" lon="7.02964696"><ele>1033.8000489312</ele><time>2010-10-02T13:59:02Z</time></trkpt>
<trkpt lat="46.32031596" lon="7.02964394"><ele>1032.0000001056</ele><time>2010-10-02T13:59:05Z</time></trkpt>
<trkpt lat="46.32053398" lon="7.02978996"><ele>1030.4000244384</ele><time>2010-10-02T13:59:08Z</time></trkpt>
<trkpt lat="46.32080094" lon="7.02993899"><ele>1028.5999756128</ele><time>2010-10-02T13:59:11Z</time></trkpt>
<trkpt lat="46.32119992" lon="7.03020394"><ele>1023.2000123208</ele><time>2010-10-02T13:59:16Z</time></trkpt>
<trkpt lat="46.32144693" lon="7.03035297"><ele>1020.0000000264</ele><time>2010-10-02T13:59:19Z</time></trkpt>
<trkpt lat="46.32172999" lon="7.03077097"><ele>1016.2000120968</ele><time>2010-10-02T13:59:24Z</time></trkpt>
<trkpt lat="46.32187994" lon="7.03120893"><ele>1011.7999878768</ele><time>2010-10-02T13:59:28Z</time></trkpt>
<trkpt lat="46.32214992" lon="7.03180698"><ele>1006.2000120816</ele><time>2010-10-02T13:59:33Z</time></trkpt>
<trkpt lat="46.32247397" lon="7.03222792"><ele>1002.00000006</ele><time>2010-10-02T13:59:37Z</time></trkpt>
<trkpt lat="46.32282894" lon="7.03241693"><ele>997.2000120984</ele><time>2010-10-02T13:59:41Z</time></trkpt>
<trkpt lat="46.32309993" lon="7.03261499"><ele>992.4000244416</ele><time>2010-10-02T13:59:45Z</time></trkpt>
<trkpt lat="46.32324100" lon="7.03282597"><ele>989.4000243456</ele><time>2010-10-02T13:59:48Z</time></trkpt>
<trkpt lat="46.32337896" lon="7.03288799"><ele>985.9999998528</ele><time>2010-10-02T13:59:52Z</time></trkpt>
<trkpt lat="46.32342196" lon="7.03274198"><ele>984.5999757288</ele><time>2010-10-02T13:59:54Z</time></trkpt>
<trkpt lat="46.32334996" lon="7.03241299"><ele>982.0000000296</ele><time>2010-10-02T13:59:58Z</time></trkpt>
<trkpt lat="46.32333194" lon="7.03183397"><ele>977.9999999016</ele><time>2010-10-02T14:00:03Z</time></trkpt>
<trkpt lat="46.32323697" lon="7.03086594"><ele>973.0000000464</ele><time>2010-10-02T14:00:08Z</time></trkpt>
<trkpt lat="46.32304293" lon="7.03018198"><ele>966.400024524</ele><time>2010-10-02T14:00:13Z</time></trkpt>
<trkpt lat="46.32300597" lon="7.03007293"><ele>966.400024524</ele><time>2010-10-02T14:00:14Z</time></trkpt>
<trkpt lat="46.32279198" lon="7.02950195"><ele>961.2000121656</ele><time>2010-10-02T14:00:19Z</time></trkpt>
<trkpt lat="46.32259400" lon="7.02914095"><ele>957.9999998712</ele><time>2010-10-02T14:00:22Z</time></trkpt>
<trkpt lat="46.32245092" lon="7.02873996"><ele>955.2000122784</ele><time>2010-10-02T14:00:25Z</time></trkpt>
<trkpt lat="46.32222997" lon="7.02815993"><ele>951.4000243488</ele><time>2010-10-02T14:00:29Z</time></trkpt>
<trkpt lat="46.32189997" lon="7.02745694"><ele>944.4000244296</ele><time>2010-10-02T14:00:34Z</time></trkpt>
<trkpt lat="46.32155799" lon="7.02687892"><ele>936.7999879152</ele><time>2010-10-02T14:00:39Z</time></trkpt>
<trkpt lat="46.32150100" lon="7.02679393"><ele>936.7999879152</ele><time>2010-10-02T14:00:40Z</time></trkpt>
<trkpt lat="46.32122498" lon="7.02659192"><ele>931.5999755568</ele><time>2010-10-02T14:00:44Z</time></trkpt>
<trkpt lat="46.32115197" lon="7.02659293"><ele>930.7999877232</ele><time>2010-10-02T14:00:45Z</time></trkpt>
<trkpt lat="46.32078996" lon="7.02677599"><ele>926.0000000664</ele><time>2010-10-02T14:00:50Z</time></trkpt>
<trkpt lat="46.32052300" lon="7.02690398"><ele>921.9999999384</ele><time>2010-10-02T14:00:54Z</time></trkpt>
<trkpt lat="46.32034698" lon="7.02665697"><ele>918.2000123136</ele><time>2010-10-02T14:00:58Z</time></trkpt>
<trkpt lat="46.32019996" lon="7.02643795"><ele>916.2000122496</ele><time>2010-10-02T14:01:00Z</time></trkpt>
<trkpt lat="46.31965597" lon="7.02592196"><ele>912.40002432</ele><time>2010-10-02T14:01:06Z</time></trkpt>
<trkpt lat="46.31948993" lon="7.02580797"><ele>910.5999754944</ele><time>2010-10-02T14:01:08Z</time></trkpt>
<trkpt lat="46.31910696" lon="7.02576798"><ele>906.7999878696</ele><time>2010-10-02T14:01:12Z</time></trkpt>
<trkpt lat="46.31901794" lon="7.02574393"><ele>905.7999878376</ele><time>2010-10-02T14:01:13Z</time></trkpt>
<trkpt lat="46.31885500" lon="7.02555894"><ele>901.999999908</ele><time>2010-10-02T14:01:17Z</time></trkpt>
<trkpt lat="46.31869297" lon="7.02504295"><ele>898.2000122832</ele><time>2010-10-02T14:01:21Z</time></trkpt>
<trkpt lat="46.31806592" lon="7.02385599"><ele>893.9999999568</ele><time>2010-10-02T14:01:29Z</time></trkpt>
<trkpt lat="46.31791899" lon="7.02359598"><ele>892.9999999248</ele><time>2010-10-02T14:01:32Z</time></trkpt>
<trkpt lat="46.31783492" lon="7.02340898"><ele>891.599975496</ele><time>2010-10-02T14:01:34Z</time></trkpt>
<trkpt lat="46.31764993" lon="7.02296893"><ele>888.7999879032</ele><time>2010-10-02T14:01:38Z</time></trkpt>
<trkpt lat="46.31753099" lon="7.02260197"><ele>886.7999878392</ele><time>2010-10-02T14:01:41Z</time></trkpt>
<trkpt lat="46.31727300" lon="7.02197894"><ele>881.7999876792</ele><time>2010-10-02T14:01:45Z</time></trkpt>
<trkpt lat="46.31717493" lon="7.02178599"><ele>880.4000245152</ele><time>2010-10-02T14:01:46Z</time></trkpt>
<trkpt lat="46.31667193" lon="7.02095099"><ele>876.2000121888</ele><time>2010-10-02T14:01:51Z</time></trkpt>
<trkpt lat="46.31638695" lon="7.02050499"><ele>871.799987664</ele><time>2010-10-02T14:01:54Z</time></trkpt>
<trkpt lat="46.31606399" lon="7.01961198"><ele>864.9999999432</ele><time>2010-10-02T14:01:59Z</time></trkpt>
<trkpt lat="46.31562696" lon="7.01861395"><ele>855.7999877616</ele><time>2010-10-02T14:02:04Z</time></trkpt>
<trkpt lat="46.31547298" lon="7.01822997"><ele>852.999999864</ele><time>2010-10-02T14:02:06Z</time></trkpt>
<trkpt lat="46.31521993" lon="7.01791096"><ele>849.0000000408</ele><time>2010-10-02T14:02:09Z</time></trkpt>
<trkpt lat="46.31510695" lon="7.01785597"><ele>847.7999878104</ele><time>2010-10-02T14:02:10Z</time></trkpt>
<trkpt lat="46.31454997" lon="7.01758096"><ele>843.7999876824</ele><time>2010-10-02T14:02:15Z</time></trkpt>
<trkpt lat="46.31435693" lon="7.01743897"><ele>842.7999876504</ele><time>2010-10-02T14:02:17Z</time></trkpt>
<trkpt lat="46.31404496" lon="7.01727494"><ele>841.4000244864</ele><time>2010-10-02T14:02:20Z</time></trkpt>
<trkpt lat="46.31356694" lon="7.01711300"><ele>838.200012192</ele><time>2010-10-02T14:02:24Z</time></trkpt>
<trkpt lat="46.31305992" lon="7.01687696"><ele>831.4000244712</ele><time>2010-10-02T14:02:28Z</time></trkpt>
<trkpt lat="46.31283595" lon="7.01674897"><ele>827.2000121448</ele><time>2010-10-02T14:02:30Z</time></trkpt>
<trkpt lat="46.31238593" lon="7.01669793"><ele>820.0000000272</ele><time>2010-10-02T14:02:34Z</time></trkpt>
<trkpt lat="46.31228099" lon="7.01670798"><ele>818.2000121616</ele><time>2010-10-02T14:02:35Z</time></trkpt>
<trkpt lat="46.31204998" lon="7.01673196"><ele>814.9999998672</ele><time>2010-10-02T14:02:37Z</time></trkpt>
<trkpt lat="46.31168696" lon="7.01702893"><ele>808.5999755832</ele><time>2010-10-02T14:02:41Z</time></trkpt>
<trkpt lat="46.31140994" lon="7.01713496"><ele>803.7999879264</ele><time>2010-10-02T14:02:44Z</time></trkpt>
<trkpt lat="46.31121992" lon="7.01725792"><ele>802.2000122592</ele><time>2010-10-02T14:02:46Z</time></trkpt>
<trkpt lat="46.31102395" lon="7.01747392"><ele>799.5999756</ele><time>2010-10-02T14:02:48Z</time></trkpt>
<trkpt lat="46.31076294" lon="7.01775195"><ele>795.599975472</ele><time>2010-10-02T14:02:51Z</time></trkpt>
<trkpt lat="46.31053495" lon="7.01827599"><ele>789.4000243464</ele><time>2010-10-02T14:02:55Z</time></trkpt>
<trkpt lat="46.31021292" lon="7.01873599"><ele>783.4000244592</ele><time>2010-10-02T14:02:59Z</time></trkpt>
<trkpt lat="46.30993992" lon="7.01894595"><ele>778.5999755376</ele><time>2010-10-02T14:03:02Z</time></trkpt>
<trkpt lat="46.30974697" lon="7.01935994"><ele>772.400024412</ele><time>2010-10-02T14:03:06Z</time></trkpt>
<trkpt lat="46.30965494" lon="7.01956093"><ele>769.9999999512</ele><time>2010-10-02T14:03:08Z</time></trkpt>
<trkpt lat="46.30948495" lon="7.01966898"><ele>767.4000245568</ele><time>2010-10-02T14:03:11Z</time></trkpt>
<trkpt lat="46.30941597" lon="7.01954492"><ele>763.4000244288</ele><time>2010-10-02T14:03:14Z</time></trkpt>
<trkpt lat="46.30921799" lon="7.01927092"><ele>757.999999872</ele><time>2010-10-02T14:03:18Z</time></trkpt>
<trkpt lat="46.30910299" lon="7.01888996"><ele>753.4000244136</ele><time>2010-10-02T14:03:23Z</time></trkpt>
<trkpt lat="46.30902797" lon="7.01872299"><ele>751.9999999848</ele><time>2010-10-02T14:03:25Z</time></trkpt>
<trkpt lat="46.30914892" lon="7.01836894"><ele>749.9999999208</ele><time>2010-10-02T14:03:30Z</time></trkpt>
<trkpt lat="46.30924095" lon="7.01815596"><ele>748.2000120552</ele><time>2010-10-02T14:03:32Z</time></trkpt>
<trkpt lat="46.30971394" lon="7.01769194"><ele>745.4000244624</ele><time>2010-10-02T14:03:36Z</time></trkpt>
<trkpt lat="46.30990497" lon="7.01755095"><ele>744.4000244304</ele><time>2010-10-02T14:03:38Z</time></trkpt>
<trkpt lat="46.31009792" lon="7.01694394"><ele>742.7999878032</ele><time>2010-10-02T14:03:43Z</time></trkpt>
<trkpt lat="46.31011695" lon="7.01669793"><ele>741.7999877712</ele><time>2010-10-02T14:03:45Z</time></trkpt>
<trkpt lat="46.31026799" lon="7.01580592"><ele>740.4000243024</ele><time>2010-10-02T14:03:53Z</time></trkpt>
<trkpt lat="46.31030998" lon="7.01559395"><ele>739.9999999056</ele><time>2010-10-02T14:03:55Z</time></trkpt>
<trkpt lat="46.31032792" lon="7.01517795"><ele>738.9999998736</ele><time>2010-10-02T14:03:59Z</time></trkpt>
<trkpt lat="46.31039296" lon="7.01481200"><ele>738.4000245432</ele><time>2010-10-02T14:04:03Z</time></trkpt>
<trkpt lat="46.31053193" lon="7.01438092"><ele>738.4000245432</ele><time>2010-10-02T14:04:08Z</time></trkpt>
<trkpt lat="46.31075598" lon="7.01426692"><ele>737.5999754448</ele><time>2010-10-02T14:04:12Z</time></trkpt>
<trkpt lat="46.31094994" lon="7.01431495"><ele>737.0000001144</ele><time>2010-10-02T14:04:15Z</time></trkpt>
<trkpt lat="46.31117499" lon="7.01427899"><ele>736.0000000824</ele><time>2010-10-02T14:04:19Z</time></trkpt>
<trkpt lat="46.31115295" lon="7.01405394"><ele>735.4000244472</ele><time>2010-10-02T14:04:22Z</time></trkpt>
<trkpt lat="46.31097995" lon="7.01398998"><ele>734.5999756536</ele><time>2010-10-02T14:04:24Z</time></trkpt>
<trkpt lat="46.31083000" lon="7.01391798"><ele>734.2000122168</ele><time>2010-10-02T14:04:26Z</time></trkpt>
<trkpt lat="46.31064299" lon="7.01360098"><ele>732.2000121528</ele><time>2010-10-02T14:04:30Z</time></trkpt>
<trkpt lat="46.31062900" lon="7.01352295"><ele>731.9999999544</ele><time>2010-10-02T14:04:31Z</time></trkpt>
<trkpt lat="46.31060394" lon="7.01321592"><ele>731.4000243192</ele><time>2010-10-02T14:04:34Z</time></trkpt>
<trkpt lat="46.31064392" lon="7.01268199"><ele>728.9999998584</ele><time>2010-10-02T14:04:38Z</time></trkpt>
<trkpt lat="46.31080594" lon="7.01172997"><ele>723.2000121696</ele><time>2010-10-02T14:04:44Z</time></trkpt>
<trkpt lat="46.31100300" lon="7.01099798"><ele>716.2000122504</ele><time>2010-10-02T14:04:49Z</time></trkpt>
<trkpt lat="46.31110693" lon="7.01060797"><ele>713.999999988</ele><time>2010-10-02T14:04:52Z</time></trkpt>
<trkpt lat="46.31131497" lon="7.00987497"><ele>711.2000120904</ele><time>2010-10-02T14:04:58Z</time></trkpt>
<trkpt lat="46.31146492" lon="7.00930299"><ele>709.0000001328</ele><time>2010-10-02T14:05:03Z</time></trkpt>
<trkpt lat="46.31149594" lon="7.00918900"><ele>709.0000001328</ele><time>2010-10-02T14:05:04Z</time></trkpt>
<trkpt lat="46.31155998" lon="7.00848894"><ele>707.4000244656</ele><time>2010-10-02T14:05:10Z</time></trkpt>
<trkpt lat="46.31147699" lon="7.00806892"><ele>705.59997564</ele><time>2010-10-02T14:05:14Z</time></trkpt>
<trkpt lat="46.31132293" lon="7.00767699"><ele>703.4000243376</ele><time>2010-10-02T14:05:19Z</time></trkpt>
<trkpt lat="46.31128798" lon="7.00760792"><ele>700.200012348</ele><time>2010-10-02T14:05:23Z</time></trkpt>
<trkpt lat="46.31128698" lon="7.00760993"><ele>700.0000001496</ele><time>2010-10-02T14:05:24Z</time></trkpt>
<trkpt lat="46.31123492" lon="7.00762100"><ele>699.599975448</ele><time>2010-10-02T14:06:38Z</time></trkpt>
<trkpt lat="46.31107793" lon="7.00746593"><ele>698.5999757208</ele><time>2010-10-02T14:06:42Z</time></trkpt>
<trkpt lat="46.31076897" lon="7.00713392"><ele>696.0000000216</ele><time>2010-10-02T14:06:47Z</time></trkpt>
<trkpt lat="46.31065297" lon="7.00700392"><ele>694.5999755928</ele><time>2010-10-02T14:06:49Z</time></trkpt>
<trkpt lat="46.31034099" lon="7.00691298"><ele>690.5999754648</ele><time>2010-10-02T14:06:54Z</time></trkpt>
<trkpt lat="46.31020999" lon="7.00691398"><ele>688.2000122688</ele><time>2010-10-02T14:06:57Z</time></trkpt>
<trkpt lat="46.31019892" lon="7.00686797"><ele>688.2000122688</ele><time>2010-10-02T14:06:58Z</time></trkpt>
<trkpt lat="46.31026799" lon="7.00671298"><ele>685.5999756096</ele><time>2010-10-02T14:07:01Z</time></trkpt>
<trkpt lat="46.31042196" lon="7.00660896"><ele>684.2000121408</ele><time>2010-10-02T14:07:04Z</time></trkpt>
<trkpt lat="46.31054493" lon="7.00656597"><ele>683.5999755456</ele><time>2010-10-02T14:07:06Z</time></trkpt>
<trkpt lat="46.31072195" lon="7.00630696"><ele>681.0000001512</ele><time>2010-10-02T14:07:10Z</time></trkpt>
<trkpt lat="46.31084693" lon="7.00599994"><ele>679.7999879208</ele><time>2010-10-02T14:07:13Z</time></trkpt>
<trkpt lat="46.31115496" lon="7.00540993"><ele>677.40002442</ele><time>2010-10-02T14:07:19Z</time></trkpt>
<trkpt lat="46.31133199" lon="7.00504700"><ele>676.400024388</ele><time>2010-10-02T14:07:23Z</time></trkpt>
<trkpt lat="46.31158797" lon="7.00456093"><ele>674.9999999592</ele><time>2010-10-02T14:07:28Z</time></trkpt>
<trkpt lat="46.31196599" lon="7.00416296"><ele>673.7999877288</ele><time>2010-10-02T14:07:32Z</time></trkpt>
<trkpt lat="46.31189592" lon="7.00372400"><ele>672.7999876968</ele><time>2010-10-02T14:07:35Z</time></trkpt>
<trkpt lat="46.31182593" lon="7.00346299"><ele>671.9999998632</ele><time>2010-10-02T14:07:37Z</time></trkpt>
<trkpt lat="46.31177497" lon="7.00270995"><ele>669.2000122704</ele><time>2010-10-02T14:07:43Z</time></trkpt>
<trkpt lat="46.31180699" lon="7.00192298"><ele>666.7999878096</ele><time>2010-10-02T14:07:49Z</time></trkpt>
<trkpt lat="46.31186198" lon="7.00167697"><ele>665.2000121424</ele><time>2010-10-02T14:07:51Z</time></trkpt>
<trkpt lat="46.31193892" lon="7.00104296"><ele>662.4000245496</ele><time>2010-10-02T14:07:57Z</time></trkpt>
<trkpt lat="46.31194194" lon="7.00062194"><ele>661.2000123192</ele><time>2010-10-02T14:08:02Z</time></trkpt>
<trkpt lat="46.31155193" lon="7.00026495"><ele>660.2000122872</ele><time>2010-10-02T14:08:05Z</time></trkpt>
<trkpt lat="46.31133593" lon="6.99992398"><ele>659.599975692</ele><time>2010-10-02T14:08:08Z</time></trkpt>
<trkpt lat="46.31117793" lon="6.99937496"><ele>658.59997566</ele><time>2010-10-02T14:08:13Z</time></trkpt>
<trkpt lat="46.31110995" lon="6.99882997"><ele>657.4000243896</ele><time>2010-10-02T14:08:18Z</time></trkpt>
<trkpt lat="46.31102194" lon="6.99855899"><ele>656.7999877944</ele><time>2010-10-02T14:08:20Z</time></trkpt>
<trkpt lat="46.31115798" lon="6.99748795"><ele>654.4000242936</ele><time>2010-10-02T14:08:30Z</time></trkpt>
<trkpt lat="46.31112294" lon="6.99734596"><ele>653.2000120632</ele><time>2010-10-02T14:08:34Z</time></trkpt>
<trkpt lat="46.31128698" lon="6.99726893"><ele>651.7999879392</ele><time>2010-10-02T14:08:37Z</time></trkpt>
<trkpt lat="46.31139896" lon="6.99704798"><ele>651.0000001056</ele><time>2010-10-02T14:08:40Z</time></trkpt>
<trkpt lat="46.31142293" lon="6.99695796"><ele>650.4000244704</ele><time>2010-10-02T14:08:41Z</time></trkpt>
<trkpt lat="46.31146392" lon="6.99679694"><ele>649.20001224</ele><time>2010-10-02T14:08:43Z</time></trkpt>
<trkpt lat="46.31144992" lon="6.99661899"><ele>647.200012176</ele><time>2010-10-02T14:08:46Z</time></trkpt>
<trkpt lat="46.31115898" lon="6.99642998"><ele>644.7999877152</ele><time>2010-10-02T14:08:50Z</time></trkpt>
<trkpt lat="46.31093594" lon="6.99605095"><ele>640.799987892</ele><time>2010-10-02T14:08:55Z</time></trkpt>
<trkpt lat="46.31082899" lon="6.99558492"><ele>636.5999755656</ele><time>2010-10-02T14:09:00Z</time></trkpt>
<trkpt lat="46.31080393" lon="6.99548895"><ele>635.5999755336</ele><time>2010-10-02T14:09:01Z</time></trkpt>
<trkpt lat="46.31071198" lon="6.99530496"><ele>634.5999755016</ele><time>2010-10-02T14:09:03Z</time></trkpt>
<trkpt lat="46.31046094" lon="6.99512400"><ele>632.0000001072</ele><time>2010-10-02T14:09:06Z</time></trkpt>
<trkpt lat="46.31034695" lon="6.99508192"><ele>631.400024472</ele><time>2010-10-02T14:09:07Z</time></trkpt>
<trkpt lat="46.30988896" lon="6.99489492"><ele>627.2000121456</ele><time>2010-10-02T14:09:12Z</time></trkpt>
<trkpt lat="46.30955695" lon="6.99477095"><ele>623.2000123224</ele><time>2010-10-02T14:09:16Z</time></trkpt>
<trkpt lat="46.30928295" lon="6.99453400"><ele>620.5999756632</ele><time>2010-10-02T14:09:20Z</time></trkpt>
<trkpt lat="46.30900199" lon="6.99416092"><ele>616.2000120984</ele><time>2010-10-02T14:09:25Z</time></trkpt>
<trkpt lat="46.30875899" lon="6.99364392"><ele>611.0000000448</ele><time>2010-10-02T14:09:31Z</time></trkpt>
<trkpt lat="46.30903593" lon="6.98715792"><ele>551.9999999856</ele><time>2010-10-02T14:10:29Z</time></trkpt>
<trkpt lat="46.30881197" lon="6.98670999"><ele>547.5999754608</ele><time>2010-10-02T14:10:34Z</time></trkpt>
<trkpt lat="46.30875296" lon="6.98653992"><ele>546.5999757336</ele><time>2010-10-02T14:10:36Z</time></trkpt>
<trkpt lat="46.30557597" lon="6.98598496"><ele>542.799987804</ele><time>2010-10-02T14:10:40Z</time></trkpt>
<trkpt lat="46.30542492" lon="6.98589695"><ele>540.9999999384</ele><time>2010-10-02T14:10:42Z</time></trkpt>
<trkpt lat="46.30524396" lon="6.98580592"><ele>538.5999754776</ele><time>2010-10-02T14:10:45Z</time></trkpt>
<trkpt lat="46.30516894" lon="6.98566795"><ele>536.0000000832</ele><time>2010-10-02T14:10:49Z</time></trkpt>
<trkpt lat="46.30518797" lon="6.98567198"><ele>535.400024448</ele><time>2010-10-02T14:10:50Z</time></trkpt>
<trkpt lat="46.30548100" lon="6.98583400"><ele>534.400024416</ele><time>2010-10-02T14:10:54Z</time></trkpt>
<trkpt lat="46.30581795" lon="6.98601999"><ele>532.5999755904</ele><time>2010-10-02T14:10:58Z</time></trkpt>
<trkpt lat="46.30598593" lon="6.98616198"><ele>531.5999755584</ele><time>2010-10-02T14:11:00Z</time></trkpt>
<trkpt lat="46.30622800" lon="6.98637798"><ele>529.9999998912</ele><time>2010-10-02T14:11:03Z</time></trkpt>
<trkpt lat="46.30660099" lon="6.98652995"><ele>525.4000244328</ele><time>2010-10-02T14:11:07Z</time></trkpt>
<trkpt lat="46.30684398" lon="6.98652995"><ele>521.7999877416</ele><time>2010-10-02T14:11:10Z</time></trkpt>
<trkpt lat="46.30707398" lon="6.98683094"><ele>518.0000001168</ele><time>2010-10-02T14:11:14Z</time></trkpt>
<trkpt lat="46.30730197" lon="6.98731994"><ele>514.599975624</ele><time>2010-10-02T14:11:18Z</time></trkpt>
<trkpt lat="46.30751194" lon="6.98792394"><ele>508.3999940184</ele><time>2010-10-02T14:11:23Z</time></trkpt>
<trkpt lat="46.30769692" lon="6.98823994"><ele>506.0000000376</ele><time>2010-10-02T14:11:26Z</time></trkpt>
<trkpt lat="46.31041492" lon="6.98950494"><ele>477.3999939408</ele><time>2010-10-02T14:11:50Z</time></trkpt>
<trkpt lat="46.31007998" lon="6.98943897"><ele>476.2000121904</ele><time>2010-10-02T14:11:52Z</time></trkpt>
<trkpt lat="46.31042498" lon="6.98938793"><ele>472.2000120624</ele><time>2010-10-02T14:11:56Z</time></trkpt>
<trkpt lat="46.31083393" lon="6.98920193"><ele>468.2000122392</ele><time>2010-10-02T14:12:00Z</time></trkpt>
<trkpt lat="46.31101792" lon="6.98914099"><ele>465.7999877784</ele><time>2010-10-02T14:12:02Z</time></trkpt>
<trkpt lat="46.31134498" lon="6.98903396"><ele>459.6000061728</ele><time>2010-10-02T14:12:07Z</time></trkpt>
<trkpt lat="46.31137398" lon="6.98882994"><ele>457.3999939104</ele><time>2010-10-02T14:12:10Z</time></trkpt>
<trkpt lat="46.31120592" lon="6.98880295"><ele>456.3999938784</ele><time>2010-10-02T14:12:12Z</time></trkpt>
<trkpt lat="46.31089697" lon="6.98883397"><ele>454.9999999296</ele><time>2010-10-02T14:12:16Z</time></trkpt>
<trkpt lat="46.31065398" lon="6.98870094"><ele>453.6000059808</ele><time>2010-10-02T14:12:19Z</time></trkpt>
<trkpt lat="46.31042398" lon="6.98845494"><ele>451.0000001064</ele><time>2010-10-02T14:12:22Z</time></trkpt>
<trkpt lat="46.31022692" lon="6.98831898"><ele>449.0000000424</ele><time>2010-10-02T14:12:24Z</time></trkpt>
<trkpt lat="46.30984797" lon="6.98818596"><ele>443.6000059656</ele><time>2010-10-02T14:12:29Z</time></trkpt>
<trkpt lat="46.30981294" lon="6.98819996"><ele>442.6000062384</ele><time>2010-10-02T14:12:30Z</time></trkpt>
<trkpt lat="46.30972099" lon="6.98833600"><ele>441.0000000912</ele><time>2010-10-02T14:12:32Z</time></trkpt>
<trkpt lat="46.30959995" lon="6.98838595"><ele>438.2000121936</ele><time>2010-10-02T14:12:36Z</time></trkpt>
<trkpt lat="46.30956098" lon="6.98816693"><ele>435.9999999312</ele><time>2010-10-02T14:12:39Z</time></trkpt>
<trkpt lat="46.30957992" lon="6.98787097"><ele>433.6000062552</ele><time>2010-10-02T14:12:42Z</time></trkpt>
<trkpt lat="46.30955896" lon="6.98722397"><ele>428.6000060952</ele><time>2010-10-02T14:12:47Z</time></trkpt>
<trkpt lat="46.30951898" lon="6.98698098"><ele>426.6000060312</ele><time>2010-10-02T14:12:49Z</time></trkpt>
<trkpt lat="46.30932896" lon="6.98633892"><ele>421.0000000608</ele><time>2010-10-02T14:12:54Z</time></trkpt>
<trkpt lat="46.30914599" lon="6.98575395"><ele>415.9999999008</ele><time>2010-10-02T14:12:59Z</time></trkpt>
<trkpt lat="46.30900894" lon="6.98518893"><ele>412.200012276</ele><time>2010-10-02T14:13:03Z</time></trkpt>
<trkpt lat="46.30894499" lon="6.98460697"><ele>408.7999877832</ele><time>2010-10-02T14:13:07Z</time></trkpt>
<trkpt lat="46.30861692" lon="6.98385696"><ele>402.3999939792</ele><time>2010-10-02T14:13:12Z</time></trkpt>
<trkpt lat="46.30845699" lon="6.98333393"><ele>396.799987704</ele><time>2010-10-02T14:13:16Z</time></trkpt>
<trkpt lat="46.30770195" lon="6.98282992"><ele>391.399993932</ele><time>2010-10-02T14:13:20Z</time></trkpt>
<trkpt lat="46.30670392" lon="6.98241292"><ele>386.7999876888</ele><time>2010-10-02T14:13:24Z</time></trkpt>
<trkpt lat="46.30636093" lon="6.98223598"><ele>382.6000061472</ele><time>2010-10-02T14:13:28Z</time></trkpt>
<trkpt lat="46.30606497" lon="6.98212995"><ele>379.7999877696</ele><time>2010-10-02T14:13:31Z</time></trkpt>
<trkpt lat="46.30577696" lon="6.98183298"><ele>376.3999937568</ele><time>2010-10-02T14:13:35Z</time></trkpt>
<trkpt lat="46.30563296" lon="6.98150399"><ele>372.2000122152</ele><time>2010-10-02T14:13:39Z</time></trkpt>
<trkpt lat="46.30568895" lon="6.98130693"><ele>369.600006036</ele><time>2010-10-02T14:13:42Z</time></trkpt>
<trkpt lat="46.30585793" lon="6.98141397"><ele>367.7999876904</ele><time>2010-10-02T14:13:44Z</time></trkpt>
<trkpt lat="46.30608500" lon="6.98159795"><ele>365.6000062128</ele><time>2010-10-02T14:13:47Z</time></trkpt>
<trkpt lat="46.30631399" lon="6.98158295"><ele>363.3999939504</ele><time>2010-10-02T14:13:50Z</time></trkpt>
<trkpt lat="46.30648792" lon="6.98129595"><ele>360.3999938544</ele><time>2010-10-02T14:13:53Z</time></trkpt>
<trkpt lat="46.30664499" lon="6.98126092"><ele>357.9999998736</ele><time>2010-10-02T14:13:56Z</time></trkpt>
<trkpt lat="46.30667693" lon="6.98130098"><ele>357.6000059568</ele><time>2010-10-02T14:13:57Z</time></trkpt>
<trkpt lat="46.30685898" lon="6.98144398"><ele>357.6000059568</ele><time>2010-10-02T14:14:01Z</time></trkpt>
<trkpt lat="46.30695697" lon="6.98151992"><ele>358.200012072</ele><time>2010-10-02T14:14:03Z</time></trkpt>
<trkpt lat="46.30711799" lon="6.98162293"><ele>358.9999999056</ele><time>2010-10-02T14:14:06Z</time></trkpt>
<trkpt lat="46.30715998" lon="6.98164095"><ele>358.9999999056</ele><time>2010-10-02T14:14:07Z</time></trkpt>
<trkpt lat="46.30745100" lon="6.98168999"><ele>360.200012136</ele><time>2010-10-02T14:14:13Z</time></trkpt>
<trkpt lat="46.30765200" lon="6.98173894"><ele>360.6000060528</ele><time>2010-10-02T14:14:17Z</time></trkpt>
<trkpt lat="46.30780597" lon="6.98179392"><ele>360.3999938544</ele><time>2010-10-02T14:14:20Z</time></trkpt>
<trkpt lat="46.30795492" lon="6.98197799"><ele>360.3999938544</ele><time>2010-10-02T14:14:24Z</time></trkpt>
<trkpt lat="46.30797897" lon="6.98206994"><ele>360.200012136</ele><time>2010-10-02T14:14:25Z</time></trkpt>
<trkpt lat="46.30803999" lon="6.98227596"><ele>359.200012104</ele><time>2010-10-02T14:14:27Z</time></trkpt>
<trkpt lat="46.30827997" lon="6.98265097"><ele>356.2000123128</ele><time>2010-10-02T14:14:31Z</time></trkpt>
<trkpt lat="46.30850192" lon="6.98278500"><ele>354.2000122488</ele><time>2010-10-02T14:14:34Z</time></trkpt>
<trkpt lat="46.30860594" lon="6.98279095"><ele>353.6000061336</ele><time>2010-10-02T14:14:35Z</time></trkpt>
<trkpt lat="46.30913492" lon="6.98290193"><ele>348.9999998904</ele><time>2010-10-02T14:14:41Z</time></trkpt>
<trkpt lat="46.30943500" lon="6.98302598"><ele>344.7999878688</ele><time>2010-10-02T14:14:46Z</time></trkpt>
<trkpt lat="46.30956592" lon="6.98310695"><ele>344.399993952</ele><time>2010-10-02T14:14:48Z</time></trkpt>
<trkpt lat="46.30962694" lon="6.98315598"><ele>343.7999878368</ele><time>2010-10-02T14:14:49Z</time></trkpt>
<trkpt lat="46.31018199" lon="6.98343292"><ele>336.6000061992</ele><time>2010-10-02T14:14:55Z</time></trkpt>
<trkpt lat="46.31034292" lon="6.98354096"><ele>334.3999939368</ele><time>2010-10-02T14:14:57Z</time></trkpt>
<trkpt lat="46.31049899" lon="6.98367700"><ele>331.999999956</ele><time>2010-10-02T14:14:59Z</time></trkpt>
<trkpt lat="46.31082798" lon="6.98398495"><ele>325.3999939536</ele><time>2010-10-02T14:15:04Z</time></trkpt>
<trkpt lat="46.31076495" lon="6.98439097"><ele>321.3999938256</ele><time>2010-10-02T14:15:08Z</time></trkpt>
<trkpt lat="46.31069195" lon="6.98476899"><ele>317.7999879192</ele><time>2010-10-02T14:15:12Z</time></trkpt>
<trkpt lat="46.31070594" lon="6.98482398"><ele>317.7999879192</ele><time>2010-10-02T14:15:13Z</time></trkpt>
<trkpt lat="46.31073092" lon="6.98485994"><ele>316.0000000536</ele><time>2010-10-02T14:15:15Z</time></trkpt>
<trkpt lat="46.31086294" lon="6.98496899"><ele>311.200012092</ele><time>2010-10-02T14:15:20Z</time></trkpt>
<trkpt lat="46.31103099" lon="6.98499195"><ele>306.2000122368</ele><time>2010-10-02T14:15:25Z</time></trkpt>
<trkpt lat="46.31110299" lon="6.98498097"><ele>486.399993924</ele><time>2010-10-02T14:15:27Z</time></trkpt>
<trkpt lat="46.31113593" lon="6.98497695"><ele>485.7999878088</ele><time>2010-10-02T14:15:28Z</time></trkpt>
<trkpt lat="46.31122294" lon="6.98503898"><ele>485.6000060904</ele><time>2010-10-02T14:15:32Z</time></trkpt>
<trkpt lat="46.31132998" lon="6.98510896"><ele>483.399993828</ele><time>2010-10-02T14:15:35Z</time></trkpt>
<trkpt lat="46.31151999" lon="6.98515892"><ele>481.6000059624</ele><time>2010-10-02T14:15:38Z</time></trkpt>
<trkpt lat="46.31161194" lon="6.98517594"><ele>480.6000062352</ele><time>2010-10-02T14:15:39Z</time></trkpt>
<trkpt lat="46.31202299" lon="6.98543100"><ele>476.6000061072</ele><time>2010-10-02T14:15:44Z</time></trkpt>
<trkpt lat="46.31375394" lon="6.98556092"><ele>476.2000121904</ele><time>2010-10-02T14:15:48Z</time></trkpt>
<trkpt lat="46.31436397" lon="6.98548498"><ele>476.6000061072</ele><time>2010-10-02T14:15:51Z</time></trkpt>
<trkpt lat="46.31491299" lon="6.98509497"><ele>478.2000122544</ele><time>2010-10-02T14:16:00Z</time></trkpt>
<trkpt lat="46.31511793" lon="6.98498097"><ele>478.6000061712</ele><time>2010-10-02T14:16:04Z</time></trkpt>
<trkpt lat="46.31528196" lon="6.98501400"><ele>478.6000061712</ele><time>2010-10-02T14:16:07Z</time></trkpt>
<trkpt lat="46.31538799" lon="6.98519496"><ele>478.7999878896</ele><time>2010-10-02T14:16:10Z</time></trkpt>
<trkpt lat="46.31540492" lon="6.98549998"><ele>478.3999939728</ele><time>2010-10-02T14:16:13Z</time></trkpt>
<trkpt lat="46.31544197" lon="6.98567994"><ele>477.3999939408</ele><time>2010-10-02T14:16:15Z</time></trkpt>
<trkpt lat="46.31556292" lon="6.98584297"><ele>475.7999877936</ele><time>2010-10-02T14:16:19Z</time></trkpt>
<trkpt lat="46.31563693" lon="6.98585093"><ele>474.6000060432</ele><time>2010-10-02T14:16:21Z</time></trkpt>
<trkpt lat="46.31583894" lon="6.98592192"><ele>470.2000123032</ele><time>2010-10-02T14:16:26Z</time></trkpt>
<trkpt lat="46.31587800" lon="6.98593894"><ele>469.600006188</ele><time>2010-10-02T14:16:27Z</time></trkpt>
<trkpt lat="46.31590398" lon="6.98585797"><ele>468.3999939576</ele><time>2010-10-02T14:16:31Z</time></trkpt>
<trkpt lat="46.31593298" lon="6.98564096"><ele>468.0000000408</ele><time>2010-10-02T14:16:35Z</time></trkpt>
<trkpt lat="46.31595000" lon="6.98513092"><ele>466.2000121752</ele><time>2010-10-02T14:16:39Z</time></trkpt>
<trkpt lat="46.31592795" lon="6.98464796"><ele>463.7999877144</ele><time>2010-10-02T14:16:43Z</time></trkpt>
<trkpt lat="46.31592494" lon="6.98410699"><ele>460.0000000896</ele><time>2010-10-02T14:16:47Z</time></trkpt>
<trkpt lat="46.31601093" lon="6.98361196"><ele>456.6000060768</ele><time>2010-10-02T14:16:50Z</time></trkpt>
<trkpt lat="46.31607992" lon="6.98332496"><ele>454.200012096</ele><time>2010-10-02T14:16:52Z</time></trkpt>
<trkpt lat="46.31619592" lon="6.98306596"><ele>453.200012064</ele><time>2010-10-02T14:16:54Z</time></trkpt>
<trkpt lat="46.31624596" lon="6.98293596"><ele>452.2000123368</ele><time>2010-10-02T14:16:55Z</time></trkpt>
<trkpt lat="46.31656095" lon="6.98238200"><ele>444.9999999144</ele><time>2010-10-02T14:17:00Z</time></trkpt>
<trkpt lat="46.31648392" lon="6.98183298"><ele>441.2000122896</ele><time>2010-10-02T14:17:04Z</time></trkpt>
<trkpt lat="46.31640195" lon="6.98133996"><ele>437.39999388</ele><time>2010-10-02T14:17:08Z</time></trkpt>
<trkpt lat="46.31646498" lon="6.98096998"><ele>433.2000123384</ele><time>2010-10-02T14:17:12Z</time></trkpt>
<trkpt lat="46.31649792" lon="6.98091692"><ele>432.2000123064</ele><time>2010-10-02T14:17:13Z</time></trkpt>
<trkpt lat="46.31648996" lon="6.98071995"><ele>429.7999878456</ele><time>2010-10-02T14:17:19Z</time></trkpt>
<trkpt lat="46.31641293" lon="6.98067393"><ele>429.3999939288</ele><time>2010-10-02T14:17:21Z</time></trkpt>
<trkpt lat="46.31628796" lon="6.98061392"><ele>429.000000012</ele><time>2010-10-02T14:17:27Z</time></trkpt>
<trkpt lat="46.31641595" lon="6.98067393"><ele>429.7999878456</ele><time>2010-10-02T14:18:45Z</time></trkpt>
<trkpt lat="46.31642592" lon="6.98067192"><ele>429.7999878456</ele><time>2010-10-02T14:18:48Z</time></trkpt>
<trkpt lat="46.31615493" lon="6.98068298"><ele>433.2000123384</ele><time>2010-10-02T14:22:09Z</time></trkpt>
<trkpt lat="46.31615192" lon="6.98069095"><ele>433.2000123384</ele><time>2010-10-02T14:22:10Z</time></trkpt>
<trkpt lat="46.31616399" lon="6.98074996"><ele>433.6000062552</ele><time>2010-10-02T14:22:24Z</time></trkpt>
<trkpt lat="46.31618000" lon="6.98073898"><ele>433.7999876688</ele><time>2010-10-02T14:22:26Z</time></trkpt>
<trkpt lat="46.31619592" lon="6.98073294"><ele>433.6000062552</ele><time>2010-10-02T14:22:27Z</time></trkpt>
<trkpt lat="46.31626398" lon="6.98066396"><ele>433.7999876688</ele><time>2010-10-02T14:22:37Z</time></trkpt>
</trkseg></trk></gpx>